Provisional Data: Blockhouse Creek near English Center, PA


Please select a monitoring station.
Please select start date.
Please select start date.

Toggle Unit: C/F Toggle Unit: C/F
Sample Time Temperature (C) Temperature (F) Specific Conductivity (mS/cm) pH   Turbidity (NTU+) DO (mg/L)
3/7/2021 12:00:00 AM 0.99 33.782 0.146 6.99 3.34 13.79
3/7/2021 12:15:00 AM 0.96 33.728 0.145 6.99 3.21 13.8
3/7/2021 12:30:00 AM 0.92 33.656 0.092 7 3.35 13.81
3/7/2021 12:45:00 AM 0.89 33.602 0.089 6.99 3.31 13.82
3/7/2021 1:00:00 AM 0.85 33.53 0.143 7 3.38 13.84
3/7/2021 1:15:00 AM 0.83 33.494 0.145 7.08 3.27 13.85
3/7/2021 1:30:00 AM 0.79 33.422 0.088 7.05 3.24 13.87
3/7/2021 1:45:00 AM 0.75 33.35 0.148 7.01 3.47 13.88
3/7/2021 2:00:00 AM 0.71 33.278 0.147 7 3.36 13.89
3/7/2021 2:15:00 AM 0.65 33.17 0.081 7.02 3.4 13.91
3/7/2021 2:30:00 AM 0.6 33.08 0.148 6.99 3.42 13.93
3/7/2021 2:45:00 AM 0.56 33.008 0.147 7.03 3.47 13.95
3/7/2021 3:00:00 AM 0.51 32.918 0.144 7.01 3.29 13.97
3/7/2021 3:15:00 AM 0.48 32.864 0.145 7.05 3.46 13.98
3/7/2021 3:30:00 AM 0.44 32.792 0.145 7.04 3.3 14
3/7/2021 3:45:00 AM 0.41 32.738 0.148 6.99 3.4 14.01
3/7/2021 4:00:00 AM 0.37 32.666 0.147 7 3.41 14.04
3/7/2021 4:15:00 AM 0.32 32.576 0.147 7 3.36 14.06
3/7/2021 4:30:00 AM 0.28 32.504 0.149 6.99 3.3 14.08
3/7/2021 4:45:00 AM 0.23 32.414 0.144 6.99 3.23 14.1
3/7/2021 5:00:00 AM 0.18 32.324 0.145 7.06 3.3 14.12
3/7/2021 5:15:00 AM 0.12 32.216 0.145 6.77 3.15 14.15
3/7/2021 5:30:00 AM 0.08 32.144 0.145 7.05 3.19 14.16
3/7/2021 5:45:00 AM 0.03 32.054 0.145 6.99 3.42 14.18
3/7/2021 6:00:00 AM -0.02 31.964 0.146 7.08 3.43 14.2
3/7/2021 6:15:00 AM -0.06 31.892 0.144 7.08 3.41 14.23
3/7/2021 6:30:00 AM -0.11 31.802 0.146 7.06 3.47 14.25
3/7/2021 6:45:00 AM -0.13 31.766 0.144 7.06 3.32 14.3
3/7/2021 7:00:00 AM -0.11 31.802 0.148 7.07 3.39 14.37
3/7/2021 7:15:00 AM -0.11 31.802 0.144 7.1 3.4 14.44
3/7/2021 7:30:00 AM -0.11 31.802 0.144 7.1 3.22 14.52
3/7/2021 7:45:00 AM -0.11 31.802 0.144 7.08 3.42 14.58
3/7/2021 8:00:00 AM -0.1 31.82 0.142 7.16 3.23 14.65
3/7/2021 8:15:00 AM -0.09 31.838 0.143 7.12 3.25 14.7
3/7/2021 8:30:00 AM -0.08 31.856 0.148 7.2 3.18 14.74
3/7/2021 8:45:00 AM -0.08 31.856 0.143 7.22 3.25 14.78
3/7/2021 9:00:00 AM -0.06 31.892 0.142 7.21 3.28 14.8
3/7/2021 9:15:00 AM -0.05 31.91 0.141 7.16 3.33 14.82
3/7/2021 9:30:00 AM -0.03 31.946 0.141 7.25 3.29 14.83
3/7/2021 9:45:00 AM -0.02 31.964 0.141 7.28 3.26 14.82
3/7/2021 10:00:00 AM 0 32 0.14 7.25 3.55 14.82
3/7/2021 10:15:00 AM 0.01 32.018 0.139 7.25 3.57 14.79
3/7/2021 10:30:00 AM 0.34 32.612 0.139 7.26 3.69 14.77
3/7/2021 10:45:00 AM 0.55 32.99 0.139 7.19 3.22 14.75
3/7/2021 11:00:00 AM 0.73 33.314 0.139 7.2 3.41 14.69
3/7/2021 11:15:00 AM 0.93 33.674 0.139 7.22 3.35 14.64
3/7/2021 11:30:00 AM 1.13 34.034 0.138 7.23 3.24 14.58
3/7/2021 11:45:00 AM 1.37 34.466 0.138 7.24 3.29 14.5
3/7/2021 12:00:00 PM 1.63 34.934 0.137 7.26 3.41 14.42
3/7/2021 12:15:00 PM 1.86 35.348 0.137 7.26 3.44 14.34
3/7/2021 12:30:00 PM 2.06 35.708 0.138 7.27 3.46 14.28
3/7/2021 12:45:00 PM 2.25 36.05 0.137 7.26 3.39 14.21
3/7/2021 1:00:00 PM 2.42 36.356 0.132 7.29 3.3 14.15
3/7/2021 1:15:00 PM 2.6 36.68 0.135 7.27 3.35 14.09
3/7/2021 1:30:00 PM 2.74 36.932 0.091 7.28 3.24 14.04
3/7/2021 1:45:00 PM 2.87 37.166 0.132 7.29 3.1 13.98
3/7/2021 2:00:00 PM 3.03 37.454 0.132 7.3 3.28 13.93
3/7/2021 2:15:00 PM 3.18 37.724 0.133 7.29 3.43 13.85
3/7/2021 2:30:00 PM 3.31 37.958 0.098 7.31 3.34 13.8
3/7/2021 2:45:00 PM 3.43 38.174 0.098 7.35 3.19 13.75
3/7/2021 3:00:00 PM 3.52 38.336 0.133 7.31 3.37 13.71
3/7/2021 3:15:00 PM 3.59 38.462 0.083 7.32 3.29 13.67
3/7/2021 3:30:00 PM 3.62 38.516 0.084 7.31 3.32 13.63
3/7/2021 3:45:00 PM 3.62 38.516 0.105 7.29 3.21 13.61
3/7/2021 4:00:00 PM 3.6 38.48 0.098 7.32 3.69 13.58
3/7/2021 4:15:00 PM 3.57 38.426 0.093 7.29 3.44 13.56
3/7/2021 4:30:00 PM 3.53 38.354 0.104 7.32 3.29 13.55
3/7/2021 4:45:00 PM 3.47 38.246 0.109 7.27 3.24 13.52
3/7/2021 5:00:00 PM 3.38 38.084 0.144 7.29 3.24 13.51
3/7/2021 5:15:00 PM 3.3 37.94 0.093 7.24 3.44 13.49
3/7/2021 5:30:00 PM 3.2 37.76 0.088 7.23 3.29 13.47
3/7/2021 5:45:00 PM 3.08 37.544 0.099 7.22 3.72 13.43
3/7/2021 6:00:00 PM 2.98 37.364 0.098 7.17 3.33 13.4
3/7/2021 6:15:00 PM 2.89 37.202 0.146 7.16 3.72 13.36
3/7/2021 6:30:00 PM 2.79 37.022 0.077 7.13 3.28 13.33
3/7/2021 6:45:00 PM 2.69 36.842 0.088 7.08 3.48 13.32
3/7/2021 7:00:00 PM 2.59 36.662 0.084 7.06 3.45 13.31
3/7/2021 7:15:00 PM 2.5 36.5 0.081 7.05 3.45 13.32
3/7/2021 7:30:00 PM 2.4 36.32 0.091 7.03 3.6 13.34
3/7/2021 7:45:00 PM 2.31 36.158 0.08 7.01 3.36 13.36
3/7/2021 8:00:00 PM 2.22 35.996 0.144 7 3.43 13.39
3/7/2021 8:15:00 PM 2.13 35.834 0.086 6.99 3.34 13.41
3/7/2021 8:30:00 PM 2.04 35.672 0.096 7.04 3.35 13.44
3/7/2021 8:45:00 PM 1.95 35.51 0.081 7.02 3.26 13.47
3/7/2021 9:00:00 PM 1.86 35.348 0.14 7.01 3.37 13.5
3/7/2021 9:15:00 PM 1.77 35.186 0.143 6.99 3.26 13.54
3/7/2021 9:30:00 PM 1.69 35.042 0.144 7.01 3.5 13.56
3/7/2021 9:45:00 PM 1.6 34.88 0.145 7.05 3.41 13.6
3/7/2021 10:00:00 PM 1.52 34.736 0.145 7 3.43 13.63
3/7/2021 10:15:00 PM 1.44 34.592 0.145 7.01 3.25 13.66
3/7/2021 10:30:00 PM 1.36 34.448 0.146 7.03 3.34 13.69
3/7/2021 10:45:00 PM 1.27 34.286 0.145 7.07 3.37 13.73
3/7/2021 11:00:00 PM 1.19 34.142 0.145 7.01 3.34 13.76
3/7/2021 11:15:00 PM 1.11 33.998 0.147 6.98 3.35 13.8
3/7/2021 11:30:00 PM 1.02 33.836 0.145 7.06 3.34 13.83
3/7/2021 11:45:00 PM 0.94 33.692 0.143 7.07 3.55 13.86
3/8/2021 12:00:00 AM 0.86 33.548 0.147 7.06 3.19 13.89
3/8/2021 12:15:00 AM 0.79 33.422 0.146 7.02 3.26 13.93
3/8/2021 12:30:00 AM 0.72 33.296 0.142 7.02 3.43 13.95
3/8/2021 12:45:00 AM 0.65 33.17 0.144 7.02 3.54 13.97
3/8/2021 1:00:00 AM 0.57 33.026 0.146 7 3.33 14.02
3/8/2021 1:15:00 AM 0.5 32.9 0.146 7.04 3.28 14.05
3/8/2021 1:30:00 AM 0.43 32.774 0.146 7.05 3.28 14.08
3/8/2021 1:45:00 AM 0.36 32.648 0.143 7.03 3.59 14.11
3/8/2021 2:00:00 AM 0.3 32.54 0.143 7.03 3.34 14.14
3/8/2021 2:15:00 AM 0.22 32.396 0.146 7.06 3.36 14.17
3/8/2021 2:30:00 AM 0.15 32.27 0.143 7.06 3.39 14.19
3/8/2021 2:45:00 AM 0.08 32.144 0.143 7.06 3.33 14.23
3/8/2021 3:00:00 AM 0.01 32.018 0.143 7.06 3.3 14.26
3/8/2021 3:15:00 AM -0.05 31.91 0.147 7.05 3.2 14.29
3/8/2021 3:30:00 AM -0.12 31.784 0.142 7.06 3.18 14.32
3/8/2021 3:45:00 AM -0.11 31.802 0.14 7.07 3.5 14.36
3/8/2021 4:00:00 AM -0.11 31.802 0.145 7.08 3.22 14.38
3/8/2021 4:15:00 AM -0.11 31.802 0.142 7.08 3.24 14.38
3/8/2021 4:30:00 AM -0.11 31.802 0.143 7.1 3.46 14.4
3/8/2021 4:45:00 AM -0.11 31.802 0.143 7.02 3.37 14.41
3/8/2021 5:00:00 AM -0.11 31.802 0.143 7.04 3.66 14.42
3/8/2021 5:15:00 AM -0.11 31.802 0.143 7.03 3.35 14.42
3/8/2021 5:30:00 AM -0.12 31.784 0.144 7.02 3.41 14.42
3/8/2021 5:45:00 AM -0.12 31.784 0.142 6.99 3.19 14.43
3/8/2021 6:00:00 AM -0.12 31.784 0.142 7.02 3.34 14.43
3/8/2021 6:15:00 AM -0.12 31.784 0.142 7.04 3.35 14.43
3/8/2021 6:30:00 AM -0.12 31.784 0.141 7.05 3.28 14.43
3/8/2021 6:45:00 AM -0.11 31.802 0.142 7.07 3.28 14.46
3/8/2021 7:00:00 AM -0.11 31.802 0.145 7.12 3.3 14.52
3/8/2021 7:15:00 AM -0.11 31.802 0.141 7.08 3.21 14.59
3/8/2021 7:30:00 AM -0.11 31.802 0.141 7.03 3.25 14.66
3/8/2021 7:45:00 AM -0.11 31.802 0.141 7.11 3.33 14.73
3/8/2021 8:00:00 AM -0.11 31.802 0.14 7.09 3.31 14.8
3/8/2021 8:15:00 AM -0.1 31.82 0.14 7.18 3.19 14.85
3/8/2021 8:30:00 AM -0.1 31.82 0.139 7.22 3.19 14.88
3/8/2021 8:45:00 AM -0.09 31.838 0.14 7.08 3.2 14.9
3/8/2021 9:00:00 AM -0.08 31.856 0.14 7.24 3.15 14.91
3/8/2021 9:15:00 AM -0.07 31.874 0.139 7.26 3.14 14.92
3/8/2021 9:30:00 AM -0.06 31.892 0.138 7.29 3.23 14.93
3/8/2021 9:45:00 AM -0.04 31.928 0.138 7.27 3.24 14.93
3/8/2021 10:00:00 AM -0.03 31.946 0.137 7.28 3.32 14.93
3/8/2021 10:15:00 AM -0.02 31.964 0.137 7.27 3.23 14.91
3/8/2021 10:30:00 AM -0.01 31.982 0.136 7.27 3.32 14.9
3/8/2021 10:45:00 AM -0.02 31.964 0.135 7.28 3.33 14.88
3/8/2021 11:00:00 AM -0.03 31.946 0.135 7.2 3.32 14.84
3/8/2021 11:15:00 AM -0.02 31.964 0.133 7.28 3.43 14.8
3/8/2021 11:30:00 AM 0.06 32.108 0.134 7.28 3.69 14.74
3/8/2021 11:45:00 AM 0.64 33.152 0.132 7.3 3.55 14.71
3/8/2021 12:00:00 PM 0.93 33.674 0.131 7.34 3.64 14.68
3/8/2021 12:15:00 PM 1.06 33.908 0.13 6.87 3.41 14.66
3/8/2021 12:30:00 PM 1.14 34.052 0.13 7.21 3.38 14.62
3/8/2021 12:45:00 PM 1.23 34.214 0.13 7.22 3.38 14.59
3/8/2021 1:00:00 PM 1.34 34.412 0.13 7.31 3.23 14.56
3/8/2021 1:15:00 PM 1.41 34.538 0.129 7.34 3.32 14.54
3/8/2021 1:30:00 PM 1.49 34.682 0.129 7.25 3.36 14.53
3/8/2021 1:45:00 PM 1.6 34.88 0.127 7.28 3.33 14.51
3/8/2021 2:00:00 PM 1.65 34.97 0.127 7.27 3.3 14.49
3/8/2021 2:15:00 PM 1.68 35.024 0.127 7.36 3.32 14.48
3/8/2021 2:30:00 PM 1.72 35.096 0.126 7.35 3.29 14.47
3/8/2021 2:45:00 PM 1.75 35.15 0.127 7.29 3.21 14.46
3/8/2021 3:00:00 PM 1.77 35.186 0.129 7.35 3.42 14.45
3/8/2021 3:15:00 PM 1.81 35.258 0.128 7.3 3.19 14.42
3/8/2021 3:30:00 PM 1.88 35.384 0.129 7.28 3.23 14.38
3/8/2021 3:45:00 PM 1.99 35.582 0.13 7.32 3.25 14.34
3/8/2021 4:00:00 PM 2.09 35.762 0.132 7.29 3.22 14.29
3/8/2021 4:15:00 PM 2.16 35.888 0.132 7.29 3.35 14.22
3/8/2021 4:30:00 PM 2.22 35.996 0.132 7.31 3.34 14.18
3/8/2021 4:45:00 PM 2.3 36.14 0.133 7.3 3.52 14.12
3/8/2021 5:00:00 PM 2.33 36.194 0.134 7.3 3.32 14.06
3/8/2021 5:15:00 PM 2.34 36.212 0.139 7.27 3.4 14.01
3/8/2021 5:30:00 PM 2.34 36.212 0.097 7.27 3.44 13.94
3/8/2021 5:45:00 PM 2.33 36.194 0.139 7.26 3.29 13.87
3/8/2021 6:00:00 PM 2.31 36.158 0.084 7.26 3.58 13.79
3/8/2021 6:15:00 PM 2.27 36.086 0.1 7.19 3.22 13.7
3/8/2021 6:30:00 PM 2.24 36.032 0.08 7.17 3.31 13.63
3/8/2021 6:45:00 PM 2.2 35.96 0.145 7.16 3.23 13.58
3/8/2021 7:00:00 PM 2.15 35.87 0.08 7.12 3.36 13.55
3/8/2021 7:15:00 PM 2.1 35.78 0.1 7.14 3.3 13.53
3/8/2021 7:30:00 PM 2.05 35.69 0.076 7.08 3.15 13.53
3/8/2021 7:45:00 PM 2.01 35.618 0.147 7.1 3.23 13.52
3/8/2021 8:00:00 PM 1.96 35.528 0.094 7.13 3.39 13.53
3/8/2021 8:15:00 PM 1.9 35.42 0.079 7.06 3.27 13.54
3/8/2021 8:30:00 PM 1.85 35.33 0.094 7.12 3.41 13.54
3/8/2021 8:45:00 PM 1.79 35.222 0.145 7.09 3.39 13.56
3/8/2021 9:00:00 PM 1.74 35.132 0.088 7.13 3.23 13.57
3/8/2021 9:15:00 PM 1.68 35.024 0.148 7.05 3.2 13.59
3/8/2021 9:30:00 PM 1.63 34.934 0.098 7.04 3.13 13.61
3/8/2021 9:45:00 PM 1.57 34.826 0.083 7.04 3.24 13.62
3/8/2021 10:00:00 PM 1.52 34.736 0.078 7.02 3.1 13.64
3/8/2021 10:15:00 PM 1.47 34.646 0.081 7.05 3.17 13.66
3/8/2021 10:30:00 PM 1.43 34.574 0.093 7.05 3.22 13.68
3/8/2021 10:45:00 PM 1.4 34.52 0.092 7.1 3.13 13.69
3/8/2021 11:00:00 PM 1.38 34.484 0.149 7.02 3.12 13.7
3/8/2021 11:15:00 PM 1.36 34.448 0.147 7.03 3.09 13.71
3/8/2021 11:30:00 PM 1.34 34.412 0.144 7 3.26 13.72
3/8/2021 11:45:00 PM 1.32 34.376 0.094 7.09 3.19 13.73
3/9/2021 12:00:00 AM 1.31 34.358 0.101 7.02 3.47 13.74
3/9/2021 12:15:00 AM 1.29 34.322 0.149 7.11 3.07 13.74
3/9/2021 12:30:00 AM 1.27 34.286 0.08 7.11 3.2 13.75
3/9/2021 12:45:00 AM 1.25 34.25 0.147 7.1 3.22 13.75
3/9/2021 1:00:00 AM 1.22 34.196 0.144 7.02 3.16 13.76
3/9/2021 1:15:00 AM 1.19 34.142 0.086 7.04 3.13 13.77
3/9/2021 1:30:00 AM 1.16 34.088 0.146 7.09 3.09 13.78
3/9/2021 1:45:00 AM 1.14 34.052 0.147 7.08 3.06 13.79
3/9/2021 2:00:00 AM 1.11 33.998 0.148 7.1 2.99 13.79
3/9/2021 2:15:00 AM 1.1 33.98 0.094 7.09 3.14 13.8
3/9/2021 2:30:00 AM 1.07 33.926 0.093 7.09 3.25 13.81
3/9/2021 2:45:00 AM 1.04 33.872 0.143 7.09 3.2 13.82
3/9/2021 3:00:00 AM 1.01 33.818 0.082 7.11 3.1 13.83
3/9/2021 3:15:00 AM 0.97 33.746 0.146 7.1 3.06 13.84
3/9/2021 3:30:00 AM 0.94 33.692 0.146 7.09 3.12 13.84
3/9/2021 3:45:00 AM 0.9 33.62 0.083 7.09 3.08 13.86
3/9/2021 4:00:00 AM 0.87 33.566 0.147 7.11 3.21 13.87
3/9/2021 4:15:00 AM 0.85 33.53 0.144 7.07 3.11 13.88
3/9/2021 4:30:00 AM 0.81 33.458 0.145 7.04 3.21 13.9
3/9/2021 4:45:00 AM 0.79 33.422 0.145 7.07 3.16 13.9
3/9/2021 5:00:00 AM 0.76 33.368 0.146 7.01 3.07 13.92
3/9/2021 5:15:00 AM 0.73 33.314 0.147 7.08 3.03 13.93
3/9/2021 5:30:00 AM 0.7 33.26 0.143 7.08 3.29 13.94
3/9/2021 5:45:00 AM 0.67 33.206 0.146 7.08 3.07 13.96
3/9/2021 6:00:00 AM 0.64 33.152 0.14 7.07 3.07 13.97
3/9/2021 6:15:00 AM 0.61 33.098 0.146 7.02 3.09 13.98
3/9/2021 6:30:00 AM 0.59 33.062 0.139 7.07 3.08 14
3/9/2021 6:45:00 AM 0.56 33.008 0.142 7.04 3.18 14.05
3/9/2021 7:00:00 AM 0.55 32.99 0.145 7.11 2.99 14.12
3/9/2021 7:15:00 AM 0.54 32.972 0.145 7.12 2.95 14.23
3/9/2021 7:30:00 AM 0.53 32.954 0.141 7.15 2.98 14.32
3/9/2021 7:45:00 AM 0.53 32.954 0.141 7.17 2.98 14.4
3/9/2021 8:00:00 AM 0.55 32.99 0.141 7.22 3.08 14.47
3/9/2021 8:15:00 AM 0.59 33.062 0.143 7.2 3.02 14.52
3/9/2021 8:30:00 AM 0.63 33.134 0.139 7.22 3.05 14.56
3/9/2021 8:45:00 AM 0.69 33.242 0.139 7.24 3.12 14.59
3/9/2021 9:00:00 AM 0.76 33.368 0.14 7.26 2.97 14.61
3/9/2021 9:15:00 AM 0.86 33.548 0.139 7.2 2.96 14.61
3/9/2021 9:30:00 AM 0.97 33.746 0.14 7.3 3.06 14.6
3/9/2021 9:45:00 AM 1.1 33.98 0.139 7.25 3.08 14.59
3/9/2021 10:00:00 AM 1.26 34.268 0.137 7.29 2.93 14.57
3/9/2021 10:15:00 AM 1.45 34.61 0.138 7.35 3.05 14.53
3/9/2021 10:30:00 AM 1.66 34.988 0.137 7.35 2.97 14.48
3/9/2021 10:45:00 AM 1.88 35.384 0.136 7.3 3.01 14.43
3/9/2021 11:00:00 AM 2.12 35.816 0.135 7.33 3.17 14.36
3/9/2021 11:15:00 AM 2.38 36.284 0.136 7.34 3.06 14.29
3/9/2021 11:30:00 AM 2.65 36.77 0.136 7.37 3.02 14.21
3/9/2021 11:45:00 AM 2.92 37.256 0.091 7.27 3.07 14.13
3/9/2021 12:00:00 PM 3.19 37.742 0.091 7.44 3.12 14.04
3/9/2021 12:15:00 PM 3.44 38.192 0.084 7.44 3 13.96
3/9/2021 12:30:00 PM 3.66 38.588 0.097 7.44 3.13 13.88
3/9/2021 12:45:00 PM 3.9 39.02 0.093 7.45 3.34 13.81
3/9/2021 1:00:00 PM 4.12 39.416 0.103 7.47 3.34 13.73
3/9/2021 1:15:00 PM 4.33 39.794 0.087 7.45 3.33 13.65
3/9/2021 1:30:00 PM 4.53 40.154 0.092 7.45 3.24 13.59
3/9/2021 1:45:00 PM 4.72 40.496 0.091 7.46 3.36 13.52
3/9/2021 2:00:00 PM 4.9 40.82 0.101 7.48 3.46 13.45
3/9/2021 2:15:00 PM 5.08 41.144 0.081 7.49 3.39 13.39
3/9/2021 2:30:00 PM 5.23 41.414 0.137 7.49 3.19 13.33
3/9/2021 2:45:00 PM 5.37 41.666 0.085 7.52 3.31 13.28
3/9/2021 3:00:00 PM 5.49 41.882 0.098 7.49 3.37 13.22
3/9/2021 3:15:00 PM 5.58 42.044 0.077 7.49 3.43 13.17
3/9/2021 3:30:00 PM 5.64 42.152 0.104 7.51 3.35 13.12
3/9/2021 3:45:00 PM 5.66 42.188 0.089 7.44 3.37 13.08
3/9/2021 4:00:00 PM 5.66 42.188 0.081 7.49 3.45 13.05
3/9/2021 4:15:00 PM 5.64 42.152 0.102 7.33 3.42 13.01
3/9/2021 4:30:00 PM 5.61 42.098 0.088 7.41 3.41 12.98
3/9/2021 4:45:00 PM 5.55 41.99 0.081 7.42 3.38 12.95
3/9/2021 5:00:00 PM 5.47 41.846 0.076 7.4 3.51 12.91
3/9/2021 5:15:00 PM 5.37 41.666 0.088 7.35 3.58 12.88
3/9/2021 5:30:00 PM 5.26 41.468 0.088 7.33 3.59 12.83
3/9/2021 5:45:00 PM 5.14 41.252 0.098 7.29 3.43 12.78
3/9/2021 6:00:00 PM 5.03 41.054 0.076 7.25 3.43 12.73
3/9/2021 6:15:00 PM 4.93 40.874 0.08 7.2 3.51 12.67
3/9/2021 6:30:00 PM 4.82 40.676 0.093 7.15 3.8 12.63
3/9/2021 6:45:00 PM 4.73 40.514 0.089 7.12 3.9 12.61
3/9/2021 7:00:00 PM 4.63 40.334 0.087 7.12 4.02 12.61
3/9/2021 7:15:00 PM 4.54 40.172 0.081 7.09 4.08 12.61
3/9/2021 7:30:00 PM 4.45 40.01 0.091 7.06 4.05 12.62
3/9/2021 7:45:00 PM 4.37 39.866 0.094 7.01 4.6 12.64
3/9/2021 8:00:00 PM 4.28 39.704 0.092 6.98 4.4 12.66
3/9/2021 8:15:00 PM 4.19 39.542 0.083 6.96 4.83 12.68
3/9/2021 8:30:00 PM 4.11 39.398 0.095 7 4.82 12.7
3/9/2021 8:45:00 PM 4.03 39.254 0.092 6.94 4.64 12.73
3/9/2021 9:00:00 PM 3.94 39.092 0.105 6.98 5.19 12.76
3/9/2021 9:15:00 PM 3.85 38.93 0.087 6.96 4.83 12.79
3/9/2021 9:30:00 PM 3.76 38.768 0.094 6.96 5.55 12.83
3/9/2021 9:45:00 PM 3.66 38.588 0.095 6.95 5.18 12.85
3/9/2021 10:00:00 PM 3.55 38.39 0.086 6.87 5.48 12.9
3/9/2021 10:15:00 PM 3.43 38.174 0.082 6.94 5.98 12.94
3/9/2021 10:30:00 PM 3.32 37.976 0.095 6.93 5.87 12.99
3/9/2021 10:45:00 PM 3.19 37.742 0.08 6.97 6.14 13.03
3/9/2021 11:00:00 PM 3.06 37.508 0.08 6.99 6.41 13.08
3/9/2021 11:15:00 PM 2.94 37.292 0.093 6.96 6.08 13.13
3/9/2021 11:30:00 PM 2.82 37.076 0.148 6.94 6.22 13.19
3/9/2021 11:45:00 PM 2.7 36.86 0.1 6.96 6.4 13.23
3/10/2021 12:00:00 AM 2.58 36.644 0.085 6.94 6.32 13.29
3/10/2021 12:15:00 AM 2.47 36.446 0.081 6.93 5.95 13.32
3/10/2021 12:30:00 AM 2.37 36.266 0.082 6.97 6.34 13.37
3/10/2021 12:45:00 AM 2.27 36.086 0.096 6.96 6.06 13.41
3/10/2021 1:00:00 AM 2.18 35.924 0.08 6.96 5.87 13.44
3/10/2021 1:15:00 AM 2.1 35.78 0.08 6.96 5.8 13.48
3/10/2021 1:30:00 AM 2.02 35.636 0.09 6.96 6.37 13.5
3/10/2021 1:45:00 AM 1.95 35.51 0.083 6.97 5.85 13.53
3/10/2021 2:00:00 AM 1.89 35.402 0.079 6.98 5.96 13.56
3/10/2021 2:15:00 AM 1.83 35.294 0.092 6.97 6.03 13.58
3/10/2021 2:30:00 AM 1.77 35.186 0.146 6.99 5.96 13.6
3/10/2021 2:45:00 AM 1.72 35.096 0.094 6.97 5.58 13.63
3/10/2021 3:00:00 AM 1.67 35.006 0.145 6.95 5.32 13.65
3/10/2021 3:15:00 AM 1.62 34.916 0.145 6.96 5.34 13.67
3/10/2021 3:30:00 AM 1.57 34.826 0.083 6.95 5.19 13.68
3/10/2021 3:45:00 AM 1.52 34.736 0.079 6.89 5.03 13.71
3/10/2021 4:00:00 AM 1.48 34.664 0.092 7.04 4.94 13.72
3/10/2021 4:15:00 AM 1.44 34.592 0.146 6.98 4.74 13.73
3/10/2021 4:30:00 AM 1.4 34.52 0.09 6.93 4.87 13.75
3/10/2021 4:45:00 AM 1.36 34.448 0.086 7 4.5 13.77
3/10/2021 5:00:00 AM 1.32 34.376 0.081 7 4.63 13.78
3/10/2021 5:15:00 AM 1.28 34.304 0.147 7 4.5 13.79
3/10/2021 5:30:00 AM 1.24 34.232 0.148 7.05 4.5 13.81
3/10/2021 5:45:00 AM 1.2 34.16 0.09 6.95 4.3 13.83
3/10/2021 6:00:00 AM 1.17 34.106 0.149 7 4.2 13.84
3/10/2021 6:15:00 AM 1.13 34.034 0.15 7.07 4.31 13.86
3/10/2021 6:30:00 AM 1.1 33.98 0.082 7.05 4.39 13.88
3/10/2021 6:45:00 AM 1.07 33.926 0.081 7.05 4.11 13.92
3/10/2021 7:00:00 AM 1.04 33.872 0.1 7.01 4.25 13.98
3/10/2021 7:15:00 AM 1.02 33.836 0.152 7.03 3.99 14.06
3/10/2021 7:30:00 AM 1.01 33.818 0.08 7.12 4.11 14.13
3/10/2021 7:45:00 AM 0.99 33.782 0.095 7.08 3.98 14.2
3/10/2021 8:00:00 AM 1 33.8 0.082 7.14 4.15 14.27
3/10/2021 8:15:00 AM 1.02 33.836 0.101 7.16 3.95 14.33
3/10/2021 8:30:00 AM 1.06 33.908 0.082 7.17 4.3 14.38
3/10/2021 8:45:00 AM 1.11 33.998 0.086 7.24 3.78 14.42
3/10/2021 9:00:00 AM 1.18 34.124 0.085 7.26 3.86 14.44
3/10/2021 9:15:00 AM 1.26 34.268 0.093 7.26 3.99 14.46
3/10/2021 9:30:00 AM 1.36 34.448 0.153 7.28 3.83 14.46
3/10/2021 9:45:00 AM 1.47 34.646 0.083 7.24 3.77 14.46
3/10/2021 10:00:00 AM 1.62 34.916 0.083 7.23 3.79 14.45
3/10/2021 10:15:00 AM 1.8 35.24 0.153 7.25 3.77 14.42
3/10/2021 10:30:00 AM 2.01 35.618 0.083 7.29 3.76 14.38
3/10/2021 10:45:00 AM 2.25 36.05 0.154 7.38 3.68 14.32
3/10/2021 11:00:00 AM 2.49 36.482 0.083 7.34 3.73 14.27
3/10/2021 11:15:00 AM 2.75 36.95 0.083 7.34 3.71 14.19
3/10/2021 11:30:00 AM 2.99 37.382 0.092 7.35 3.52 14.13
3/10/2021 11:45:00 AM 3.24 37.832 0.085 7.37 3.43 14.06
3/10/2021 12:00:00 PM 3.48 38.264 0.103 7.42 3.55 13.98
3/10/2021 12:15:00 PM 3.73 38.714 0.101 7.42 3.63 13.9
3/10/2021 12:30:00 PM 3.98 39.164 0.103 7.46 3.71 13.82
3/10/2021 12:45:00 PM 4.22 39.596 0.103 7.46 3.66 13.74
3/10/2021 1:00:00 PM 4.45 40.01 0.088 7.45 3.5 13.66
3/10/2021 1:15:00 PM 4.67 40.406 0.092 7.45 3.55 13.58
3/10/2021 1:30:00 PM 4.89 40.802 0.1 7.52 3.67 13.51
3/10/2021 1:45:00 PM 5.1 41.18 0.091 7.51 3.75 13.44
3/10/2021 2:00:00 PM 5.3 41.54 0.114 7.51 3.73 13.36
3/10/2021 2:15:00 PM 5.48 41.864 0.107 7.51 3.75 13.3
3/10/2021 2:30:00 PM 5.64 42.152 0.101 7.51 3.76 13.23
3/10/2021 2:45:00 PM 5.78 42.404 0.094 7.57 3.96 13.18
3/10/2021 3:00:00 PM 5.9 42.62 0.106 7.57 3.98 13.13
3/10/2021 3:15:00 PM 6 42.8 0.081 7.53 3.89 13.07
3/10/2021 3:30:00 PM 6.06 42.908 0.101 7.53 3.99 13.02
3/10/2021 3:45:00 PM 6.08 42.944 0.114 7.5 3.96 12.97
3/10/2021 4:00:00 PM 6.08 42.944 0.109 7.5 4.27 12.94
3/10/2021 4:15:00 PM 6.06 42.908 0.104 7.47 4.22 12.91
3/10/2021 4:30:00 PM 6.03 42.854 0.079 7.47 4.38 12.88
3/10/2021 4:45:00 PM 5.95 42.71 0.106 7.43 4.41 12.83
3/10/2021 5:00:00 PM 5.84 42.512 0.107 7.36 4.74 12.79
3/10/2021 5:15:00 PM 5.76 42.368 0.093 7.35 6.2 12.76
3/10/2021 5:30:00 PM 5.67 42.206 0.087 7.28 6.98 12.71
3/10/2021 5:45:00 PM 5.58 42.044 0.106 7.21 9.71 12.64
3/10/2021 6:00:00 PM 5.47 41.846 0.097 7.18 12.38 12.57
3/10/2021 6:15:00 PM 5.37 41.666 0.102 7.16 15.07 12.51
3/10/2021 6:30:00 PM 5.27 41.486 0.153 7.08 15.07 12.47
3/10/2021 6:45:00 PM 5.15 41.27 0.086 7.02 17.33 12.46
3/10/2021 7:00:00 PM 5.01 41.018 0.095 6.99 19.37 12.48
3/10/2021 7:15:00 PM 4.83 40.694 0.151 6.96 18.49 12.51
3/10/2021 7:30:00 PM 4.59 40.262 0.084 6.89 26.05 12.57
3/10/2021 7:45:00 PM 4.34 39.812 0.141 6.84 30.39 12.66
3/10/2021 8:00:00 PM 4.08 39.344 0.136 6.78 31.07 12.75
3/10/2021 8:15:00 PM 3.83 38.894 0.134 6.79 29.8 12.84
3/10/2021 8:30:00 PM 3.6 38.48 0.131 6.78 42.15 12.92
3/10/2021 8:45:00 PM 3.41 38.138 0.13 6.84 34.96 12.99
3/10/2021 9:00:00 PM 3.24 37.832 0.129 6.8 35.8 13.07
3/10/2021 9:15:00 PM 3.1 37.58 0.129 6.83 39.14 13.1
3/10/2021 9:30:00 PM 2.99 37.382 0.128 6.81 38.67 13.14
3/10/2021 9:45:00 PM 2.91 37.238 0.127 6.83 23.53 13.18
3/10/2021 10:00:00 PM 2.83 37.094 0.127 6.82 27.71 13.21
3/10/2021 10:15:00 PM 2.76 36.968 0.127 6.88 17.2 13.22
3/10/2021 10:30:00 PM 2.7 36.86 0.127 6.85 24.82 13.25
3/10/2021 10:45:00 PM 2.64 36.752 0.128 6.86 21.47 13.28
3/10/2021 11:00:00 PM 2.6 36.68 0.129 6.91 19.94 13.29
3/10/2021 11:15:00 PM 2.55 36.59 0.128 6.91 21.3 13.31
3/10/2021 11:30:00 PM 2.51 36.518 0.129 6.88 19.26 13.32
3/10/2021 11:45:00 PM 2.47 36.446 0.129 6.89 18.98 13.33
3/11/2021 12:00:00 AM 2.44 36.392 0.129 6.87 18.55 13.34
3/11/2021 12:15:00 AM 2.42 36.356 0.129 6.9 16.49 13.35
3/11/2021 12:30:00 AM 2.4 36.32 0.13 6.91 16.47 13.36
3/11/2021 12:45:00 AM 2.37 36.266 0.13 6.91 15.97 13.37
3/11/2021 1:00:00 AM 2.35 36.23 0.13 6.92 14.48 13.36
3/11/2021 1:15:00 AM 2.33 36.194 0.129 6.89 15.81 13.37
3/11/2021 1:30:00 AM 2.31 36.158 0.13 6.89 15.16 13.38
3/11/2021 1:45:00 AM 2.29 36.122 0.129 6.88 14.43 13.38
3/11/2021 2:00:00 AM 2.28 36.104 0.13 6.88 13.79 13.38
3/11/2021 2:15:00 AM 2.27 36.086 0.129 6.92 13.8 13.39
3/11/2021 2:30:00 AM 2.27 36.086 0.128 6.88 13.15 13.39
3/11/2021 2:45:00 AM 2.27 36.086 0.129 6.93 13.2 13.39
3/11/2021 3:00:00 AM 2.27 36.086 0.128 6.93 12.73 13.39
3/11/2021 3:15:00 AM 2.28 36.104 0.128 6.9 11.32 13.38
3/11/2021 3:30:00 AM 2.28 36.104 0.127 6.93 11.57 13.38
3/11/2021 3:45:00 AM 2.29 36.122 0.127 6.92 11.5 13.38
3/11/2021 4:00:00 AM 2.29 36.122 0.125 6.9 11.53 13.37
3/11/2021 4:15:00 AM 2.3 36.14 0.126 6.88 11.13 13.38
3/11/2021 4:30:00 AM 2.3 36.14 0.125 6.9 10.6 13.38
3/11/2021 4:45:00 AM 2.31 36.158 0.125 6.89 10 13.36
3/11/2021 5:00:00 AM 2.31 36.158 0.124 6.89 10.59 13.36
3/11/2021 5:15:00 AM 2.31 36.158 0.124 6.88 9.74 13.37
3/11/2021 5:30:00 AM 2.32 36.176 0.124 6.91 9.92 13.36
3/11/2021 5:45:00 AM 2.33 36.194 0.122 6.9 9.27 13.35
3/11/2021 6:00:00 AM 2.34 36.212 0.122 6.91 9.6 13.35
3/11/2021 6:15:00 AM 2.34 36.212 0.122 6.92 9.71 13.35
3/11/2021 6:30:00 AM 2.34 36.212 0.121 6.93 9.44 13.35
3/11/2021 6:45:00 AM 2.34 36.212 0.121 6.89 10.03 13.35
3/11/2021 7:00:00 AM 2.35 36.23 0.121 6.91 9.17 13.37
3/11/2021 7:15:00 AM 2.36 36.248 0.12 6.91 9.55 13.41
3/11/2021 7:30:00 AM 2.38 36.284 0.12 6.92 9.15 13.46
3/11/2021 7:45:00 AM 2.39 36.302 0.119 6.94 8.77 13.48
3/11/2021 8:00:00 AM 2.41 36.338 0.119 6.93 8.89 13.49
3/11/2021 8:15:00 AM 2.43 36.374 0.118 6.93 8.73 13.52
3/11/2021 8:30:00 AM 2.47 36.446 0.118 6.97 8.47 13.56
3/11/2021 8:45:00 AM 2.55 36.59 0.117 7 8.56 13.6
3/11/2021 9:00:00 AM 2.64 36.752 0.117 7.04 7.96 13.62
3/11/2021 9:15:00 AM 2.69 36.842 0.116 7.01 7.83 13.62
3/11/2021 9:30:00 AM 2.79 37.022 0.116 7.04 7.96 13.62
3/11/2021 9:45:00 AM 2.95 37.31 0.115 7.06 7.92 13.63
3/11/2021 10:00:00 AM 3.09 37.562 0.115 7.12 7.85 13.63
3/11/2021 10:15:00 AM 3.24 37.832 0.114 7.08 7.76 13.58
3/11/2021 10:30:00 AM 3.28 37.904 0.115 7.08 7.71 13.49
3/11/2021 10:45:00 AM 3.34 38.012 0.114 7.11 7.9 13.47
3/11/2021 11:00:00 AM 3.38 38.084 0.113 7.06 7.8 13.44
3/11/2021 11:15:00 AM 3.45 38.21 0.113 7.09 7.78 13.44
3/11/2021 11:30:00 AM 3.5 38.3 0.113 7.09 7.6 13.44
3/11/2021 11:45:00 AM 3.57 38.426 0.112 7.1 7.51 13.42
3/11/2021 12:00:00 PM 3.66 38.588 0.112 7.1 7.29 13.41
3/11/2021 12:15:00 PM 3.8 38.84 0.112 7.1 7.31 13.39
3/11/2021 12:30:00 PM 3.93 39.074 0.111 7.13 7.76 13.36
3/11/2021 12:45:00 PM 4.03 39.254 0.111 7.16 7.72 13.3
3/11/2021 1:00:00 PM 4.2 39.56 0.11 7.15 6.66 13.27
3/11/2021 1:15:00 PM 4.31 39.758 0.11 7.15 8.07 13.25
3/11/2021 1:30:00 PM 4.43 39.974 0.109 7.18 8.38 13.21
3/11/2021 1:45:00 PM 4.5 40.1 0.109 7.15 8.75 13.12
3/11/2021 2:00:00 PM 4.55 40.19 0.109 7.12 8.87 13.1
3/11/2021 2:15:00 PM 4.65 40.37 0.109 7.13 9.48 13.1
3/11/2021 2:30:00 PM 4.69 40.442 0.109 7.14 10.86 13.06
3/11/2021 2:45:00 PM 4.73 40.514 0.109 7.1 11.27 13.04
3/11/2021 3:00:00 PM 4.75 40.55 0.109 7.07 11.34 12.99
3/11/2021 3:15:00 PM 4.75 40.55 0.109 7.04 12.77 12.91
3/11/2021 3:30:00 PM 4.74 40.532 0.109 7.06 12.49 12.83
3/11/2021 3:45:00 PM 4.71 40.478 0.109 7.01 15.27 12.78
3/11/2021 4:00:00 PM 4.66 40.388 0.109 7 15.59 12.77
3/11/2021 4:15:00 PM 4.62 40.316 0.108 6.96 19.8 12.77
3/11/2021 4:30:00 PM 4.59 40.262 0.108 6.96 23.57 12.77
3/11/2021 4:45:00 PM 4.55 40.19 0.107 6.93 31.23 12.74
3/11/2021 5:00:00 PM 4.52 40.136 0.091 6.93 37.2 12.72
3/11/2021 5:15:00 PM 4.47 40.046 0.108 6.81 42.79 12.7
3/11/2021 5:30:00 PM 4.41 39.938 0.106 6.83 41.43 12.69
3/11/2021 5:45:00 PM 4.33 39.794 0.093 6.85 51.54 12.69
3/11/2021 6:00:00 PM 4.25 39.65 0.106 6.72 57.22 12.69
3/11/2021 6:15:00 PM 4.17 39.506 0.104 6.76 88.38 12.71
3/11/2021 6:30:00 PM 4.1 39.38 0.105 6.69 63.29 12.73
3/11/2021 6:45:00 PM 4.02 39.236 0.088 6.72 55.23 12.75
3/11/2021 7:00:00 PM 3.93 39.074 0.103 6.77 61.62 12.78
3/11/2021 7:15:00 PM 3.84 38.912 0.101 6.72 55.1 12.8
3/11/2021 7:30:00 PM 3.76 38.768 0.101 6.69 60.45 12.83
3/11/2021 7:45:00 PM 3.7 38.66 0.09 6.73 62.15 12.85
3/11/2021 8:00:00 PM 3.65 38.57 0.1 6.63 51.77 12.87
3/11/2021 8:15:00 PM 3.62 38.516 0.098 6.69 73.36 12.89
3/11/2021 8:30:00 PM 3.6 38.48 0.099 6.69 68.19 12.89
3/11/2021 8:45:00 PM 3.6 38.48 0.099 6.71 54.26 12.91
3/11/2021 9:00:00 PM 3.59 38.462 0.098 6.71 51.33 12.91
3/11/2021 9:15:00 PM 3.58 38.444 0.098 6.72 49.14 12.92
3/11/2021 9:30:00 PM 3.59 38.462 0.097 6.73 66.79 12.92
3/11/2021 9:45:00 PM 3.58 38.444 0.096 6.73 41.49 12.91
3/11/2021 10:00:00 PM 3.56 38.408 0.096 6.72 53 12.92
3/11/2021 10:15:00 PM 3.55 38.39 0.094 6.73 49.32 12.92
3/11/2021 10:30:00 PM 3.53 38.354 0.095 6.69 41.59 12.92
3/11/2021 10:45:00 PM 3.53 38.354 0.094 6.68 43.31 12.93
3/11/2021 11:00:00 PM 3.52 38.336 0.094 6.7 30.49 12.93
3/11/2021 11:15:00 PM 3.52 38.336 0.093 6.69 37.52 12.93
3/11/2021 11:30:00 PM 3.52 38.336 0.092 6.68 35.76 12.93
3/11/2021 11:45:00 PM 3.52 38.336 0.092 6.64 34.57 12.93
3/12/2021 12:00:00 AM 3.54 38.372 0.091 6.64 34.24 12.92
3/12/2021 12:15:00 AM 3.56 38.408 0.09 6.65 30.36 12.91
3/12/2021 12:30:00 AM 3.59 38.462 0.09 6.67 35.41 12.9
3/12/2021 12:45:00 AM 3.61 38.498 0.089 6.72 37.5 12.9
3/12/2021 1:00:00 AM 3.62 38.516 0.088 6.69 40.68 12.89
3/12/2021 1:15:00 AM 3.62 38.516 0.087 6.62 31.99 12.89
3/12/2021 1:30:00 AM 3.61 38.498 0.087 6.62 34.08 12.89
3/12/2021 1:45:00 AM 3.6 38.48 0.086 6.66 37.38 12.89
3/12/2021 2:00:00 AM 3.6 38.48 0.085 6.63 39.66 12.89
3/12/2021 2:15:00 AM 3.59 38.462 0.085 6.66 37.54 12.9
3/12/2021 2:30:00 AM 3.59 38.462 0.085 6.65 43.27 12.89
3/12/2021 2:45:00 AM 3.6 38.48 0.085 6.67 39.13 12.89
3/12/2021 3:00:00 AM 3.6 38.48 0.084 6.64 49.29 12.9
3/12/2021 3:15:00 AM 3.59 38.462 0.084 6.61 41.53 12.9
3/12/2021 3:30:00 AM 3.59 38.462 0.083 6.6 39.13 12.91
3/12/2021 3:45:00 AM 3.57 38.426 0.083 6.58 34.53 12.91
3/12/2021 4:00:00 AM 3.55 38.39 0.082 6.6 37.05 12.92
3/12/2021 4:15:00 AM 3.54 38.372 0.082 6.61 34.43 12.92
3/12/2021 4:30:00 AM 3.53 38.354 0.081 6.65 35 12.93
3/12/2021 4:45:00 AM 3.52 38.336 0.081 6.63 35.41 12.94
3/12/2021 5:00:00 AM 3.5 38.3 0.08 6.59 36.76 12.95
3/12/2021 5:15:00 AM 3.47 38.246 0.079 6.58 29.8 12.95
3/12/2021 5:30:00 AM 3.44 38.192 0.079 6.59 24.76 12.96
3/12/2021 5:45:00 AM 3.41 38.138 0.079 6.59 35.02 12.98
3/12/2021 6:00:00 AM 3.37 38.066 0.078 6.61 30.76 12.99
3/12/2021 6:15:00 AM 3.34 38.012 0.078 6.55 30.86 13
3/12/2021 6:30:00 AM 3.31 37.958 0.078 6.57 29.44 13.01
3/12/2021 6:45:00 AM 3.28 37.904 0.078 6.54 21.85 13.04
3/12/2021 7:00:00 AM 3.25 37.85 0.078 6.55 35.57 13.05
3/12/2021 7:15:00 AM 3.23 37.814 0.077 6.58 24.24 13.07
3/12/2021 7:30:00 AM 3.21 37.778 0.077 6.56 22.87 13.07
3/12/2021 7:45:00 AM 3.2 37.76 0.076 6.55 22.64 13.09
3/12/2021 8:00:00 AM 3.19 37.742 0.075 6.61 30.38 13.11
3/12/2021 8:15:00 AM 3.2 37.76 0.076 6.57 23.25 13.12
3/12/2021 8:30:00 AM 3.21 37.778 0.076 6.6 22.01 13.14
3/12/2021 8:45:00 AM 3.24 37.832 0.075 6.61 21.31 13.14
3/12/2021 9:00:00 AM 3.29 37.922 0.075 6.59 19.47 13.16
3/12/2021 9:15:00 AM 3.36 38.048 0.074 6.62 19.86 13.15
3/12/2021 9:30:00 AM 3.45 38.21 0.074 6.61 18.87 13.15
3/12/2021 9:45:00 AM 3.57 38.426 0.074 6.66 24.53 13.14
3/12/2021 10:00:00 AM 3.68 38.624 0.074 6.65 17.59 13.12
3/12/2021 10:15:00 AM 3.81 38.858 0.073 6.64 23.53 13.09
3/12/2021 10:30:00 AM 3.94 39.092 0.073 6.65 27.72 13.07
3/12/2021 10:45:00 AM 4.08 39.344 0.073 6.64 23.64 13.04
3/12/2021 11:00:00 AM 4.22 39.596 0.073 6.69 18.07 13.01
3/12/2021 11:15:00 AM 4.37 39.866 0.072 6.72 20.24 12.97
3/12/2021 11:30:00 AM 4.53 40.154 0.072 6.73 17.69 12.94
3/12/2021 11:45:00 AM 4.69 40.442 0.072 6.72 17.03 12.9
3/12/2021 12:00:00 PM 4.86 40.748 0.072 6.69 16.64 12.85
3/12/2021 12:15:00 PM 5.02 41.036 0.071 6.69 15.77 12.81
3/12/2021 12:30:00 PM 5.18 41.324 0.071 6.69 16.67 12.76
3/12/2021 12:45:00 PM 5.33 41.594 0.071 6.72 16.38 12.71
3/12/2021 1:00:00 PM 5.48 41.864 0.071 6.74 17.45 12.66
3/12/2021 1:15:00 PM 5.63 42.134 0.071 6.71 16.89 12.61
3/12/2021 1:30:00 PM 5.76 42.368 0.071 6.74 15.67 12.57
3/12/2021 1:45:00 PM 5.88 42.584 0.071 6.74 15.49 12.53
3/12/2021 2:00:00 PM 5.99 42.782 0.07 6.77 30.62 12.48
3/12/2021 2:15:00 PM 6.09 42.962 0.07 6.77 15.81 12.45
3/12/2021 2:30:00 PM 6.17 43.106 0.071 6.7 16.13 12.41
3/12/2021 2:45:00 PM 6.24 43.232 0.07 6.72 16.54 12.38
3/12/2021 3:00:00 PM 6.28 43.304 0.071 6.76 14.61 12.35
3/12/2021 3:15:00 PM 6.31 43.358 0.07 6.75 16.26 12.33
3/12/2021 3:30:00 PM 6.32 43.376 0.07 6.75 15.97 12.31
3/12/2021 3:45:00 PM 6.31 43.358 0.07 6.68 14.03 12.29
3/12/2021 4:00:00 PM 6.29 43.322 0.07 6.66 16.89 12.27
3/12/2021 4:15:00 PM 6.24 43.232 0.071 6.65 25.5 12.25
3/12/2021 4:30:00 PM 6.18 43.124 0.071 6.62 33.63 12.24
3/12/2021 4:45:00 PM 6.1 42.98 0.071 6.66 34.55 12.24
3/12/2021 5:00:00 PM 6.02 42.836 0.071 6.61 18.49 12.23
3/12/2021 5:15:00 PM 5.92 42.656 0.071 6.6 22.66 12.23
3/12/2021 5:30:00 PM 5.82 42.476 0.071 6.6 25.31 12.24
3/12/2021 5:45:00 PM 5.72 42.296 0.071 6.56 22.68 12.25
3/12/2021 6:00:00 PM 5.61 42.098 0.071 6.57 37.97 12.26
3/12/2021 6:15:00 PM 5.5 41.9 0.071 6.52 25.58 12.28
3/12/2021 6:30:00 PM 5.4 41.72 0.071 6.53 27.73 12.3
3/12/2021 6:45:00 PM 5.28 41.504 0.071 6.54 23.71 12.32
3/12/2021 7:00:00 PM 5.18 41.324 0.071 6.54 30.35 12.35
3/12/2021 7:15:00 PM 5.06 41.108 0.071 6.51 24.48 12.39
3/12/2021 7:30:00 PM 4.96 40.928 0.07 6.49 25.33 12.42
3/12/2021 7:45:00 PM 4.86 40.748 0.07 6.48 21.95 12.45
3/12/2021 8:00:00 PM 4.77 40.586 0.07 6.46 19.78 12.48
3/12/2021 8:15:00 PM 4.69 40.442 0.07 6.5 20.04 12.51
3/12/2021 8:30:00 PM 4.61 40.298 0.069 6.47 20.3 12.54
3/12/2021 8:45:00 PM 4.54 40.172 0.069 6.48 20.64 12.56
3/12/2021 9:00:00 PM 4.47 40.046 0.069 6.47 62.75 12.59
3/12/2021 9:15:00 PM 4.41 39.938 0.069 6.48 24.05 12.61
3/12/2021 9:30:00 PM 4.34 39.812 0.068 6.49 16.78 12.63
3/12/2021 9:45:00 PM 4.29 39.722 0.068 6.52 21.65 12.66
3/12/2021 10:00:00 PM 4.23 39.614 0.068 6.51 19.99 12.68
3/12/2021 10:15:00 PM 4.17 39.506 0.067 6.52 18.03 12.7
3/12/2021 10:30:00 PM 4.12 39.416 0.067 6.49 26.61 12.72
3/12/2021 10:45:00 PM 4.08 39.344 0.067 6.5 26.57 12.74
3/12/2021 11:00:00 PM 4.02 39.236 0.067 6.5 21.59 12.75
3/12/2021 11:15:00 PM 3.96 39.128 0.067 6.53 21.78 12.78
3/12/2021 11:30:00 PM 3.91 39.038 0.067 6.49 19.38 12.79
3/12/2021 11:45:00 PM 3.86 38.948 0.067 6.5 17.48 12.81
3/13/2021 12:00:00 AM 3.81 38.858 0.067 6.49 16.1 12.84
3/13/2021 12:15:00 AM 3.76 38.768 0.066 6.51 15.13 12.85
3/13/2021 12:30:00 AM 3.7 38.66 0.067 6.5 17.28 12.87
3/13/2021 12:45:00 AM 3.65 38.57 0.067 6.49 14.54 12.9
3/13/2021 1:00:00 AM 3.59 38.462 0.067 6.52 14.37 12.91
3/13/2021 1:15:00 AM 3.54 38.372 0.067 6.44 15.77 12.94
3/13/2021 1:30:00 AM 3.48 38.264 0.066 6.51 14.56 12.96
3/13/2021 1:45:00 AM 3.42 38.156 0.066 6.53 13.15 12.98
3/13/2021 2:00:00 AM 3.37 38.066 0.066 6.53 15.02 13.01
3/13/2021 2:15:00 AM 3.31 37.958 0.067 6.53 13.5 13.02
3/13/2021 2:30:00 AM 3.25 37.85 0.067 6.49 13.45 13.05
3/13/2021 2:45:00 AM 3.19 37.742 0.066 6.5 13.63 13.08
3/13/2021 3:00:00 AM 3.15 37.67 0.067 6.52 13.71 13.09
3/13/2021 3:15:00 AM 3.09 37.562 0.067 6.53 14.18 13.11
3/13/2021 3:30:00 AM 3.03 37.454 0.066 6.49 13.61 13.12
3/13/2021 3:45:00 AM 2.98 37.364 0.067 6.49 13.78 13.14
3/13/2021 4:00:00 AM 2.93 37.274 0.067 6.49 12.78 13.17
3/13/2021 4:15:00 AM 2.87 37.166 0.066 6.5 13.12 13.19
3/13/2021 4:30:00 AM 2.83 37.094 0.067 6.53 13.31 13.22
3/13/2021 4:45:00 AM 2.77 36.986 0.067 6.54 14.1 13.24
3/13/2021 5:00:00 AM 2.72 36.896 0.067 6.54 12.55 13.24
3/13/2021 5:15:00 AM 2.67 36.806 0.067 6.54 13.45 13.27
3/13/2021 5:30:00 AM 2.61 36.698 0.067 6.51 12.45 13.29
3/13/2021 5:45:00 AM 2.55 36.59 0.067 6.48 12.84 13.32
3/13/2021 6:00:00 AM 2.51 36.518 0.067 6.51 12.78 13.34
3/13/2021 6:15:00 AM 2.46 36.428 0.067 6.55 12.5 13.36
3/13/2021 6:30:00 AM 2.42 36.356 0.067 6.55 11.9 13.38
3/13/2021 6:45:00 AM 2.39 36.302 0.067 6.52 12.47 13.4
3/13/2021 7:00:00 AM 2.35 36.23 0.067 6.53 11.9 13.43
3/13/2021 7:15:00 AM 2.32 36.176 0.067 6.44 11.25 13.45
3/13/2021 7:30:00 AM 2.29 36.122 0.067 6.57 10.81 13.48
3/13/2021 7:45:00 AM 2.26 36.068 0.067 6.58 10.82 13.51
3/13/2021 8:00:00 AM 2.25 36.05 0.067 6.58 11.45 13.54
3/13/2021 8:15:00 AM 2.24 36.032 0.067 6.62 11.57 13.56
3/13/2021 8:30:00 AM 2.26 36.068 0.066 6.6 11.16 13.58
3/13/2021 8:45:00 AM 2.27 36.086 0.067 6.65 10.61 13.6
3/13/2021 9:00:00 AM 2.3 36.14 0.067 6.63 10.3 13.61
3/13/2021 9:15:00 AM 2.36 36.248 0.067 6.67 10.33 13.62
3/13/2021 9:30:00 AM 2.43 36.374 0.067 6.66 10.35 13.62
3/13/2021 9:45:00 AM 2.53 36.554 0.067 6.69 10.56 13.61
3/13/2021 10:00:00 AM 2.63 36.734 0.066 6.64 10.49 13.6
3/13/2021 10:15:00 AM 2.74 36.932 0.066 6.7 10.18 13.57
3/13/2021 10:30:00 AM 2.86 37.148 0.067 6.59 10.86 13.55
3/13/2021 10:45:00 AM 3.01 37.418 0.066 6.69 10.06 13.53
3/13/2021 11:00:00 AM 3.14 37.652 0.067 6.7 9.65 13.48
3/13/2021 11:15:00 AM 3.3 37.94 0.066 6.74 9.49 13.45
3/13/2021 11:30:00 AM 3.46 38.228 0.066 6.74 9.63 13.39
3/13/2021 11:45:00 AM 3.63 38.534 0.066 6.75 8.78 13.35
3/13/2021 12:00:00 PM 3.79 38.822 0.066 6.73 9.07 13.3
3/13/2021 12:15:00 PM 3.96 39.128 0.066 6.79 8.87 13.25
3/13/2021 12:30:00 PM 4.12 39.416 0.066 6.74 9.14 13.19
3/13/2021 12:45:00 PM 4.29 39.722 0.066 6.75 8.87 13.14
3/13/2021 1:00:00 PM 4.44 39.992 0.066 6.78 8.27 13.09
3/13/2021 1:15:00 PM 4.6 40.28 0.066 6.79 8.73 13.03
3/13/2021 1:30:00 PM 4.73 40.514 0.066 6.81 9.05 12.99
3/13/2021 1:45:00 PM 4.87 40.766 0.066 6.77 8.89 12.93
3/13/2021 2:00:00 PM 4.99 40.982 0.066 6.81 8.83 12.9
3/13/2021 2:15:00 PM 5.1 41.18 0.066 6.8 8.7 12.85
3/13/2021 2:30:00 PM 5.2 41.36 0.066 6.83 8.72 12.8
3/13/2021 2:45:00 PM 5.27 41.486 0.066 6.78 9.39 12.76
3/13/2021 3:00:00 PM 5.34 41.612 0.066 6.81 8.65 12.73
3/13/2021 3:15:00 PM 5.4 41.72 0.066 6.77 8.73 12.7
3/13/2021 3:30:00 PM 5.42 41.756 0.066 6.78 8.39 12.68
3/13/2021 3:45:00 PM 5.43 41.774 0.066 6.83 8.93 12.65
3/13/2021 4:00:00 PM 5.41 41.738 0.066 6.74 8.75 12.64
3/13/2021 4:15:00 PM 5.38 41.684 0.066 6.72 9.09 12.61
3/13/2021 4:30:00 PM 5.34 41.612 0.066 6.7 8.99 12.6
3/13/2021 4:45:00 PM 5.28 41.504 0.066 6.71 8.96 12.59
3/13/2021 5:00:00 PM 5.23 41.414 0.066 6.73 9.15 12.57
3/13/2021 5:15:00 PM 5.17 41.306 0.067 6.7 9.69 12.57
3/13/2021 5:30:00 PM 5.09 41.162 0.067 6.65 9.15 12.56
3/13/2021 5:45:00 PM 5.01 41.018 0.067 6.69 8.8 12.54
3/13/2021 6:00:00 PM 4.93 40.874 0.067 6.65 8.82 12.55
3/13/2021 6:15:00 PM 4.85 40.73 0.067 6.66 8.47 12.54
3/13/2021 6:30:00 PM 4.77 40.586 0.067 6.63 8.81 12.55
3/13/2021 6:45:00 PM 4.69 40.442 0.067 6.64 8.73 12.55
3/13/2021 7:00:00 PM 4.6 40.28 0.067 6.61 8.6 12.57
3/13/2021 7:15:00 PM 4.51 40.118 0.068 6.58 8.52 12.58
3/13/2021 7:30:00 PM 4.43 39.974 0.068 6.59 8.62 12.59
3/13/2021 7:45:00 PM 4.34 39.812 0.067 6.61 8.42 12.62
3/13/2021 8:00:00 PM 4.25 39.65 0.068 6.59 8.46 12.65
3/13/2021 8:15:00 PM 4.16 39.488 0.068 6.53 8.65 12.67
3/13/2021 8:30:00 PM 4.08 39.344 0.068 6.55 8.77 12.7
3/13/2021 8:45:00 PM 4 39.2 0.068 6.55 8.81 12.72
3/13/2021 9:00:00 PM 3.92 39.056 0.068 6.62 8.82 12.74
3/13/2021 9:15:00 PM 3.85 38.93 0.069 6.57 9.5 12.76
3/13/2021 9:30:00 PM 3.78 38.804 0.068 6.53 8.6 12.79
3/13/2021 9:45:00 PM 3.71 38.678 0.068 6.57 8.67 12.81
3/13/2021 10:00:00 PM 3.64 38.552 0.068 6.58 8.34 12.83
3/13/2021 10:15:00 PM 3.59 38.462 0.069 6.56 8.62 12.85
3/13/2021 10:30:00 PM 3.53 38.354 0.069 6.54 8.46 12.87
3/13/2021 10:45:00 PM 3.48 38.264 0.069 6.57 8.78 12.89
3/13/2021 11:00:00 PM 3.43 38.174 0.069 6.58 8.51 12.9
3/13/2021 11:15:00 PM 3.37 38.066 0.069 6.6 8.25 12.92
3/13/2021 11:30:00 PM 3.32 37.976 0.069 6.58 8.76 12.94
3/13/2021 11:45:00 PM 3.28 37.904 0.069 6.56 8.13 12.95
3/14/2021 12:00:00 AM 3.23 37.814 0.069 6.55 8.51 12.97
3/14/2021 12:15:00 AM 3.19 37.742 0.069 6.59 7.76 12.98
3/14/2021 12:30:00 AM 3.15 37.67 0.069 6.57 7.9 13
3/14/2021 12:45:00 AM 3.12 37.616 0.069 6.56 7.59 13.01
3/14/2021 1:00:00 AM 3.09 37.562 0.069 6.58 8.92 13.01
3/14/2021 1:15:00 AM 3.06 37.508 0.069 6.56 8.21 13.03
3/14/2021 1:30:00 AM 3.02 37.436 0.069 6.54 7.79 13.03
3/14/2021 1:45:00 AM 3 37.4 0.07 6.6 7.84 13.05
3/14/2021 3:00:00 AM 2.86 37.148 0.069 6.56 7.65 13.09
3/14/2021 3:15:00 AM 2.84 37.112 0.069 6.61 7.81 13.09
3/14/2021 3:30:00 AM 2.83 37.094 0.069 6.63 7.86 13.1
3/14/2021 3:45:00 AM 2.8 37.04 0.069 6.62 7.51 13.1
3/14/2021 4:00:00 AM 2.78 37.004 0.069 6.59 7.46 13.1
3/14/2021 5:15:00 AM 2.77 36.986 0.069 6.61 7.53 13.11
3/14/2021 5:30:00 AM 2.74 36.932 0.07 6.57 8 13.12
3/14/2021 5:45:00 AM 2.72 36.896 0.069 6.59 7.56 13.12
3/14/2021 6:00:00 AM 2.7 36.86 0.07 6.59 7.7 13.12
3/14/2021 6:15:00 AM 2.68 36.824 0.069 6.63 7.06 13.13
3/14/2021 6:30:00 AM 2.66 36.788 0.07 6.6 7.88 13.14
3/14/2021 6:45:00 AM 2.64 36.752 0.07 6.63 7.49 13.14
3/14/2021 7:00:00 AM 2.62 36.716 0.07 6.6 7.52 13.15
3/14/2021 7:15:00 AM 2.6 36.68 0.07 6.62 7.08 13.16
3/14/2021 7:30:00 AM 2.58 36.644 0.069 6.6 7.72 13.16
3/14/2021 7:45:00 AM 2.57 36.626 0.07 6.6 7.37 13.18
3/14/2021 8:00:00 AM 2.55 36.59 0.07 6.58 6.7 13.21
3/14/2021 8:15:00 AM 2.54 36.572 0.07 6.59 6.85 13.24
3/14/2021 8:30:00 AM 2.53 36.554 0.07 6.64 7.21 13.26
3/14/2021 8:45:00 AM 2.54 36.572 0.07 6.58 6.71 13.29
3/14/2021 9:00:00 AM 2.56 36.608 0.069 6.62 6.52 13.32
3/14/2021 9:15:00 AM 2.59 36.662 0.07 6.67 6.81 13.33
3/14/2021 9:30:00 AM 2.63 36.734 0.07 6.64 7.02 13.35
3/14/2021 9:45:00 AM 2.68 36.824 0.07 6.74 7.01 13.36
3/14/2021 10:00:00 AM 2.75 36.95 0.07 6.71 6.94 13.36
3/14/2021 10:15:00 AM 2.83 37.094 0.07 6.7 6.99 13.36
3/14/2021 10:30:00 AM 2.95 37.31 0.07 6.71 7.66 13.34
3/14/2021 10:45:00 AM 3.1 37.58 0.07 6.75 6.57 13.33
3/14/2021 11:00:00 AM 3.26 37.868 0.07 6.76 6.72 13.31
3/14/2021 11:15:00 AM 3.41 38.138 0.07 6.77 6.95 13.26
3/14/2021 11:30:00 AM 3.58 38.444 0.069 6.75 6.65 13.22
3/14/2021 11:45:00 AM 3.72 38.696 0.069 6.79 6.47 13.18
3/14/2021 12:00:00 PM 3.9 39.02 0.07 6.81 7.6 13.14
3/14/2021 12:15:00 PM 4.1 39.38 0.069 6.72 7.01 13.09
3/14/2021 12:30:00 PM 4.29 39.722 0.069 6.82 6.45 13.03
3/14/2021 12:45:00 PM 4.45 40.01 0.07 6.81 7.08 12.98
3/14/2021 1:00:00 PM 4.63 40.334 0.07 6.86 6.86 12.94
3/14/2021 1:15:00 PM 4.85 40.73 0.07 6.85 7.21 12.88
3/14/2021 1:30:00 PM 4.97 40.946 0.069 6.84 6.85 12.83
3/14/2021 1:45:00 PM 5.09 41.162 0.069 6.86 7.26 12.79
3/14/2021 2:00:00 PM 5.28 41.504 0.069 6.86 6.56 12.73
3/14/2021 2:15:00 PM 5.53 41.954 0.069 6.91 6.75 12.68
3/14/2021 2:30:00 PM 5.65 42.17 0.069 6.85 6.5 12.62
3/14/2021 2:45:00 PM 5.67 42.206 0.07 6.87 6.62 12.6
3/14/2021 3:00:00 PM 5.7 42.26 0.07 6.85 6.59 12.59
3/14/2021 3:15:00 PM 5.74 42.332 0.069 6.85 6.48 12.58
3/14/2021 3:30:00 PM 5.8 42.44 0.07 6.77 6.49 12.56
3/14/2021 3:45:00 PM 5.86 42.548 0.07 6.86 6.57 12.55
3/14/2021 4:00:00 PM 5.77 42.386 0.07 6.79 6.6 12.53
3/14/2021 4:15:00 PM 5.72 42.296 0.07 6.78 7.13 12.55
3/14/2021 4:30:00 PM 5.72 42.296 0.07 6.79 6.53 12.54
3/14/2021 4:45:00 PM 5.67 42.206 0.07 6.77 6.17 12.54
3/14/2021 5:00:00 PM 5.6 42.08 0.07 6.81 6.91 12.53
3/14/2021 5:15:00 PM 5.55 41.99 0.07 6.73 6.27 12.53
3/14/2021 5:30:00 PM 5.5 41.9 0.07 6.77 6.16 12.51
3/14/2021 5:45:00 PM 5.48 41.864 0.071 6.79 6.48 12.5
3/14/2021 6:00:00 PM 5.45 41.81 0.071 6.73 6.26 12.49
3/14/2021 6:15:00 PM 5.4 41.72 0.07 6.78 6.48 12.46
3/14/2021 6:30:00 PM 5.34 41.612 0.071 6.72 5.94 12.45
3/14/2021 6:45:00 PM 5.24 41.432 0.071 6.7 6.51 12.44
3/14/2021 7:00:00 PM 5.13 41.234 0.071 6.66 6.71 12.44
3/14/2021 7:15:00 PM 5.01 41.018 0.071 6.7 6.17 12.45
3/14/2021 7:30:00 PM 4.85 40.73 0.071 6.64 5.79 12.47
3/14/2021 7:45:00 PM 4.7 40.46 0.072 6.6 6.08 12.5
3/14/2021 8:00:00 PM 4.53 40.154 0.071 6.59 6.17 12.54
3/14/2021 8:15:00 PM 4.38 39.884 0.072 6.56 6.27 12.57
3/14/2021 8:30:00 PM 4.23 39.614 0.072 6.48 6.4 12.61
3/14/2021 8:45:00 PM 4.11 39.398 0.072 6.56 6.71 12.66
3/14/2021 9:00:00 PM 3.99 39.182 0.072 6.6 5.87 12.7
3/14/2021 9:15:00 PM 3.87 38.966 0.072 6.53 7 12.74
3/14/2021 9:30:00 PM 3.76 38.768 0.072 6.63 6.11 12.78
3/14/2021 9:45:00 PM 3.66 38.588 0.073 6.55 5.97 12.81
3/14/2021 10:00:00 PM 3.55 38.39 0.072 6.59 5.98 12.85
3/14/2021 10:15:00 PM 3.46 38.228 0.073 6.57 5.93 12.89
3/14/2021 10:30:00 PM 3.37 38.066 0.073 6.5 5.8 12.93
3/14/2021 10:45:00 PM 3.28 37.904 0.073 6.49 6.52 12.95
3/14/2021 11:00:00 PM 3.19 37.742 0.073 6.58 5.56 13.01
3/14/2021 11:15:00 PM 3.1 37.58 0.073 6.55 6 13.02
3/14/2021 11:30:00 PM 3 37.4 0.073 6.52 5.85 13.07
3/14/2021 11:45:00 PM 2.92 37.256 0.074 6.5 5.83 13.11
3/15/2021 12:00:00 AM 2.84 37.112 0.073 6.59 5.81 13.14
3/15/2021 12:15:00 AM 2.76 36.968 0.073 6.59 6.11 13.16
3/15/2021 12:30:00 AM 2.7 36.86 0.073 6.57 5.67 13.19
3/15/2021 12:45:00 AM 2.63 36.734 0.074 6.6 6 13.23
3/15/2021 1:00:00 AM 2.56 36.608 0.074 6.63 5.78 13.25
3/15/2021 1:15:00 AM 2.47 36.446 0.073 6.64 5.36 13.28
3/15/2021 1:30:00 AM 2.38 36.284 0.074 6.64 5.58 13.31
3/15/2021 1:45:00 AM 2.3 36.14 0.073 6.6 5.78 13.35
3/15/2021 2:00:00 AM 2.22 35.996 0.074 6.61 5.87 13.38
3/15/2021 2:15:00 AM 2.15 35.87 0.074 6.6 5.88 13.41
3/15/2021 2:30:00 AM 2.08 35.744 0.074 6.64 5.72 13.44
3/15/2021 2:45:00 AM 2 35.6 0.074 6.64 5.42 13.47
3/15/2021 3:00:00 AM 1.93 35.474 0.074 6.6 5.75 13.49
3/15/2021 3:15:00 AM 1.87 35.366 0.074 6.6 6.65 13.53
3/15/2021 3:30:00 AM 1.81 35.258 0.074 6.62 5.36 13.55
3/15/2021 3:45:00 AM 1.75 35.15 0.074 6.62 5.71 13.57
3/15/2021 4:00:00 AM 1.69 35.042 0.074 6.6 5.62 13.6
3/15/2021 4:15:00 AM 1.65 34.97 0.074 6.62 5.83 13.62
3/15/2021 4:30:00 AM 1.61 34.898 0.074 6.6 5.71 13.62
3/15/2021 4:45:00 AM 1.57 34.826 0.074 6.62 5.56 13.65
3/15/2021 5:00:00 AM 1.52 34.736 0.074 6.61 5.42 13.66
3/15/2021 5:15:00 AM 1.47 34.646 0.074 6.54 5.31 13.69
3/15/2021 5:30:00 AM 1.42 34.556 0.075 6.63 5.4 13.7
3/15/2021 5:45:00 AM 1.38 34.484 0.074 6.61 5.35 13.72
3/15/2021 6:00:00 AM 1.34 34.412 0.074 6.63 5.48 13.74
3/15/2021 6:15:00 AM 1.28 34.304 0.074 6.61 5.37 13.77
3/15/2021 6:30:00 AM 1.24 34.232 0.074 6.65 5.11 13.78
3/15/2021 6:45:00 AM 1.19 34.142 0.074 6.63 5.37 13.8
3/15/2021 7:00:00 AM 1.15 34.07 0.075 6.55 5.64 13.82
3/15/2021 7:15:00 AM 1.11 33.998 0.075 6.64 5.4 13.84
3/15/2021 7:30:00 AM 1.07 33.926 0.074 6.64 5.37 13.86
3/15/2021 7:45:00 AM 1.04 33.872 0.075 6.59 5.05 13.9
3/15/2021 8:00:00 AM 1.01 33.818 0.075 6.63 5.34 13.94
3/15/2021 8:15:00 AM 0.96 33.728 0.074 6.68 5.25 13.98
3/15/2021 8:30:00 AM 0.93 33.674 0.075 6.69 5.03 14.02
3/15/2021 8:45:00 AM 0.91 33.638 0.075 6.7 5.27 14.06
3/15/2021 9:00:00 AM 0.91 33.638 0.074 6.72 5.34 14.1
3/15/2021 9:15:00 AM 0.93 33.674 0.075 6.74 4.98 14.13
3/15/2021 9:30:00 AM 0.94 33.692 0.075 6.76 5.05 14.15
3/15/2021 9:45:00 AM 0.96 33.728 0.075 6.65 4.9 14.18
3/15/2021 10:00:00 AM 0.97 33.746 0.074 6.74 4.81 14.19
3/15/2021 10:15:00 AM 1.02 33.836 0.075 6.76 5.17 14.21
3/15/2021 10:30:00 AM 1.09 33.962 0.074 6.72 5.16 14.21
3/15/2021 10:45:00 AM 1.19 34.142 0.074 6.78 4.97 14.2
3/15/2021 11:00:00 AM 1.34 34.412 0.075 6.8 5.01 14.17
3/15/2021 11:15:00 AM 1.49 34.682 0.074 6.79 4.81 14.13
3/15/2021 11:30:00 AM 1.66 34.988 0.074 6.83 4.72 14.09
3/15/2021 11:45:00 AM 1.83 35.294 0.074 6.81 4.99 14.04
3/15/2021 12:00:00 PM 2.01 35.618 0.074 6.9 5.21 14
3/15/2021 12:15:00 PM 2.19 35.942 0.074 6.87 4.93 13.95
3/15/2021 12:30:00 PM 2.35 36.23 0.074 6.86 4.77 13.89
3/15/2021 12:45:00 PM 2.53 36.554 0.074 6.86 4.9 13.84
3/15/2021 1:00:00 PM 2.73 36.914 0.074 6.67 4.92 13.78
3/15/2021 1:15:00 PM 2.9 37.22 0.073 6.9 4.69 13.72
3/15/2021 1:30:00 PM 3.08 37.544 0.074 6.88 4.59 13.66
3/15/2021 1:45:00 PM 3.28 37.904 0.074 6.89 4.53 13.6
3/15/2021 2:00:00 PM 3.44 38.192 0.073 6.92 4.7 13.53
3/15/2021 2:15:00 PM 3.61 38.498 0.074 6.83 4.85 13.48
3/15/2021 2:30:00 PM 3.76 38.768 0.074 6.91 4.42 13.41
3/15/2021 2:45:00 PM 3.94 39.092 0.074 6.91 4.33 13.35
3/15/2021 3:00:00 PM 4.08 39.344 0.074 6.9 4.87 13.29
3/15/2021 3:15:00 PM 4.17 39.506 0.074 6.92 4.59 13.25
3/15/2021 3:30:00 PM 4.25 39.65 0.074 6.94 4.61 13.22
3/15/2021 3:45:00 PM 4.33 39.794 0.074 6.92 4.48 13.18
3/15/2021 4:00:00 PM 4.38 39.884 0.074 6.92 4.78 13.16
3/15/2021 4:15:00 PM 4.43 39.974 0.074 6.86 4.76 13.14
3/15/2021 4:30:00 PM 4.44 39.992 0.074 6.79 4.76 13.12
3/15/2021 4:45:00 PM 4.45 40.01 0.075 6.89 4.5 13.09
3/15/2021 5:00:00 PM 4.43 39.974 0.074 6.9 4.72 13.08
3/15/2021 5:15:00 PM 4.38 39.884 0.074 6.89 4.58 13.06
3/15/2021 5:30:00 PM 4.3 39.74 0.075 6.86 4.9 13.04
3/15/2021 5:45:00 PM 4.21 39.578 0.075 6.85 4.67 13.05
3/15/2021 6:00:00 PM 4.15 39.47 0.075 6.73 4.59 13.04
3/15/2021 6:15:00 PM 4.08 39.344 0.075 6.84 4.91 13.04
3/15/2021 6:30:00 PM 3.98 39.164 0.075 6.62 4.65 13.03
3/15/2021 6:45:00 PM 3.89 39.002 0.075 6.78 4.8 13.02
3/15/2021 7:00:00 PM 3.81 38.858 0.075 6.69 5.18 13.01
3/15/2021 7:15:00 PM 3.73 38.714 0.075 6.71 6.2 12.99
3/15/2021 7:30:00 PM 3.65 38.57 0.076 6.76 5.42 12.98
3/15/2021 7:45:00 PM 3.56 38.408 0.076 6.75 5.34 12.98
3/15/2021 8:00:00 PM 3.48 38.264 0.076 6.73 5.3 12.99
3/15/2021 8:15:00 PM 3.39 38.102 0.076 6.56 4.94 13
3/15/2021 8:30:00 PM 3.31 37.958 0.077 6.72 4.82 13.01
3/15/2021 8:45:00 PM 3.24 37.832 0.077 6.4 4.76 13.02
3/15/2021 9:00:00 PM 3.16 37.688 0.076 6.72 5.07 13.04
3/15/2021 9:15:00 PM 3.08 37.544 0.076 6.68 4.83 13.08
3/15/2021 9:30:00 PM 3 37.4 0.077 6.62 4.66 13.1
3/15/2021 9:45:00 PM 2.92 37.256 0.077 6.68 5.03 13.13
3/15/2021 10:00:00 PM 2.85 37.13 0.077 6.53 5.15 13.15
3/15/2021 10:15:00 PM 2.78 37.004 0.077 6.69 4.63 13.17
3/15/2021 10:30:00 PM 2.71 36.878 0.076 6.7 5.01 13.2
3/15/2021 10:45:00 PM 2.65 36.77 0.076 6.61 4.65 13.22
3/15/2021 11:00:00 PM 2.6 36.68 0.076 6.56 4.7 13.24
3/15/2021 11:15:00 PM 2.55 36.59 0.077 6.57 4.87 13.26
3/15/2021 11:30:00 PM 2.5 36.5 0.077 6.73 4.91 13.28
3/15/2021 11:45:00 PM 2.45 36.41 0.077 6.71 4.74 13.3
3/16/2021 12:00:00 AM 2.41 36.338 0.077 6.71 4.73 13.32
3/16/2021 12:15:00 AM 2.37 36.266 0.077 6.73 4.74 13.33
3/16/2021 12:30:00 AM 2.33 36.194 0.077 6.63 4.8 13.35
3/16/2021 12:45:00 AM 2.29 36.122 0.077 6.52 4.68 13.36
3/16/2021 1:00:00 AM 2.25 36.05 0.077 6.73 4.63 13.38
3/16/2021 1:15:00 AM 2.22 35.996 0.078 6.62 5.18 13.39
3/16/2021 1:30:00 AM 2.18 35.924 0.078 6.7 4.67 13.4
3/16/2021 1:45:00 AM 2.15 35.87 0.078 6.66 4.87 13.41
3/16/2021 2:00:00 AM 2.13 35.834 0.078 6.61 5.01 13.42
3/16/2021 2:15:00 AM 2.1 35.78 0.078 6.69 5.02 13.43
3/16/2021 2:30:00 AM 2.08 35.744 0.078 6.73 4.64 13.43
3/16/2021 2:45:00 AM 2.07 35.726 0.077 6.55 4.5 13.44
3/16/2021 3:00:00 AM 2.06 35.708 0.078 6.7 4.51 13.44
3/16/2021 3:15:00 AM 2.04 35.672 0.078 6.72 4.7 13.45
3/16/2021 3:30:00 AM 2.02 35.636 0.078 6.79 4.55 13.45
3/16/2021 3:45:00 AM 2.01 35.618 0.078 6.74 4.39 13.46
3/16/2021 4:00:00 AM 1.99 35.582 0.078 6.77 4.47 13.46
3/16/2021 4:15:00 AM 1.98 35.564 0.078 6.69 4.55 13.46
3/16/2021 4:30:00 AM 1.96 35.528 0.078 6.41 4.35 13.46
3/16/2021 4:45:00 AM 1.95 35.51 0.078 6.67 4.19 13.47
3/16/2021 5:00:00 AM 1.94 35.492 0.078 6.68 4.26 13.47
3/16/2021 5:15:00 AM 1.92 35.456 0.078 6.75 4.33 13.48
3/16/2021 5:30:00 AM 1.89 35.402 0.078 6.7 4.59 13.48
3/16/2021 5:45:00 AM 1.86 35.348 0.078 6.71 5.22 13.49
3/16/2021 6:00:00 AM 1.84 35.312 0.078 6.7 4.56 13.49
3/16/2021 6:15:00 AM 1.84 35.312 0.078 6.72 5.04 13.49
3/16/2021 6:30:00 AM 1.83 35.294 0.078 6.78 4.59 13.5
3/16/2021 6:45:00 AM 1.83 35.294 0.078 6.77 4.9 13.5
3/16/2021 7:00:00 AM 1.81 35.258 0.079 6.78 4.43 13.51
3/16/2021 7:15:00 AM 1.82 35.276 0.078 6.75 4.31 13.51
3/16/2021 7:30:00 AM 1.81 35.258 0.079 6.68 4.69 13.51
3/16/2021 7:45:00 AM 1.8 35.24 0.079 6.71 4.45 13.52
3/16/2021 8:00:00 AM 1.8 35.24 0.078 6.65 4.79 13.55
3/16/2021 8:15:00 AM 1.81 35.258 0.078 6.67 4.42 13.59
3/16/2021 8:30:00 AM 1.78 35.204 0.078 6.73 4.29 13.59
3/16/2021 8:45:00 AM 1.79 35.222 0.078 6.8 4.48 13.62
3/16/2021 9:00:00 AM 1.77 35.186 0.078 6.79 4.28 13.65
3/16/2021 9:15:00 AM 1.73 35.114 0.078 6.85 4.31 13.68
3/16/2021 9:30:00 AM 1.7 35.06 0.078 6.77 4.24 13.72
3/16/2021 9:45:00 AM 1.61 34.898 0.078 6.69 4.22 13.73
3/16/2021 10:00:00 AM 1.55 34.79 0.078 6.73 4.07 13.74
3/16/2021 10:15:00 AM 1.55 34.79 0.078 6.7 4.17 13.78
3/16/2021 10:30:00 AM 1.57 34.826 0.078 6.87 3.93 13.81
3/16/2021 10:45:00 AM 1.59 34.862 0.078 6.7 4.03 13.85
3/16/2021 11:00:00 AM 1.63 34.934 0.078 6.9 4.12 13.87
3/16/2021 11:15:00 AM 1.65 34.97 0.077 6.87 3.95 13.87
3/16/2021 11:30:00 AM 1.68 35.024 0.078 6.94 4.08 13.89
3/16/2021 11:45:00 AM 1.72 35.096 0.078 6.93 3.95 13.89
3/16/2021 12:00:00 PM 1.76 35.168 0.078 6.9 4.24 13.89
3/16/2021 12:15:00 PM 1.81 35.258 0.078 6.89 3.9 13.88
3/16/2021 12:30:00 PM 1.86 35.348 0.078 6.77 3.99 13.87
3/16/2021 12:45:00 PM 1.92 35.456 0.077 6.91 3.94 13.86
3/16/2021 1:00:00 PM 1.98 35.564 0.078 6.94 4.01 13.85
3/16/2021 1:15:00 PM 2.04 35.672 0.078 6.94 3.86 13.84
3/16/2021 1:30:00 PM 2.12 35.816 0.077 6.94 4.17 13.84
3/16/2021 1:45:00 PM 2.16 35.888 0.078 6.96 4.44 13.82
3/16/2021 2:00:00 PM 2.2 35.96 0.078 7 4.36 13.8
3/16/2021 2:15:00 PM 2.23 36.014 0.078 7 4.82 13.78
3/16/2021 2:30:00 PM 2.24 36.032 0.078 6.94 4.59 13.76
3/16/2021 2:45:00 PM 2.27 36.086 0.078 6.97 4.54 13.74
3/16/2021 3:00:00 PM 2.3 36.14 0.078 6.96 4.2 13.71
3/16/2021 3:15:00 PM 2.33 36.194 0.078 6.95 4.46 13.7
3/16/2021 3:30:00 PM 2.35 36.23 0.078 6.97 3.86 13.69
3/16/2021 3:45:00 PM 2.38 36.284 0.078 6.95 3.92 13.68
3/16/2021 4:00:00 PM 2.4 36.32 0.078 6.93 4.15 13.67
3/16/2021 4:15:00 PM 2.42 36.356 0.078 6.94 4.05 13.66
3/16/2021 4:30:00 PM 2.43 36.374 0.078 6.94 4.03 13.64
3/16/2021 4:45:00 PM 2.45 36.41 0.078 6.89 4.09 13.63
3/16/2021 5:00:00 PM 2.46 36.428 0.078 6.79 3.83 13.61
3/16/2021 5:15:00 PM 2.47 36.446 0.078 6.94 4.3 13.59
3/16/2021 5:30:00 PM 2.48 36.464 0.078 6.84 4.16 13.59
3/16/2021 5:45:00 PM 2.48 36.464 0.078 6.93 4.09 13.57
3/16/2021 6:00:00 PM 2.49 36.482 0.078 6.81 4.21 13.57
3/16/2021 6:15:00 PM 2.51 36.518 0.078 6.89 4.05 13.54
3/16/2021 6:30:00 PM 2.51 36.518 0.078 6.93 4.14 13.52
3/16/2021 6:45:00 PM 2.51 36.518 0.079 6.89 4.09 13.47
3/16/2021 7:00:00 PM 2.5 36.5 0.078 6.9 4.22 13.43
3/16/2021 7:15:00 PM 2.5 36.5 0.078 6.84 4.21 13.38
3/16/2021 7:30:00 PM 2.5 36.5 0.078 6.84 4.48 13.35
3/16/2021 7:45:00 PM 2.49 36.482 0.079 6.82 4.08 13.31
3/16/2021 8:00:00 PM 2.49 36.482 0.079 6.85 4.35 13.3
3/16/2021 8:15:00 PM 2.48 36.464 0.079 6.85 4.17 13.28
3/16/2021 8:30:00 PM 2.48 36.464 0.079 6.79 4.22 13.27
3/16/2021 8:45:00 PM 2.5 36.5 0.079 6.78 4.09 13.25
3/16/2021 9:00:00 PM 2.5 36.5 0.079 6.63 4.2 13.24
3/16/2021 9:15:00 PM 2.51 36.518 0.079 6.76 4.5 13.24
3/16/2021 9:30:00 PM 2.5 36.5 0.079 6.68 4.06 13.23
3/16/2021 9:45:00 PM 2.49 36.482 0.079 6.81 4.23 13.23
3/16/2021 10:00:00 PM 2.49 36.482 0.079 6.78 3.96 13.23
3/16/2021 10:15:00 PM 2.49 36.482 0.079 6.75 4.15 13.23
3/16/2021 10:30:00 PM 2.49 36.482 0.079 6.77 4.25 13.22
3/16/2021 10:45:00 PM 2.48 36.464 0.08 6.78 4.06 13.23
3/16/2021 11:00:00 PM 2.48 36.464 0.08 6.78 4.13 13.23
3/16/2021 11:15:00 PM 2.47 36.446 0.08 6.78 4.19 13.23
3/16/2021 11:30:00 PM 2.47 36.446 0.08 6.81 3.95 13.23
3/16/2021 11:45:00 PM 2.47 36.446 0.08 6.81 4.06 13.23
3/17/2021 12:00:00 AM 2.47 36.446 0.08 6.83 4.06 13.23
3/17/2021 12:15:00 AM 2.47 36.446 0.08 6.82 3.94 13.23
3/17/2021 12:30:00 AM 2.48 36.464 0.08 6.69 4.06 13.23
3/17/2021 12:45:00 AM 2.48 36.464 0.08 6.8 4.36 13.23
3/17/2021 1:00:00 AM 2.48 36.464 0.08 6.83 3.99 13.23
3/17/2021 1:15:00 AM 2.48 36.464 0.08 6.77 4.05 13.23
3/17/2021 1:30:00 AM 2.48 36.464 0.081 6.58 3.83 13.22
3/17/2021 1:45:00 AM 2.48 36.464 0.08 6.82 3.95 13.22
3/17/2021 2:00:00 AM 2.48 36.464 0.08 6.71 3.88 13.22
3/17/2021 2:15:00 AM 2.48 36.464 0.08 6.85 3.78 13.22
3/17/2021 2:30:00 AM 2.48 36.464 0.081 6.81 3.92 13.22
3/17/2021 2:45:00 AM 2.49 36.482 0.081 6.82 4.18 13.22
3/17/2021 3:00:00 AM 2.49 36.482 0.081 6.84 5.66 13.22
3/17/2021 3:15:00 AM 2.5 36.5 0.081 6.84 4.12 13.21
3/17/2021 3:30:00 AM 2.5 36.5 0.081 6.55 3.9 13.21
3/17/2021 3:45:00 AM 2.5 36.5 0.081 6.78 4.31 13.21
3/17/2021 4:00:00 AM 2.51 36.518 0.081 6.68 3.96 13.2
3/17/2021 4:15:00 AM 2.51 36.518 0.081 6.66 3.91 13.2
3/17/2021 4:30:00 AM 2.51 36.518 0.081 6.82 3.97 13.2
3/17/2021 4:45:00 AM 2.52 36.536 0.081 6.84 4.21 13.21
3/17/2021 5:00:00 AM 2.52 36.536 0.081 6.8 4.01 13.2
3/17/2021 5:15:00 AM 2.52 36.536 0.081 6.81 4.14 13.19
3/17/2021 5:30:00 AM 2.52 36.536 0.081 6.81 4.12 13.2
3/17/2021 5:45:00 AM 2.53 36.554 0.081 6.87 3.89 13.2
3/17/2021 6:00:00 AM 2.53 36.554 0.081 6.8 3.97 13.2
3/17/2021 6:15:00 AM 2.53 36.554 0.081 6.81 4.18 13.2
3/17/2021 6:30:00 AM 2.54 36.572 0.081 6.75 4.15 13.2
3/17/2021 6:45:00 AM 2.54 36.572 0.081 6.76 4.2 13.2
3/17/2021 7:00:00 AM 2.54 36.572 0.081 6.72 4.19 13.2
3/17/2021 7:15:00 AM 2.54 36.572 0.081 6.84 4.18 13.2
3/17/2021 7:30:00 AM 2.55 36.59 0.082 6.81 4.03 13.21
3/17/2021 7:45:00 AM 2.56 36.608 0.081 6.71 4.1 13.22
3/17/2021 8:00:00 AM 2.56 36.608 0.081 6.86 3.98 13.25
3/17/2021 8:15:00 AM 2.57 36.626 0.081 6.82 4.15 13.28
3/17/2021 8:30:00 AM 2.59 36.662 0.081 6.85 3.94 13.32
3/17/2021 8:45:00 AM 2.61 36.698 0.081 6.9 3.76 13.35
3/17/2021 9:00:00 AM 2.63 36.734 0.081 6.75 3.94 13.39
3/17/2021 9:15:00 AM 2.66 36.788 0.081 6.82 4.31 13.41
3/17/2021 9:30:00 AM 2.69 36.842 0.081 6.89 3.89 13.44
3/17/2021 9:45:00 AM 2.73 36.914 0.081 6.85 3.97 13.46
3/17/2021 10:00:00 AM 2.77 36.986 0.081 6.92 4.35 13.48
3/17/2021 10:15:00 AM 2.81 37.058 0.081 6.87 4.07 13.5
3/17/2021 10:30:00 AM 2.85 37.13 0.081 6.94 3.79 13.49
3/17/2021 10:45:00 AM 2.9 37.22 0.081 6.87 3.84 13.51
3/17/2021 11:00:00 AM 2.97 37.346 0.081 6.99 4.04 13.5
3/17/2021 11:15:00 AM 3.03 37.454 0.081 6.95 3.86 13.5
3/17/2021 11:30:00 AM 3.1 37.58 0.081 6.94 3.71 13.5
3/17/2021 11:45:00 AM 3.18 37.724 0.08 7 3.73 13.49
3/17/2021 12:00:00 PM 3.26 37.868 0.08 7.05 3.72 13.47
3/17/2021 12:15:00 PM 3.34 38.012 0.081 6.89 3.66 13.45
3/17/2021 12:30:00 PM 3.41 38.138 0.081 7.06 3.94 13.43
3/17/2021 12:45:00 PM 3.49 38.282 0.081 7 3.82 13.41
3/17/2021 1:00:00 PM 3.57 38.426 0.08 7.05 3.63 13.39
3/17/2021 1:15:00 PM 3.66 38.588 0.08 7.07 3.64 13.37
3/17/2021 1:30:00 PM 3.73 38.714 0.08 6.84 3.61 13.34
3/17/2021 1:45:00 PM 3.78 38.804 0.08 7.08 4.17 13.31
3/17/2021 2:00:00 PM 3.84 38.912 0.08 7.08 3.67 13.29
3/17/2021 2:15:00 PM 3.91 39.038 0.08 7.09 3.73 13.27
3/17/2021 2:30:00 PM 3.95 39.11 0.08 6.89 3.6 13.24
3/17/2021 2:45:00 PM 4 39.2 0.08 7.1 3.48 13.22
3/17/2021 3:00:00 PM 4.05 39.29 0.08 7.1 3.6 13.2
3/17/2021 3:15:00 PM 4.13 39.434 0.08 7.06 3.56 13.18
3/17/2021 3:30:00 PM 4.24 39.632 0.08 7.1 3.62 13.16
3/17/2021 3:45:00 PM 4.35 39.83 0.08 7.09 3.62 13.13
3/17/2021 4:00:00 PM 4.46 40.028 0.08 7.13 3.79 13.11
3/17/2021 4:15:00 PM 4.58 40.244 0.08 7.13 3.72 13.07
3/17/2021 4:30:00 PM 4.72 40.496 0.08 7.15 3.93 13.03
3/17/2021 4:45:00 PM 4.79 40.622 0.08 7.15 3.87 13
3/17/2021 5:00:00 PM 4.81 40.658 0.08 7.14 3.74 12.97
3/17/2021 5:15:00 PM 4.83 40.694 0.08 7.13 3.87 12.95
3/17/2021 5:30:00 PM 4.85 40.73 0.08 7.15 3.6 12.92
3/17/2021 5:45:00 PM 4.86 40.748 0.08 7.15 3.63 12.89
3/17/2021 6:00:00 PM 4.85 40.73 0.08 7.13 3.65 12.86
3/17/2021 6:15:00 PM 4.8 40.64 0.081 7.13 3.71 12.83
3/17/2021 6:30:00 PM 4.73 40.514 0.081 7.08 3.78 12.82
3/17/2021 6:45:00 PM 4.67 40.406 0.081 7.09 3.84 12.8
3/17/2021 7:00:00 PM 4.62 40.316 0.081 7.08 4.18 12.76
3/17/2021 7:15:00 PM 4.57 40.226 0.081 7.05 3.76 12.7
3/17/2021 7:30:00 PM 4.52 40.136 0.081 7 3.76 12.65
3/17/2021 7:45:00 PM 4.48 40.064 0.081 6.97 3.96 12.61
3/17/2021 8:00:00 PM 4.43 39.974 0.081 6.94 4.48 12.59
3/17/2021 8:15:00 PM 4.37 39.866 0.081 6.93 3.9 12.58
3/17/2021 8:30:00 PM 4.31 39.758 0.081 6.89 4.12 12.57
3/17/2021 8:45:00 PM 4.25 39.65 0.082 6.86 4.08 12.58
3/17/2021 9:00:00 PM 4.19 39.542 0.082 6.79 4.02 12.59
3/17/2021 9:15:00 PM 4.15 39.47 0.082 6.78 3.94 12.6
3/17/2021 9:30:00 PM 4.11 39.398 0.082 6.85 3.93 12.61
3/17/2021 9:45:00 PM 4.07 39.326 0.082 6.8 4 12.61
3/17/2021 10:00:00 PM 4.04 39.272 0.083 6.75 3.92 12.62
3/17/2021 10:15:00 PM 4.02 39.236 0.082 6.88 3.76 12.64
3/17/2021 10:30:00 PM 3.99 39.182 0.082 6.81 3.88 12.65
3/17/2021 10:45:00 PM 3.96 39.128 0.082 6.71 3.98 12.66
3/17/2021 11:00:00 PM 3.94 39.092 0.083 6.76 3.83 12.67
3/17/2021 11:15:00 PM 3.92 39.056 0.082 6.76 3.99 12.68
3/17/2021 11:30:00 PM 3.9 39.02 0.083 6.73 3.74 12.68
3/17/2021 11:45:00 PM 3.89 39.002 0.083 6.89 3.95 12.68
3/18/2021 12:00:00 AM 3.87 38.966 0.083 6.77 3.9 12.69
3/18/2021 12:15:00 AM 3.85 38.93 0.083 6.81 3.72 12.69
3/18/2021 12:30:00 AM 3.84 38.912 0.083 6.81 3.65 12.7
3/18/2021 12:45:00 AM 3.83 38.894 0.083 6.86 4.05 12.7
3/18/2021 1:00:00 AM 3.81 38.858 0.083 6.88 3.85 12.7
3/18/2021 1:15:00 AM 3.8 38.84 0.083 6.88 3.91 12.7
3/18/2021 1:30:00 AM 3.79 38.822 0.083 6.83 4.02 12.7
3/18/2021 1:45:00 AM 3.78 38.804 0.083 6.83 3.94 12.7
3/18/2021 2:00:00 AM 3.77 38.786 0.083 6.85 3.83 12.7
3/18/2021 2:15:00 AM 3.76 38.768 0.083 6.89 4.04 12.71
3/18/2021 2:30:00 AM 3.75 38.75 0.083 6.81 3.82 12.71
3/18/2021 2:45:00 AM 3.74 38.732 0.084 6.73 4.02 12.71
3/18/2021 3:00:00 AM 3.73 38.714 0.084 6.71 3.79 12.71
3/18/2021 3:15:00 AM 3.73 38.714 0.084 6.88 3.81 12.71
3/18/2021 3:30:00 AM 3.72 38.696 0.084 6.88 3.78 12.71
3/18/2021 3:45:00 AM 3.72 38.696 0.084 6.91 3.92 12.72
3/18/2021 4:00:00 AM 3.71 38.678 0.084 6.69 3.77 12.71
3/18/2021 4:15:00 AM 3.71 38.678 0.084 6.86 3.96 12.72
3/18/2021 4:30:00 AM 3.71 38.678 0.084 6.86 4.09 12.72
3/18/2021 4:45:00 AM 3.7 38.66 0.083 6.86 3.87 12.71
3/18/2021 5:00:00 AM 3.7 38.66 0.084 6.9 3.6 12.71
3/18/2021 5:15:00 AM 3.69 38.642 0.084 6.89 3.76 12.71
3/18/2021 5:30:00 AM 3.69 38.642 0.085 6.84 4.07 12.71
3/18/2021 5:45:00 AM 3.69 38.642 0.084 6.79 3.74 12.71
3/18/2021 6:00:00 AM 3.68 38.624 0.084 6.9 3.85 12.71
3/18/2021 6:15:00 AM 3.68 38.624 0.085 6.82 3.83 12.71
3/18/2021 6:30:00 AM 3.68 38.624 0.084 6.91 3.98 12.71
3/18/2021 6:45:00 AM 3.68 38.624 0.084 6.77 3.82 12.7
3/18/2021 7:00:00 AM 3.68 38.624 0.084 6.78 4.11 12.71
3/18/2021 7:15:00 AM 3.68 38.624 0.084 6.82 3.97 12.7
3/18/2021 7:30:00 AM 3.68 38.624 0.084 6.83 4.05 12.7
3/18/2021 7:45:00 AM 3.68 38.624 0.083 6.91 4.48 12.71
3/18/2021 8:00:00 AM 3.68 38.624 0.084 6.69 3.97 12.72
3/18/2021 8:15:00 AM 3.68 38.624 0.084 6.84 4.08 12.75
3/18/2021 8:30:00 AM 3.68 38.624 0.083 6.87 3.97 12.76
3/18/2021 8:45:00 AM 3.69 38.642 0.083 6.9 4.3 12.79
3/18/2021 9:00:00 AM 3.7 38.66 0.083 6.87 4.01 12.82
3/18/2021 9:15:00 AM 3.71 38.678 0.083 6.9 4.44 12.84
3/18/2021 9:30:00 AM 3.72 38.696 0.083 6.89 4.51 12.86
3/18/2021 9:45:00 AM 3.73 38.714 0.083 6.93 4.61 12.88
3/18/2021 10:00:00 AM 3.75 38.75 0.083 6.92 4.81 12.9
3/18/2021 10:15:00 AM 3.77 38.786 0.083 6.93 5.03 12.92
3/18/2021 10:30:00 AM 3.79 38.822 0.083 6.87 5.36 12.92
3/18/2021 10:45:00 AM 3.81 38.858 0.082 6.95 5.26 12.94
3/18/2021 11:00:00 AM 3.83 38.894 0.082 6.9 5.56 12.96
3/18/2021 11:15:00 AM 3.86 38.948 0.082 6.86 5.73 12.97
3/18/2021 11:30:00 AM 3.89 39.002 0.081 6.88 5.85 12.97
3/18/2021 11:45:00 AM 3.92 39.056 0.081 6.89 6.6 12.97
3/18/2021 12:00:00 PM 3.95 39.11 0.081 6.87 6.89 12.98
3/18/2021 12:15:00 PM 4 39.2 0.081 6.9 8.37 12.99
3/18/2021 12:30:00 PM 4.04 39.272 0.081 6.9 8.58 12.99
3/18/2021 12:45:00 PM 4.08 39.344 0.081 6.84 9.23 12.98
3/18/2021 1:00:00 PM 4.12 39.416 0.082 6.86 9.62 12.98
3/18/2021 1:15:00 PM 4.17 39.506 0.083 6.98 11.59 12.98
3/18/2021 1:30:00 PM 4.21 39.578 0.084 7 12.91 12.96
3/18/2021 1:45:00 PM 4.25 39.65 0.086 6.98 14.19 12.95
3/18/2021 2:00:00 PM 4.27 39.686 0.088 6.99 14.69 12.92
3/18/2021 2:15:00 PM 4.29 39.722 0.091 6.95 17.87 12.88
3/18/2021 2:30:00 PM 4.29 39.722 0.094 6.88 17.28 12.84
3/18/2021 2:45:00 PM 4.3 39.74 0.096 6.74 61.09 12.83
3/18/2021 3:00:00 PM 4.29 39.722 0.099 6.83 19.73 12.8
3/18/2021 3:15:00 PM 4.27 39.686 0.101 6.84 29.54 12.77
3/18/2021 3:30:00 PM 4.24 39.632 0.103 6.86 26 12.75
3/18/2021 3:45:00 PM 4.21 39.578 0.105 6.86 37.28 12.74
3/18/2021 4:00:00 PM 4.19 39.542 0.108 6.85 32.85 12.73
3/18/2021 4:15:00 PM 4.17 39.506 0.11 6.86 27.9 12.71
3/18/2021 4:30:00 PM 4.14 39.452 0.111 6.87 33.35 12.71
3/18/2021 4:45:00 PM 4.13 39.434 0.113 6.86 31.66 12.71
3/18/2021 5:00:00 PM 4.11 39.398 0.115 6.84 33.01 12.71
3/18/2021 5:15:00 PM 4.09 39.362 0.117 6.83 71.99 12.72
3/18/2021 5:30:00 PM 4.06 39.308 0.118 6.86 30.97 12.72
3/18/2021 5:45:00 PM 4.03 39.254 0.118 6.85 33.66 12.72
3/18/2021 6:00:00 PM 4 39.2 0.118 6.85 31.4 12.72
3/18/2021 6:15:00 PM 3.97 39.146 0.117 6.83 36.61 12.72
3/18/2021 6:30:00 PM 3.93 39.074 0.115 6.82 35.81 12.72
3/18/2021 6:45:00 PM 3.9 39.02 0.115 6.79 30.84 12.73
3/18/2021 7:00:00 PM 3.87 38.966 0.115 6.81 36.12 12.73
3/18/2021 7:15:00 PM 3.84 38.912 0.114 6.77 32.17 12.74
3/18/2021 7:30:00 PM 3.8 38.84 0.114 6.79 29.34 12.75
3/18/2021 7:45:00 PM 3.77 38.786 0.114 6.79 31.73 12.76
3/18/2021 8:00:00 PM 3.74 38.732 0.113 6.78 32.56 12.77
3/18/2021 8:15:00 PM 3.7 38.66 0.113 6.77 30.13 12.77
3/18/2021 8:30:00 PM 3.67 38.606 0.112 6.75 33.54 12.78
3/18/2021 8:45:00 PM 3.65 38.57 0.113 6.75 26.8 12.79
3/18/2021 9:00:00 PM 3.61 38.498 0.111 6.78 28.99 12.79
3/18/2021 9:15:00 PM 3.58 38.444 0.111 6.8 25.48 12.81
3/18/2021 9:30:00 PM 3.55 38.39 0.112 6.76 27.76 12.81
3/18/2021 9:45:00 PM 3.53 38.354 0.111 6.78 31.75 12.82
3/18/2021 10:00:00 PM 3.5 38.3 0.111 6.7 27.95 12.84
3/18/2021 10:15:00 PM 3.46 38.228 0.111 6.76 35.38 12.85
3/18/2021 10:30:00 PM 3.43 38.174 0.111 6.75 23.88 12.86
3/18/2021 10:45:00 PM 3.4 38.12 0.11 6.78 20.91 12.87
3/18/2021 11:00:00 PM 3.36 38.048 0.11 6.76 21.46 12.89
3/18/2021 11:15:00 PM 3.33 37.994 0.11 6.71 19.58 12.89
3/18/2021 11:30:00 PM 3.29 37.922 0.109 6.75 18.01 12.91
3/18/2021 11:45:00 PM 3.26 37.868 0.109 6.68 16.98 12.93
3/19/2021 12:00:00 AM 3.22 37.796 0.108 6.75 16.15 12.95
3/19/2021 12:15:00 AM 3.18 37.724 0.108 6.74 16.93 12.96
3/19/2021 12:30:00 AM 3.15 37.67 0.108 6.76 17.04 12.96
3/19/2021 12:45:00 AM 3.1 37.58 0.107 6.76 14.65 12.97
3/19/2021 1:00:00 AM 3.06 37.508 0.107 6.63 14.92 12.98
3/19/2021 1:15:00 AM 3.02 37.436 0.106 6.75 14.22 13
3/19/2021 1:30:00 AM 2.97 37.346 0.106 6.64 13.55 13.03
3/19/2021 1:45:00 AM 2.92 37.256 0.105 6.73 12.91 13.05
3/19/2021 2:00:00 AM 2.88 37.184 0.105 6.76 12.71 13.07
3/19/2021 2:15:00 AM 2.83 37.094 0.104 6.78 13.04 13.09
3/19/2021 2:30:00 AM 2.77 36.986 0.104 6.71 12.77 13.1
3/19/2021 2:45:00 AM 2.72 36.896 0.104 6.75 12.5 13.12
3/19/2021 3:00:00 AM 2.66 36.788 0.104 6.74 12.4 13.15
3/19/2021 3:15:00 AM 2.6 36.68 0.103 6.7 12.48 13.17
3/19/2021 3:30:00 AM 2.55 36.59 0.103 6.73 12.07 13.19
3/19/2021 3:45:00 AM 2.49 36.482 0.103 6.59 11.6 13.21
3/19/2021 4:00:00 AM 2.43 36.374 0.103 6.72 10.96 13.23
3/19/2021 4:15:00 AM 2.37 36.266 0.103 6.73 11.35 13.25
3/19/2021 4:30:00 AM 2.3 36.14 0.103 6.6 10.38 13.28
3/19/2021 4:45:00 AM 2.25 36.05 0.103 6.61 10.15 13.3
3/19/2021 5:00:00 AM 2.2 35.96 0.102 6.61 10.2 13.32
3/19/2021 5:15:00 AM 2.14 35.852 0.102 6.78 10.12 13.35
3/19/2021 5:30:00 AM 2.09 35.762 0.101 6.74 10.29 13.37
3/19/2021 5:45:00 AM 2.03 35.654 0.102 6.67 9.98 13.39
3/19/2021 6:00:00 AM 1.98 35.564 0.101 6.78 9.52 13.42
3/19/2021 6:15:00 AM 1.92 35.456 0.101 6.7 9.68 13.45
3/19/2021 6:30:00 AM 1.88 35.384 0.1 6.7 9.52 13.47
3/19/2021 6:45:00 AM 1.83 35.294 0.101 6.63 9.64 13.49
3/19/2021 7:00:00 AM 1.77 35.186 0.101 6.46 9.09 13.51
3/19/2021 7:15:00 AM 1.73 35.114 0.1 6.5 8.54 13.53
3/19/2021 7:30:00 AM 1.68 35.024 0.101 6.69 8.43 13.56
3/19/2021 7:45:00 AM 1.63 34.934 0.1 6.71 8.4 13.61
3/19/2021 8:00:00 AM 1.59 34.862 0.1 6.73 8.65 13.65
3/19/2021 8:15:00 AM 1.56 34.808 0.099 6.72 7.77 13.71
3/19/2021 8:30:00 AM 1.51 34.718 0.1 6.73 8.03 13.74
3/19/2021 8:45:00 AM 1.49 34.682 0.099 6.73 8.11 13.79
3/19/2021 9:00:00 AM 1.46 34.628 0.098 6.76 7.44 13.83
3/19/2021 9:15:00 AM 1.47 34.646 0.099 6.77 6.92 13.87
3/19/2021 9:30:00 AM 1.47 34.646 0.099 6.65 7.37 13.89
3/19/2021 9:45:00 AM 1.49 34.682 0.098 6.79 6.71 13.92
3/19/2021 10:00:00 AM 1.53 34.754 0.097 6.79 7.12 13.94
3/19/2021 10:15:00 AM 1.59 34.862 0.097 6.8 6.83 13.96
3/19/2021 10:30:00 AM 1.67 35.006 0.098 6.73 7.03 13.96
3/19/2021 10:45:00 AM 1.77 35.186 0.096 6.86 6.53 13.96
3/19/2021 11:00:00 AM 1.89 35.402 0.097 6.84 6.65 13.94
3/19/2021 11:15:00 AM 2.03 35.654 0.097 6.87 6.49 13.92
3/19/2021 11:30:00 AM 2.18 35.924 0.096 6.88 6.08 13.89
3/19/2021 11:45:00 AM 2.34 36.212 0.096 6.87 6.01 13.85
3/19/2021 12:00:00 PM 2.5 36.5 0.095 6.9 6.57 13.82
3/19/2021 12:15:00 PM 2.67 36.806 0.095 6.93 6.21 13.77
3/19/2021 12:30:00 PM 2.85 37.13 0.095 6.9 6.26 13.72
3/19/2021 12:45:00 PM 3.03 37.454 0.095 6.89 5.68 13.68
3/19/2021 1:00:00 PM 3.22 37.796 0.094 6.93 5.59 13.62
3/19/2021 1:15:00 PM 3.4 38.12 0.094 6.95 5.76 13.56
3/19/2021 1:30:00 PM 3.59 38.462 0.094 6.93 5.53 13.51
3/19/2021 1:45:00 PM 3.76 38.768 0.093 6.85 5.58 13.45
3/19/2021 2:00:00 PM 3.93 39.074 0.093 6.94 5.48 13.4
3/19/2021 2:15:00 PM 4.09 39.362 0.092 6.87 5.48 13.34
3/19/2021 2:30:00 PM 4.23 39.614 0.093 6.94 5.56 13.29
3/19/2021 2:45:00 PM 4.4 39.92 0.092 6.96 5.49 13.23
3/19/2021 3:00:00 PM 4.54 40.172 0.092 6.95 5.54 13.19
3/19/2021 3:15:00 PM 4.66 40.388 0.091 6.88 5.31 13.14
3/19/2021 3:30:00 PM 4.75 40.55 0.091 6.89 5.43 13.1
3/19/2021 3:45:00 PM 4.85 40.73 0.091 6.81 5.71 13.06
3/19/2021 4:00:00 PM 4.92 40.856 0.091 6.89 5.55 13.03
3/19/2021 4:15:00 PM 4.96 40.928 0.091 6.94 5.8 13
3/19/2021 4:30:00 PM 4.99 40.982 0.091 6.82 5.49 12.98
3/19/2021 4:45:00 PM 5 41 0.091 6.91 5.64 12.96
3/19/2021 5:00:00 PM 4.98 40.964 0.09 6.9 5.44 12.94
3/19/2021 5:15:00 PM 4.93 40.874 0.091 6.93 5.82 12.92
3/19/2021 5:30:00 PM 4.87 40.766 0.09 6.92 5.44 12.91
3/19/2021 5:45:00 PM 4.81 40.658 0.09 6.79 5.59 12.9
3/19/2021 6:00:00 PM 4.73 40.514 0.09 6.8 5.47 12.89
3/19/2021 6:15:00 PM 4.65 40.37 0.089 6.83 5.64 12.89
3/19/2021 6:30:00 PM 4.56 40.208 0.09 6.73 5.33 12.88
3/19/2021 6:45:00 PM 4.48 40.064 0.089 6.86 5.58 12.86
3/19/2021 7:00:00 PM 4.39 39.902 0.09 6.79 5.82 12.85
3/19/2021 7:15:00 PM 4.29 39.722 0.089 6.68 5.51 12.84
3/19/2021 7:30:00 PM 4.21 39.578 0.089 6.75 5.56 12.83
3/19/2021 7:45:00 PM 4.12 39.416 0.089 6.72 5.74 12.84
3/19/2021 8:00:00 PM 4.02 39.236 0.089 6.67 5.39 12.84
3/19/2021 8:15:00 PM 3.92 39.056 0.089 6.69 5.74 12.86
3/19/2021 8:30:00 PM 3.81 38.858 0.089 6.68 5.69 12.88
3/19/2021 8:45:00 PM 3.71 38.678 0.089 6.69 5.93 12.91
3/19/2021 9:00:00 PM 3.61 38.498 0.089 6.66 5.45 12.94
3/19/2021 9:15:00 PM 3.52 38.336 0.089 6.48 5.56 12.97
3/19/2021 9:30:00 PM 3.42 38.156 0.088 6.69 5.83 13
3/19/2021 9:45:00 PM 3.32 37.976 0.088 6.67 5.55 13.03
3/19/2021 10:00:00 PM 3.23 37.814 0.088 6.67 5.78 13.08
3/19/2021 10:15:00 PM 3.14 37.652 0.088 6.65 5.43 13.11
3/19/2021 10:30:00 PM 3.05 37.49 0.088 6.61 5.81 13.15
3/19/2021 10:45:00 PM 2.97 37.346 0.088 6.67 5.7 13.18
3/19/2021 11:00:00 PM 2.9 37.22 0.088 6.66 5.83 13.21
3/19/2021 11:15:00 PM 2.83 37.094 0.088 6.66 5.34 13.23
3/19/2021 11:30:00 PM 2.76 36.968 0.088 6.56 5.55 13.24
3/19/2021 11:45:00 PM 2.7 36.86 0.088 6.58 5.76 13.28
3/20/2021 12:00:00 AM 2.63 36.734 0.088 6.57 5.58 13.31
3/20/2021 12:15:00 AM 2.57 36.626 0.087 6.69 5.57 13.33
3/20/2021 12:30:00 AM 2.52 36.536 0.088 6.51 5.48 13.35
3/20/2021 12:45:00 AM 2.46 36.428 0.087 6.64 5.55 13.38
3/20/2021 1:00:00 AM 2.41 36.338 0.087 6.63 5.66 13.39
3/20/2021 1:15:00 AM 2.36 36.248 0.087 6.69 5.37 13.42
3/20/2021 1:30:00 AM 2.3 36.14 0.088 6.44 5.35 13.44
3/20/2021 1:45:00 AM 2.25 36.05 0.087 6.52 5.61 13.46
3/20/2021 2:00:00 AM 2.2 35.96 0.087 6.66 5.35 13.48
3/20/2021 2:15:00 AM 2.16 35.888 0.087 6.63 5.44 13.5
3/20/2021 2:30:00 AM 2.11 35.798 0.086 6.67 5.1 13.52
3/20/2021 2:45:00 AM 2.06 35.708 0.087 6.66 5.48 13.54
3/20/2021 3:00:00 AM 2.01 35.618 0.087 6.63 5 13.56
3/20/2021 3:15:00 AM 1.97 35.546 0.087 6.68 5 13.57
3/20/2021 3:30:00 AM 1.93 35.474 0.087 6.68 5.31 13.6
3/20/2021 3:45:00 AM 1.88 35.384 0.086 6.74 5.09 13.61
3/20/2021 4:00:00 AM 1.84 35.312 0.086 6.66 5.35 13.63
3/20/2021 4:15:00 AM 1.8 35.24 0.087 6.57 5.02 13.64
3/20/2021 4:30:00 AM 1.77 35.186 0.086 6.62 5.49 13.66
3/20/2021 4:45:00 AM 1.73 35.114 0.086 6.64 5.16 13.67
3/20/2021 5:00:00 AM 1.69 35.042 0.086 6.66 5.32 13.7
3/20/2021 5:15:00 AM 1.66 34.988 0.086 6.71 5.21 13.71
3/20/2021 5:30:00 AM 1.62 34.916 0.086 6.59 5.4 13.72
3/20/2021 5:45:00 AM 1.59 34.862 0.086 6.65 5.05 13.73
3/20/2021 6:00:00 AM 1.55 34.79 0.085 6.65 4.52 13.75
3/20/2021 6:15:00 AM 1.52 34.736 0.085 6.68 4.81 13.77
3/20/2021 6:30:00 AM 1.48 34.664 0.085 6.69 4.6 13.78
3/20/2021 6:45:00 AM 1.45 34.61 0.085 6.69 4.66 13.79
3/20/2021 7:00:00 AM 1.42 34.556 0.085 6.71 4.49 13.81
3/20/2021 7:15:00 AM 1.38 34.484 0.085 6.52 4.44 13.83
3/20/2021 7:30:00 AM 1.35 34.43 0.085 6.68 4.66 13.86
3/20/2021 7:45:00 AM 1.33 34.394 0.084 6.68 4.62 13.9
3/20/2021 8:00:00 AM 1.3 34.34 0.084 6.72 4.66 13.94
3/20/2021 8:15:00 AM 1.29 34.322 0.084 6.74 4.6 13.98
3/20/2021 8:30:00 AM 1.28 34.304 0.085 6.71 4.49 14.02
3/20/2021 8:45:00 AM 1.29 34.322 0.084 6.7 4.67 14.07
3/20/2021 9:00:00 AM 1.3 34.34 0.084 6.72 4.42 14.1
3/20/2021 9:15:00 AM 1.34 34.412 0.084 6.66 4.4 14.13
3/20/2021 9:30:00 AM 1.38 34.484 0.084 6.76 4.37 14.14
3/20/2021 9:45:00 AM 1.43 34.574 0.084 6.77 4.46 14.15
3/20/2021 10:00:00 AM 1.52 34.736 0.083 6.78 4.52 14.15
3/20/2021 10:15:00 AM 1.63 34.934 0.083 6.78 4.46 14.15
3/20/2021 10:30:00 AM 1.78 35.204 0.083 6.83 4.57 14.11
3/20/2021 10:45:00 AM 1.96 35.528 0.082 6.86 4.52 14.08
3/20/2021 11:00:00 AM 2.15 35.87 0.082 6.84 4.84 14.04
3/20/2021 11:15:00 AM 2.35 36.23 0.082 6.87 4.21 13.99
3/20/2021 11:30:00 AM 2.56 36.608 0.082 6.88 4.39 13.93
3/20/2021 11:45:00 AM 2.78 37.004 0.081 6.94 4.99 13.86
3/20/2021 12:00:00 PM 3.02 37.436 0.081 6.93 4.59 13.79
3/20/2021 12:15:00 PM 3.26 37.868 0.081 6.95 4.45 13.73
3/20/2021 12:30:00 PM 3.51 38.318 0.081 6.87 4.7 13.65
3/20/2021 12:45:00 PM 3.76 38.768 0.081 6.92 4.4 13.57
3/20/2021 1:00:00 PM 4.01 39.218 0.081 6.95 4.35 13.49
3/20/2021 1:15:00 PM 4.25 39.65 0.081 6.95 4.71 13.42
3/20/2021 1:30:00 PM 4.49 40.082 0.081 6.86 4.8 13.34
3/20/2021 1:45:00 PM 4.73 40.514 0.08 6.83 4.56 13.25
3/20/2021 2:00:00 PM 4.95 40.91 0.08 6.95 4.53 13.18
3/20/2021 2:15:00 PM 5.18 41.324 0.08 6.77 5.06 13.1
3/20/2021 2:30:00 PM 5.39 41.702 0.08 6.92 4.97 13.02
3/20/2021 2:45:00 PM 5.6 42.08 0.08 6.95 4.71 12.95
3/20/2021 3:00:00 PM 5.78 42.404 0.08 6.79 4.94 12.9
3/20/2021 3:15:00 PM 5.95 42.71 0.08 6.94 5.06 12.83
3/20/2021 3:30:00 PM 6.1 42.98 0.079 6.95 4.67 12.77
3/20/2021 3:45:00 PM 6.23 43.214 0.079 6.89 4.99 12.73
3/20/2021 4:00:00 PM 6.34 43.412 0.08 6.93 5.14 12.67
3/20/2021 4:15:00 PM 6.43 43.574 0.08 6.9 4.68 12.64
3/20/2021 4:30:00 PM 6.5 43.7 0.08 6.92 4.42 12.6
3/20/2021 4:45:00 PM 6.54 43.772 0.08 6.92 4.59 12.57
3/20/2021 5:00:00 PM 6.55 43.79 0.08 6.96 4.46 12.53
3/20/2021 5:15:00 PM 6.54 43.772 0.079 6.95 5.04 12.5
3/20/2021 5:30:00 PM 6.5 43.7 0.079 6.93 4.66 12.48
3/20/2021 5:45:00 PM 6.45 43.61 0.079 6.76 4.23 12.45
3/20/2021 6:00:00 PM 6.4 43.52 0.08 6.88 4.86 12.44
3/20/2021 6:15:00 PM 6.33 43.394 0.08 6.91 4.39 12.41
3/20/2021 6:30:00 PM 6.26 43.268 0.08 6.88 5.21 12.4
3/20/2021 6:45:00 PM 6.18 43.124 0.08 6.8 4.9 12.36
3/20/2021 7:00:00 PM 6.09 42.962 0.08 6.78 4.62 12.35
3/20/2021 7:15:00 PM 6 42.8 0.08 6.8 5.43 12.33
3/20/2021 7:30:00 PM 5.91 42.638 0.08 6.76 4.55 12.31
3/20/2021 7:45:00 PM 5.81 42.458 0.08 6.65 4.54 12.3
3/20/2021 8:00:00 PM 5.71 42.278 0.08 6.74 4.81 12.31
3/20/2021 8:15:00 PM 5.61 42.098 0.08 6.76 4.35 12.31
3/20/2021 8:30:00 PM 5.5 41.9 0.081 6.66 4.53 12.33
3/20/2021 8:45:00 PM 5.39 41.702 0.081 6.71 4.4 12.36
3/20/2021 9:00:00 PM 5.28 41.504 0.081 6.55 4.67 12.39
3/20/2021 9:15:00 PM 5.17 41.306 0.081 6.66 4.65 12.42
3/20/2021 9:30:00 PM 5.05 41.09 0.081 6.61 4.63 12.45
3/20/2021 9:45:00 PM 4.94 40.892 0.081 6.61 4.63 12.49
3/20/2021 10:00:00 PM 4.83 40.694 0.081 6.68 4.56 12.52
3/20/2021 10:15:00 PM 4.71 40.478 0.081 6.6 4.76 12.56
3/20/2021 10:30:00 PM 4.6 40.28 0.081 6.65 4.87 12.6
3/20/2021 10:45:00 PM 4.5 40.1 0.081 6.61 4.79 12.63
3/20/2021 11:00:00 PM 4.39 39.902 0.081 6.6 4.75 12.66
3/20/2021 11:15:00 PM 4.3 39.74 0.082 6.62 4.5 12.7
3/20/2021 11:30:00 PM 4.2 39.56 0.081 6.64 4.36 12.74
3/20/2021 11:45:00 PM 4.11 39.398 0.081 6.64 4.59 12.76
3/21/2021 12:00:00 AM 4.02 39.236 0.082 6.58 4.69 12.8
3/21/2021 12:15:00 AM 3.94 39.092 0.082 6.66 4.56 12.83
3/21/2021 12:30:00 AM 3.85 38.93 0.081 6.57 4.35 12.86
3/21/2021 12:45:00 AM 3.77 38.786 0.082 6.58 5.8 12.89
3/21/2021 1:00:00 AM 3.69 38.642 0.082 6.63 4.63 12.92
3/21/2021 1:15:00 AM 3.62 38.516 0.082 6.7 4.82 12.94
3/21/2021 1:30:00 AM 3.54 38.372 0.082 6.66 4.87 12.97
3/21/2021 1:45:00 AM 3.47 38.246 0.082 6.58 4.86 13
3/21/2021 2:00:00 AM 3.41 38.138 0.082 6.65 4.62 13.02
3/21/2021 2:15:00 AM 3.34 38.012 0.082 6.66 4.71 13.05
3/21/2021 2:30:00 AM 3.27 37.886 0.082 6.59 4.53 13.07
3/21/2021 2:45:00 AM 3.21 37.778 0.082 6.61 4.57 13.09
3/21/2021 3:00:00 AM 3.14 37.652 0.081 6.68 4.52 13.11
3/21/2021 3:15:00 AM 3.08 37.544 0.081 6.67 4.55 13.13
3/21/2021 3:30:00 AM 3.02 37.436 0.081 6.68 4.52 13.16
3/21/2021 3:45:00 AM 2.96 37.328 0.082 6.61 4.54 13.18
3/21/2021 4:00:00 AM 2.9 37.22 0.082 6.67 4.62 13.21
3/21/2021 4:15:00 AM 2.84 37.112 0.082 6.65 4.77 13.22
3/21/2021 4:30:00 AM 2.79 37.022 0.082 6.55 5.04 13.25
3/21/2021 4:45:00 AM 2.73 36.914 0.082 6.66 4.5 13.27
3/21/2021 5:00:00 AM 2.68 36.824 0.081 6.67 4.67 13.3
3/21/2021 5:15:00 AM 2.62 36.716 0.081 6.68 4.61 13.31
3/21/2021 5:30:00 AM 2.57 36.626 0.081 6.58 4.52 13.33
3/21/2021 5:45:00 AM 2.52 36.536 0.082 6.59 5.02 13.35
3/21/2021 6:00:00 AM 2.46 36.428 0.082 6.63 4.58 13.38
3/21/2021 6:15:00 AM 2.42 36.356 0.081 6.65 4.59 13.4
3/21/2021 6:30:00 AM 2.37 36.266 0.081 6.65 4.9 13.42
3/21/2021 6:45:00 AM 2.32 36.176 0.081 6.71 5.36 13.44
3/21/2021 7:00:00 AM 2.28 36.104 0.081 6.56 4.74 13.46
3/21/2021 7:15:00 AM 2.23 36.014 0.082 6.6 4.77 13.48
3/21/2021 7:30:00 AM 2.19 35.942 0.081 6.65 4.45 13.51
3/21/2021 7:45:00 AM 2.15 35.87 0.081 6.69 4.76 13.56
3/21/2021 8:00:00 AM 2.12 35.816 0.081 6.68 4.57 13.61
3/21/2021 8:15:00 AM 2.09 35.762 0.081 6.63 4.79 13.66
3/21/2021 8:30:00 AM 2.07 35.726 0.081 6.67 4.52 13.71
3/21/2021 8:45:00 AM 2.07 35.726 0.081 6.76 4.7 13.77
3/21/2021 9:00:00 AM 2.09 35.762 0.081 6.76 4.44 13.8
3/21/2021 9:15:00 AM 2.11 35.798 0.081 6.74 4.01 13.83
3/21/2021 9:30:00 AM 2.15 35.87 0.081 6.81 4.26 13.85
3/21/2021 9:45:00 AM 2.2 35.96 0.08 6.74 4.21 13.87
3/21/2021 10:00:00 AM 2.29 36.122 0.081 6.78 4.04 13.87
3/21/2021 10:15:00 AM 2.4 36.32 0.08 6.89 4.21 13.87
3/21/2021 10:30:00 AM 2.56 36.608 0.08 6.82 4.04 13.85
3/21/2021 10:45:00 AM 2.74 36.932 0.08 6.89 4.13 13.82
3/21/2021 11:00:00 AM 2.94 37.292 0.08 6.91 4.09 13.78
3/21/2021 11:15:00 AM 3.15 37.67 0.08 6.91 3.9 13.72
3/21/2021 11:30:00 AM 3.38 38.084 0.08 6.82 4.12 13.67
3/21/2021 11:45:00 AM 3.62 38.516 0.079 6.93 3.76 13.6
3/21/2021 12:00:00 PM 3.87 38.966 0.079 6.87 3.91 13.53
3/21/2021 12:15:00 PM 4.13 39.434 0.079 6.89 3.84 13.45
3/21/2021 12:30:00 PM 4.39 39.902 0.079 7.01 4.02 13.37
3/21/2021 12:45:00 PM 4.65 40.37 0.079 7.04 4.04 13.3
3/21/2021 1:00:00 PM 4.91 40.838 0.079 6.9 4.09 13.22
3/21/2021 1:15:00 PM 5.16 41.288 0.079 6.93 4.56 13.14
3/21/2021 1:30:00 PM 5.42 41.756 0.079 6.99 4.22 13.06
3/21/2021 1:45:00 PM 5.67 42.206 0.078 7.02 3.99 12.97
3/21/2021 2:00:00 PM 5.9 42.62 0.078 7.03 3.88 12.9
3/21/2021 2:15:00 PM 6.13 43.034 0.079 7.05 4.09 12.83
3/21/2021 2:30:00 PM 6.35 43.43 0.079 6.97 4.05 12.75
3/21/2021 2:45:00 PM 6.56 43.808 0.078 7 4.01 12.68
3/21/2021 3:00:00 PM 6.75 44.15 0.078 6.95 4.28 12.61
3/21/2021 3:15:00 PM 6.93 44.474 0.078 7.08 4.01 12.55
3/21/2021 3:30:00 PM 7.09 44.762 0.078 7.04 4.39 12.5
3/21/2021 3:45:00 PM 7.23 45.014 0.078 7.1 4.1 12.44
3/21/2021 4:00:00 PM 7.34 45.212 0.078 7.08 4.04 12.4
3/21/2021 4:15:00 PM 7.43 45.374 0.078 6.98 4.41 12.36
3/21/2021 4:30:00 PM 7.5 45.5 0.078 7.02 4.7 12.32
3/21/2021 4:45:00 PM 7.54 45.572 0.078 7.02 4.09 12.29
3/21/2021 5:00:00 PM 7.55 45.59 0.078 7.03 3.98 12.26
3/21/2021 5:15:00 PM 7.53 45.554 0.078 7.03 4.13 12.24
3/21/2021 5:30:00 PM 7.48 45.464 0.078 7.04 4.05 12.21
3/21/2021 5:45:00 PM 7.41 45.338 0.078 6.98 4.02 12.19
3/21/2021 6:00:00 PM 7.34 45.212 0.078 6.96 3.93 12.17
3/21/2021 6:15:00 PM 7.25 45.05 0.078 6.89 3.94 12.15
3/21/2021 6:30:00 PM 7.16 44.888 0.079 6.94 3.98 12.12
3/21/2021 6:45:00 PM 7.06 44.708 0.079 6.9 4.13 12.09
3/21/2021 7:00:00 PM 6.96 44.528 0.079 6.87 4.24 12.07
3/21/2021 7:15:00 PM 6.86 44.348 0.079 6.86 4.13 12.04
3/21/2021 7:30:00 PM 6.76 44.168 0.079 6.82 3.98 12.02
3/21/2021 7:45:00 PM 6.65 43.97 0.079 6.83 4.27 12.01
3/21/2021 8:00:00 PM 6.54 43.772 0.079 6.75 4.21 12
3/21/2021 8:15:00 PM 6.44 43.592 0.079 6.76 4.25 12.01
3/21/2021 8:30:00 PM 6.33 43.394 0.08 6.72 4.28 12.03
3/21/2021 8:45:00 PM 6.21 43.178 0.08 6.68 4.13 12.05
3/21/2021 9:00:00 PM 6.1 42.98 0.08 6.58 4.41 12.07
3/21/2021 9:15:00 PM 5.98 42.764 0.08 6.59 4.34 12.1
3/21/2021 9:30:00 PM 5.86 42.548 0.08 6.36 4.21 12.13
3/21/2021 9:45:00 PM 5.75 42.35 0.08 6.71 4.58 12.17
3/21/2021 10:00:00 PM 5.63 42.134 0.08 6.63 4.61 12.2
3/21/2021 10:15:00 PM 5.51 41.918 0.08 6.66 4.35 12.24
3/21/2021 10:30:00 PM 5.39 41.702 0.08 6.59 4.32 12.28
3/21/2021 10:45:00 PM 5.27 41.486 0.08 6.71 4.42 12.32
3/21/2021 11:00:00 PM 5.15 41.27 0.08 6.7 4.3 12.36
3/21/2021 11:15:00 PM 5.04 41.072 0.081 6.68 4.24 12.39
3/21/2021 11:30:00 PM 4.93 40.874 0.08 6.68 4.01 12.43
3/21/2021 11:45:00 PM 4.83 40.694 0.08 6.65 4.03 12.47
3/22/2021 12:00:00 AM 4.73 40.514 0.081 6.65 4.03 12.5
3/22/2021 12:15:00 AM 4.63 40.334 0.081 6.69 4.08 12.53
3/22/2021 12:30:00 AM 4.54 40.172 0.081 6.57 3.95 12.56
3/22/2021 12:45:00 AM 4.45 40.01 0.081 6.73 4.05 12.6
3/22/2021 1:00:00 AM 4.36 39.848 0.081 6.62 4.29 12.63
3/22/2021 1:15:00 AM 4.27 39.686 0.081 6.55 4.02 12.66
3/22/2021 1:30:00 AM 4.19 39.542 0.081 6.61 4.36 12.69
3/22/2021 1:45:00 AM 4.11 39.398 0.081 6.73 4.01 12.72
3/22/2021 2:00:00 AM 4.03 39.254 0.081 6.71 4.05 12.74
3/22/2021 2:15:00 AM 3.95 39.11 0.081 6.77 3.97 12.76
3/22/2021 2:30:00 AM 3.88 38.984 0.081 6.76 4.08 12.79
3/22/2021 2:45:00 AM 3.8 38.84 0.081 6.71 3.99 12.82
3/22/2021 3:00:00 AM 3.73 38.714 0.081 6.74 4.08 12.85
3/22/2021 3:15:00 AM 3.66 38.588 0.081 6.65 4.46 12.87
3/22/2021 3:30:00 AM 3.59 38.462 0.081 6.69 4.05 12.89
3/22/2021 3:45:00 AM 3.53 38.354 0.081 6.64 4.27 12.91
3/22/2021 4:00:00 AM 3.46 38.228 0.081 6.53 4.1 12.94
3/22/2021 4:15:00 AM 3.4 38.12 0.081 6.71 4.01 12.96
3/22/2021 4:30:00 AM 3.33 37.994 0.081 6.73 4.16 12.98
3/22/2021 4:45:00 AM 3.27 37.886 0.081 6.75 4.3 13.01
3/22/2021 5:00:00 AM 3.21 37.778 0.081 6.74 4.11 13.04
3/22/2021 5:15:00 AM 3.16 37.688 0.081 6.73 4.2 13.06
3/22/2021 5:30:00 AM 3.1 37.58 0.08 6.73 4.16 13.08
3/22/2021 5:45:00 AM 3.04 37.472 0.081 6.77 4.15 13.09
3/22/2021 6:00:00 AM 2.99 37.382 0.081 6.63 3.99 13.11
3/22/2021 6:15:00 AM 2.93 37.274 0.081 6.7 4 13.14
3/22/2021 6:30:00 AM 2.88 37.184 0.081 6.69 4.09 13.15
3/22/2021 6:45:00 AM 2.83 37.094 0.081 6.72 4.1 13.17
3/22/2021 7:00:00 AM 2.77 36.986 0.081 6.75 4.21 13.2
3/22/2021 7:15:00 AM 2.72 36.896 0.081 6.79 4.1 13.23
3/22/2021 7:30:00 AM 2.68 36.824 0.081 6.8 4.28 13.27
3/22/2021 7:45:00 AM 2.64 36.752 0.081 6.74 4.41 13.32
3/22/2021 8:00:00 AM 2.61 36.698 0.08 6.75 4.11 13.39
3/22/2021 8:15:00 AM 2.57 36.626 0.081 6.79 4.49 13.44
3/22/2021 8:30:00 AM 2.55 36.59 0.08 6.62 4.03 13.5
3/22/2021 8:45:00 AM 2.55 36.59 0.08 6.8 4.14 13.55
3/22/2021 9:00:00 AM 2.57 36.626 0.081 6.84 4.15 13.59
3/22/2021 9:15:00 AM 2.6 36.68 0.08 6.85 4.04 13.62
3/22/2021 9:30:00 AM 2.64 36.752 0.08 6.74 4.01 13.64
3/22/2021 9:45:00 AM 2.69 36.842 0.08 6.68 3.85 13.66
3/22/2021 10:00:00 AM 2.78 37.004 0.08 6.94 4.06 13.67
3/22/2021 10:15:00 AM 2.89 37.202 0.08 6.93 4.07 13.67
3/22/2021 10:30:00 AM 3.05 37.49 0.079 6.95 4.28 13.65
3/22/2021 10:45:00 AM 3.24 37.832 0.08 7 3.79 13.61
3/22/2021 11:00:00 AM 3.44 38.192 0.079 6.92 3.8 13.58
3/22/2021 11:15:00 AM 3.66 38.588 0.079 7.01 4.2 13.53
3/22/2021 11:30:00 AM 3.89 39.002 0.079 7.03 3.83 13.47
3/22/2021 11:45:00 AM 4.13 39.434 0.079 7.05 3.69 13.4
3/22/2021 12:00:00 PM 4.38 39.884 0.079 7.06 3.83 13.34
3/22/2021 12:15:00 PM 4.65 40.37 0.079 7.06 3.89 13.26
3/22/2021 12:30:00 PM 4.91 40.838 0.079 7.08 3.66 13.18
3/22/2021 12:45:00 PM 5.18 41.324 0.079 7.1 3.69 13.1
3/22/2021 1:00:00 PM 5.45 41.81 0.078 7.11 3.74 13.02
3/22/2021 1:15:00 PM 5.71 42.278 0.078 7.1 3.91 12.94
3/22/2021 1:30:00 PM 5.97 42.746 0.078 7.12 3.79 12.86
3/22/2021 1:45:00 PM 6.22 43.196 0.078 7.14 3.75 12.78
3/22/2021 2:00:00 PM 6.46 43.628 0.078 7.06 3.96 12.71
3/22/2021 2:15:00 PM 6.69 44.042 0.078 7.05 3.52 12.64
3/22/2021 2:30:00 PM 6.91 44.438 0.078 7.17 3.74 12.57
3/22/2021 2:45:00 PM 7.11 44.798 0.078 7.18 3.9 12.5
3/22/2021 3:00:00 PM 7.31 45.158 0.078 7.24 3.81 12.43
3/22/2021 3:15:00 PM 7.49 45.482 0.078 7.2 3.85 12.38
3/22/2021 3:30:00 PM 7.64 45.752 0.078 7.21 4.02 12.32
3/22/2021 3:45:00 PM 7.78 46.004 0.078 7.21 3.83 12.27
3/22/2021 4:00:00 PM 7.89 46.202 0.077 7.28 3.77 12.23
3/22/2021 4:15:00 PM 7.98 46.364 0.078 7.23 4 12.19
3/22/2021 4:30:00 PM 8.05 46.49 0.078 7.26 3.66 12.15
3/22/2021 4:45:00 PM 8.08 46.544 0.078 7.23 3.71 12.13
3/22/2021 5:00:00 PM 8.08 46.544 0.078 7.2 3.72 12.09
3/22/2021 5:15:00 PM 8.06 46.508 0.078 7.18 3.97 12.07
3/22/2021 5:30:00 PM 8.01 46.418 0.078 7.17 3.88 12.04
3/22/2021 5:45:00 PM 7.94 46.292 0.078 7.14 3.73 12.02
3/22/2021 6:00:00 PM 7.86 46.148 0.078 7.05 3.83 12
3/22/2021 6:15:00 PM 7.78 46.004 0.078 7.08 4.09 11.98
3/22/2021 6:30:00 PM 7.69 45.842 0.078 7.04 4.43 11.95
3/22/2021 6:45:00 PM 7.59 45.662 0.078 7.02 3.95 11.91
3/22/2021 7:00:00 PM 7.49 45.482 0.078 6.98 4.31 11.88
3/22/2021 7:15:00 PM 7.4 45.32 0.078 6.94 3.88 11.85
3/22/2021 7:30:00 PM 7.31 45.158 0.078 6.89 3.84 11.81
3/22/2021 7:45:00 PM 7.21 44.978 0.078 6.86 4.39 11.78
3/22/2021 8:00:00 PM 7.1 44.78 0.079 6.83 4.32 11.77
3/22/2021 8:15:00 PM 7 44.6 0.078 6.82 4.16 11.78
3/22/2021 8:30:00 PM 6.89 44.402 0.079 6.82 4.99 11.78
3/22/2021 8:45:00 PM 6.78 44.204 0.079 6.78 4.42 11.8
3/22/2021 9:00:00 PM 6.67 44.006 0.079 6.76 4.39 11.82
3/22/2021 9:15:00 PM 6.56 43.808 0.079 6.76 4.07 11.84
3/22/2021 9:30:00 PM 6.45 43.61 0.079 6.78 4.46 11.88
3/22/2021 9:45:00 PM 6.33 43.394 0.079 6.74 4.2 11.91
3/22/2021 10:00:00 PM 6.22 43.196 0.079 6.73 4.14 11.94
3/22/2021 10:15:00 PM 6.1 42.98 0.079 6.71 4.07 11.98
3/22/2021 10:30:00 PM 5.99 42.782 0.079 6.75 4.17 12.01
3/22/2021 10:45:00 PM 5.87 42.566 0.079 6.75 4.23 12.04
3/22/2021 11:00:00 PM 5.75 42.35 0.079 6.78 4.13 12.08
3/22/2021 11:15:00 PM 5.64 42.152 0.08 6.77 4.07 12.13
3/22/2021 11:30:00 PM 5.53 41.954 0.08 6.76 4.23 12.16
3/22/2021 11:45:00 PM 5.42 41.756 0.08 6.76 3.97 12.2
3/23/2021 12:00:00 AM 5.31 41.558 0.08 6.76 3.95 12.24
3/23/2021 12:15:00 AM 5.2 41.36 0.08 6.55 4.14 12.27
3/23/2021 12:30:00 AM 5.1 41.18 0.08 6.78 3.96 12.3
3/23/2021 12:45:00 AM 5 41 0.08 6.73 3.91 12.33
3/23/2021 1:00:00 AM 4.9 40.82 0.08 6.76 3.97 12.37
3/23/2021 1:15:00 AM 4.81 40.658 0.08 6.78 4.14 12.4
3/23/2021 1:30:00 AM 4.72 40.496 0.08 6.75 4.24 12.43
3/23/2021 1:45:00 AM 4.63 40.334 0.08 6.78 4.09 12.46
3/23/2021 2:00:00 AM 4.55 40.19 0.081 6.76 4.03 12.49
3/23/2021 2:15:00 AM 4.47 40.046 0.08 6.62 3.96 12.52
3/23/2021 2:30:00 AM 4.38 39.884 0.081 6.73 4.22 12.55
3/23/2021 2:45:00 AM 4.31 39.758 0.081 6.76 4.28 12.58
3/23/2021 3:00:00 AM 4.23 39.614 0.08 6.72 3.94 12.6
3/23/2021 3:15:00 AM 4.16 39.488 0.081 6.79 3.84 12.63
3/23/2021 3:30:00 AM 4.08 39.344 0.08 6.81 3.97 12.66
3/23/2021 3:45:00 AM 4.01 39.218 0.08 6.78 3.95 12.69
3/23/2021 4:00:00 AM 3.94 39.092 0.08 6.81 3.9 12.71
3/23/2021 4:15:00 AM 3.87 38.966 0.08 6.82 4.3 12.73
3/23/2021 4:30:00 AM 3.81 38.858 0.08 6.69 4.13 12.76
3/23/2021 4:45:00 AM 3.74 38.732 0.08 6.78 3.97 12.78
3/23/2021 5:00:00 AM 3.68 38.624 0.08 6.81 4.1 12.8
3/23/2021 5:15:00 AM 3.61 38.498 0.08 6.8 3.99 12.82
3/23/2021 5:30:00 AM 3.55 38.39 0.08 6.78 4.26 12.85
3/23/2021 5:45:00 AM 3.49 38.282 0.08 6.78 4.05 12.87
3/23/2021 6:00:00 AM 3.44 38.192 0.08 6.78 4.68 12.89
3/23/2021 6:15:00 AM 3.38 38.084 0.079 6.8 3.95 12.91
3/23/2021 6:30:00 AM 3.32 37.976 0.08 6.84 4.13 12.94
3/23/2021 6:45:00 AM 3.27 37.886 0.08 6.83 4.29 12.96
3/23/2021 7:00:00 AM 3.21 37.778 0.08 6.84 4.14 12.97
3/23/2021 7:15:00 AM 3.16 37.688 0.08 6.84 4.03 13
3/23/2021 7:30:00 AM 3.12 37.616 0.08 6.85 4.16 13.06
3/23/2021 7:45:00 AM 3.08 37.544 0.08 6.84 4.14 13.12
3/23/2021 8:00:00 AM 3.04 37.472 0.079 6.8 4.3 13.19
3/23/2021 8:15:00 AM 3.01 37.418 0.079 6.88 4.05 13.24
3/23/2021 8:30:00 AM 3 37.4 0.08 6.73 4.32 13.3
3/23/2021 8:45:00 AM 3.01 37.418 0.079 6.82 3.94 13.38
3/23/2021 9:00:00 AM 3.03 37.454 0.079 6.81 4.11 13.42
3/23/2021 9:15:00 AM 3.07 37.526 0.079 6.88 3.85 13.44
3/23/2021 9:30:00 AM 3.1 37.58 0.079 6.75 4.33 13.48
3/23/2021 9:45:00 AM 3.16 37.688 0.078 6.95 3.88 13.5
3/23/2021 10:00:00 AM 3.25 37.85 0.079 6.98 3.74 13.5
3/23/2021 10:15:00 AM 3.37 38.066 0.078 7.02 4.05 13.5
3/23/2021 10:30:00 AM 3.53 38.354 0.078 7.01 3.95 13.49
3/23/2021 10:45:00 AM 3.71 38.678 0.078 7.07 4.08 13.46
3/23/2021 11:00:00 AM 3.92 39.056 0.078 7.08 3.77 13.42
3/23/2021 11:15:00 AM 4.15 39.47 0.078 6.91 3.87 13.37
3/23/2021 11:30:00 AM 4.37 39.866 0.077 7.08 3.73 13.32
3/23/2021 11:45:00 AM 4.61 40.298 0.077 7.17 3.63 13.26
3/23/2021 12:00:00 PM 4.85 40.73 0.078 7.18 3.73 13.2
3/23/2021 12:15:00 PM 5.11 41.198 0.078 7 3.61 13.14
3/23/2021 12:30:00 PM 5.35 41.63 0.077 7.17 3.78 13.06
3/23/2021 12:45:00 PM 5.59 42.062 0.077 7.2 3.63 13
3/23/2021 1:00:00 PM 5.81 42.458 0.077 7.21 3.64 12.93
3/23/2021 1:15:00 PM 6.04 42.872 0.077 7.25 3.71 12.87
3/23/2021 1:30:00 PM 6.28 43.304 0.077 7.27 3.64 12.8
3/23/2021 1:45:00 PM 6.52 43.736 0.077 7.27 3.77 12.72
3/23/2021 2:00:00 PM 6.71 44.078 0.076 7.06 3.58 12.65
3/23/2021 2:15:00 PM 6.88 44.384 0.076 7.3 3.59 12.59
3/23/2021 2:30:00 PM 7.01 44.618 0.076 7.29 3.65 12.54
3/23/2021 2:45:00 PM 7.1 44.78 0.076 7.32 3.55 12.49
3/23/2021 3:00:00 PM 7.26 45.068 0.076 7.33 3.68 12.46
3/23/2021 3:15:00 PM 7.37 45.266 0.076 7.33 3.82 12.41
3/23/2021 3:30:00 PM 7.44 45.392 0.076 7.26 3.61 12.37
3/23/2021 3:45:00 PM 7.49 45.482 0.076 7.33 3.79 12.34
3/23/2021 4:00:00 PM 7.53 45.554 0.076 7.33 3.83 12.3
3/23/2021 4:15:00 PM 7.58 45.644 0.076 7.27 3.79 12.27
3/23/2021 4:30:00 PM 7.63 45.734 0.076 7.3 3.89 12.26
3/23/2021 4:45:00 PM 7.66 45.788 0.076 7.3 3.82 12.22
3/23/2021 5:00:00 PM 7.65 45.77 0.076 7.3 4.07 12.19
3/23/2021 5:15:00 PM 7.65 45.77 0.076 7.27 4.13 12.16
3/23/2021 5:30:00 PM 7.64 45.752 0.076 7.23 3.84 12.15
3/23/2021 5:45:00 PM 7.63 45.734 0.076 7.23 3.83 12.14
3/23/2021 6:00:00 PM 7.61 45.698 0.076 7.23 3.9 12.1
3/23/2021 6:15:00 PM 7.57 45.626 0.076 7.21 3.93 12.07
3/23/2021 6:30:00 PM 7.54 45.572 0.076 7.15 3.92 12.05
3/23/2021 6:45:00 PM 7.5 45.5 0.076 7.14 4.02 12.01
3/23/2021 7:00:00 PM 7.46 45.428 0.076 7.1 3.72 11.95
3/23/2021 7:15:00 PM 7.4 45.32 0.076 7.06 3.9 11.89
3/23/2021 7:30:00 PM 7.34 45.212 0.076 6.98 4.18 11.83
3/23/2021 7:45:00 PM 7.27 45.086 0.076 6.99 3.97 11.78
3/23/2021 8:00:00 PM 7.2 44.96 0.077 6.98 3.93 11.75
3/23/2021 8:15:00 PM 7.13 44.834 0.077 6.93 4 11.74
3/23/2021 8:30:00 PM 7.05 44.69 0.077 6.91 3.99 11.73
3/23/2021 8:45:00 PM 6.97 44.546 0.077 6.83 3.87 11.73
3/23/2021 9:00:00 PM 6.91 44.438 0.077 6.84 4.15 11.73
3/23/2021 9:15:00 PM 6.84 44.312 0.077 6.84 4.03 11.75
3/23/2021 9:30:00 PM 6.77 44.186 0.077 6.78 3.89 11.76
3/23/2021 9:45:00 PM 6.7 44.06 0.077 6.83 3.85 11.77
3/23/2021 10:00:00 PM 6.63 43.934 0.077 6.8 3.95 11.79
3/23/2021 10:15:00 PM 6.55 43.79 0.077 6.81 4.25 11.81
3/23/2021 10:30:00 PM 6.47 43.646 0.077 6.76 4.07 11.83
3/23/2021 10:45:00 PM 6.39 43.502 0.077 6.75 4.2 11.85
3/23/2021 11:00:00 PM 6.32 43.376 0.077 6.81 3.98 11.87
3/23/2021 11:15:00 PM 6.24 43.232 0.077 6.74 3.96 11.9
3/23/2021 11:30:00 PM 6.16 43.088 0.077 6.78 4.01 11.92
3/23/2021 11:45:00 PM 6.09 42.962 0.077 6.81 4.25 11.94
3/24/2021 12:00:00 AM 6.02 42.836 0.078 6.76 4.14 11.96
3/24/2021 12:15:00 AM 5.95 42.71 0.077 6.74 4.02 11.98
3/24/2021 12:30:00 AM 5.88 42.584 0.078 6.72 4.22 12.01
3/24/2021 12:45:00 AM 5.83 42.494 0.078 6.72 4.07 12.02
3/24/2021 1:00:00 AM 5.78 42.404 0.078 6.73 3.88 12.05
3/24/2021 1:15:00 AM 5.74 42.332 0.078 6.75 3.95 12.05
3/24/2021 1:30:00 AM 5.72 42.296 0.078 6.76 3.8 12.08
3/24/2021 1:45:00 AM 5.69 42.242 0.078 6.82 3.98 12.09
3/24/2021 2:00:00 AM 5.66 42.188 0.078 6.81 3.84 12.1
3/24/2021 2:15:00 AM 5.63 42.134 0.078 6.85 3.95 12.11
3/24/2021 2:30:00 AM 5.6 42.08 0.078 6.75 3.97 12.12
3/24/2021 2:45:00 AM 5.58 42.044 0.078 6.78 3.89 12.13
3/24/2021 3:00:00 AM 5.56 42.008 0.078 6.79 4.01 12.13
3/24/2021 3:15:00 AM 5.54 41.972 0.078 6.76 3.84 12.14
3/24/2021 3:30:00 AM 5.52 41.936 0.078 6.83 3.86 12.15
3/24/2021 3:45:00 AM 5.5 41.9 0.077 6.81 3.92 12.16
3/24/2021 4:00:00 AM 5.49 41.882 0.077 6.77 4 12.16
3/24/2021 4:15:00 AM 5.49 41.882 0.078 6.84 3.78 12.15
3/24/2021 4:30:00 AM 5.49 41.882 0.077 6.8 3.95 12.15
3/24/2021 4:45:00 AM 5.49 41.882 0.077 6.8 3.85 12.15
3/24/2021 5:00:00 AM 5.49 41.882 0.077 6.82 3.85 12.15
3/24/2021 5:15:00 AM 5.51 41.918 0.077 6.81 3.71 12.15
3/24/2021 5:30:00 AM 5.52 41.936 0.077 6.81 4.02 12.15
3/24/2021 5:45:00 AM 5.52 41.936 0.077 6.85 3.59 12.15
3/24/2021 6:00:00 AM 5.53 41.954 0.077 6.73 3.66 12.14
3/24/2021 6:15:00 AM 5.54 41.972 0.077 6.88 3.76 12.14
3/24/2021 6:30:00 AM 5.55 41.99 0.077 6.83 3.71 12.13
3/24/2021 6:45:00 AM 5.56 42.008 0.077 6.86 4.02 12.12
3/24/2021 7:00:00 AM 5.57 42.026 0.077 6.85 3.82 12.13
3/24/2021 7:15:00 AM 5.58 42.044 0.076 6.83 3.92 12.13
3/24/2021 7:30:00 AM 5.59 42.062 0.076 6.86 4.19 12.12
3/24/2021 7:45:00 AM 5.6 42.08 0.076 6.82 3.86 12.15
3/24/2021 8:00:00 AM 5.6 42.08 0.076 6.88 3.93 12.17
3/24/2021 8:15:00 AM 5.61 42.098 0.076 6.84 3.91 12.18
3/24/2021 8:30:00 AM 5.63 42.134 0.076 6.87 3.77 12.2
3/24/2021 8:45:00 AM 5.64 42.152 0.074 7.4 2.36 12.22
3/24/2021 9:00:00 AM 5.66 42.188 0.074 7.38 2.37 12.24
3/24/2021 9:15:00 AM 5.68 42.224 0.074 7.38 2.17 12.26
3/24/2021 9:30:00 AM 5.7 42.26 0.074 7.38 2.24 12.27
3/24/2021 9:45:00 AM 5.73 42.314 0.073 7.38 2.27 12.3
3/24/2021 10:00:00 AM 5.75 42.35 0.073 7.39 3.02 12.33
3/24/2021 10:15:00 AM 5.77 42.386 0.073 7.4 3.44 12.35
3/24/2021 10:30:00 AM 5.8 42.44 0.072 7.41 4.74 12.4
3/24/2021 10:45:00 AM 5.84 42.512 0.072 7.43 3.51 12.43
3/24/2021 11:00:00 AM 5.91 42.638 0.072 7.46 4.05 12.48
3/24/2021 11:15:00 AM 5.97 42.746 0.072 7.47 4.16 12.49
3/24/2021 11:30:00 AM 6.03 42.854 0.072 7.49 4.46 12.5
3/24/2021 11:45:00 AM 6.1 42.98 0.072 7.5 4.11 12.51
3/24/2021 12:00:00 PM 6.13 43.034 0.072 7.51 4.78 12.5
3/24/2021 12:15:00 PM 6.17 43.106 0.072 7.53 5.6 12.5
3/24/2021 12:30:00 PM 6.2 43.16 0.072 7.53 5.97 12.5
3/24/2021 12:45:00 PM 6.24 43.232 0.072 7.54 5.9 12.5
3/24/2021 1:00:00 PM 6.29 43.322 0.072 7.54 7.15 12.49
3/24/2021 1:15:00 PM 6.33 43.394 0.072 7.55 7.35 12.47
3/24/2021 1:30:00 PM 6.37 43.466 0.073 7.55 8.1 12.46
3/24/2021 1:45:00 PM 6.42 43.556 0.073 7.56 8.47 12.45
3/24/2021 2:00:00 PM 6.46 43.628 0.074 7.56 6.43 12.42
3/24/2021 2:15:00 PM 6.5 43.7 0.075 7.56 8.12 12.4
3/24/2021 2:30:00 PM 6.52 43.736 0.076 7.56 7.92 12.37
3/24/2021 2:45:00 PM 6.55 43.79 0.077 7.56 7.98 12.35
3/24/2021 3:00:00 PM 6.58 43.844 0.077 7.56 8.48 12.34
3/24/2021 3:15:00 PM 6.63 43.934 0.078 7.57 7.27 12.34
3/24/2021 3:30:00 PM 6.65 43.97 0.079 7.57 9.05 12.32
3/24/2021 3:45:00 PM 6.67 44.006 0.08 7.57 7.79 12.29
3/24/2021 4:00:00 PM 6.7 44.06 0.08 7.57 8.51 12.26
3/24/2021 4:15:00 PM 6.73 44.114 0.081 7.56 8.66 12.24
3/24/2021 4:30:00 PM 6.76 44.168 0.081 7.57 8.05 12.23
3/24/2021 4:45:00 PM 6.78 44.204 0.082 7.55 8.16 12.18
3/24/2021 5:00:00 PM 6.78 44.204 0.082 7.54 8.15 12.13
3/24/2021 5:15:00 PM 6.79 44.222 0.083 7.53 8.79 12.1
3/24/2021 5:30:00 PM 6.82 44.276 0.083 7.52 7.99 12.07
3/24/2021 5:45:00 PM 6.84 44.312 0.084 7.52 8.42 12.05
3/24/2021 6:00:00 PM 6.87 44.366 0.085 7.51 8.14 12.03
3/24/2021 6:15:00 PM 6.89 44.402 0.086 7.51 7.55 12.01
3/24/2021 6:30:00 PM 6.92 44.456 0.086 7.51 8.01 11.99
3/24/2021 6:45:00 PM 6.93 44.474 0.086 7.5 7.9 11.97
3/24/2021 7:00:00 PM 6.94 44.492 0.087 7.5 7.92 11.94
3/24/2021 7:15:00 PM 6.94 44.492 0.087 7.48 7.15 11.9
3/24/2021 7:30:00 PM 6.92 44.456 0.087 7.47 7.7 11.87
3/24/2021 7:45:00 PM 6.93 44.474 0.087 7.46 7.62 11.83
3/24/2021 8:00:00 PM 6.93 44.474 0.088 7.44 6.57 11.81
3/24/2021 8:15:00 PM 6.92 44.456 0.088 7.43 7.1 11.79
3/24/2021 8:30:00 PM 6.9 44.42 0.088 7.42 6.99 11.78
3/24/2021 8:45:00 PM 6.89 44.402 0.088 7.41 6.62 11.77
3/24/2021 9:00:00 PM 6.86 44.348 0.087 7.4 7.04 11.77
3/24/2021 9:15:00 PM 6.85 44.33 0.087 7.41 6.74 11.77
3/24/2021 9:30:00 PM 6.83 44.294 0.087 7.4 6.76 11.77
3/24/2021 9:45:00 PM 6.81 44.258 0.087 7.39 5.66 11.78
3/24/2021 10:00:00 PM 6.79 44.222 0.087 7.39 5.87 11.78
3/24/2021 10:15:00 PM 6.78 44.204 0.087 7.39 6.05 11.78
3/24/2021 10:30:00 PM 6.76 44.168 0.086 7.38 5.84 11.78
3/24/2021 10:45:00 PM 6.75 44.15 0.086 7.38 6.23 11.79
3/24/2021 11:00:00 PM 6.73 44.114 0.086 7.37 6.4 11.79
3/24/2021 11:15:00 PM 6.72 44.096 0.086 7.38 6.66 11.8
3/24/2021 11:30:00 PM 6.71 44.078 0.086 7.37 6.25 11.8
3/24/2021 11:45:00 PM 6.69 44.042 0.086 7.37 5.48 11.8
3/25/2021 12:00:00 AM 6.69 44.042 0.085 7.37 6.2 11.8
3/25/2021 12:15:00 AM 6.68 44.024 0.085 7.37 6.52 11.81
3/25/2021 12:30:00 AM 6.67 44.006 0.085 7.37 5.66 11.81
3/25/2021 12:45:00 AM 6.66 43.988 0.085 7.36 5.44 11.82
3/25/2021 1:00:00 AM 6.66 43.988 0.085 7.36 5.72 11.81
3/25/2021 1:15:00 AM 6.64 43.952 0.085 7.37 5.42 11.81
3/25/2021 1:30:00 AM 6.64 43.952 0.085 7.37 5.82 11.81
3/25/2021 1:45:00 AM 6.63 43.934 0.085 7.36 5.45 11.82
3/25/2021 2:00:00 AM 6.61 43.898 0.084 7.35 4.97 11.82
3/25/2021 2:15:00 AM 6.6 43.88 0.084 7.35 5.4 11.82
3/25/2021 2:30:00 AM 6.58 43.844 0.084 7.34 5.37 11.83
3/25/2021 2:45:00 AM 6.57 43.826 0.084 7.36 5.03 11.83
3/25/2021 3:00:00 AM 6.56 43.808 0.084 7.35 4.79 11.84
3/25/2021 3:15:00 AM 6.55 43.79 0.084 7.34 4.96 11.84
3/25/2021 3:30:00 AM 6.55 43.79 0.083 7.36 5.14 11.84
3/25/2021 3:45:00 AM 6.54 43.772 0.083 7.35 4.45 11.84
3/25/2021 4:00:00 AM 6.53 43.754 0.083 7.34 4.34 11.84
3/25/2021 4:15:00 AM 6.53 43.754 0.083 7.35 5.38 11.85
3/25/2021 4:30:00 AM 6.53 43.754 0.083 7.34 5.11 11.85
3/25/2021 4:45:00 AM 6.52 43.736 0.083 7.34 4.82 11.85
3/25/2021 5:00:00 AM 6.52 43.736 0.083 7.34 4.52 11.86
3/25/2021 5:15:00 AM 6.51 43.718 0.083 7.34 4.61 11.85
3/25/2021 5:30:00 AM 6.51 43.718 0.083 7.33 4.59 11.85
3/25/2021 5:45:00 AM 6.51 43.718 0.083 7.33 4.65 11.85
3/25/2021 6:00:00 AM 6.5 43.7 0.082 7.32 4.74 11.85
3/25/2021 6:15:00 AM 6.5 43.7 0.082 7.33 4.53 11.86
3/25/2021 6:30:00 AM 6.49 43.682 0.082 7.33 4.52 11.86
3/25/2021 6:45:00 AM 6.49 43.682 0.082 7.34 4.8 11.86
3/25/2021 7:00:00 AM 6.49 43.682 0.082 7.33 4.41 11.86
3/25/2021 7:15:00 AM 6.49 43.682 0.082 7.34 4.43 11.87
3/25/2021 7:30:00 AM 6.49 43.682 0.082 7.34 4.65 11.89
3/25/2021 7:45:00 AM 6.5 43.7 0.082 7.35 3.98 11.92
3/25/2021 8:00:00 AM 6.51 43.718 0.082 7.36 3.91 11.96
3/25/2021 8:15:00 AM 6.52 43.736 0.082 7.38 3.76 12
3/25/2021 8:30:00 AM 6.54 43.772 0.082 7.38 4.25 12.04
3/25/2021 8:45:00 AM 6.58 43.844 0.081 7.41 3.81 12.1
3/25/2021 9:00:00 AM 6.61 43.898 0.081 7.42 3.67 12.15
3/25/2021 9:15:00 AM 6.65 43.97 0.081 7.45 3.59 12.2
3/25/2021 9:30:00 AM 6.7 44.06 0.081 7.47 3.34 12.25
3/25/2021 9:45:00 AM 6.76 44.168 0.081 7.5 3.51 12.29
3/25/2021 10:00:00 AM 6.8 44.24 0.081 7.53 3.7 12.3
3/25/2021 10:15:00 AM 6.89 44.402 0.08 7.54 3.25 12.33
3/25/2021 10:30:00 AM 6.99 44.582 0.08 7.57 3.44 12.34
3/25/2021 10:45:00 AM 7.07 44.726 0.08 7.57 3.53 12.35
3/25/2021 11:00:00 AM 7.16 44.888 0.08 7.59 3.24 12.35
3/25/2021 11:15:00 AM 7.23 45.014 0.08 7.61 3.47 12.34
3/25/2021 11:30:00 AM 7.32 45.176 0.08 7.62 3.59 12.33
3/25/2021 11:45:00 AM 7.47 45.446 0.08 7.63 4.04 12.33
3/25/2021 12:00:00 PM 7.62 45.716 0.08 7.64 3.46 12.31
3/25/2021 12:15:00 PM 7.76 45.968 0.079 7.66 3.31 12.28
3/25/2021 12:30:00 PM 7.95 46.31 0.079 7.66 3.66 12.25
3/25/2021 12:45:00 PM 8.21 46.778 0.079 7.66 3.23 12.19
3/25/2021 1:00:00 PM 8.42 47.156 0.079 7.68 3.05 12.15
3/25/2021 1:15:00 PM 8.69 47.642 0.079 7.68 3.57 12.09
3/25/2021 1:30:00 PM 8.92 48.056 0.079 7.69 3.65 12.04
3/25/2021 1:45:00 PM 9.12 48.416 0.078 7.71 3.18 11.99
3/25/2021 2:00:00 PM 9.31 48.758 0.078 7.7 3 11.94
3/25/2021 2:15:00 PM 9.49 49.082 0.078 7.72 3.38 11.89
3/25/2021 2:30:00 PM 9.67 49.406 0.078 7.72 3.56 11.85
3/25/2021 2:45:00 PM 9.85 49.73 0.078 7.73 3.14 11.79
3/25/2021 3:00:00 PM 10.01 50.018 0.078 7.73 3.31 11.75
3/25/2021 3:15:00 PM 10.12 50.216 0.078 7.75 3.08 11.7
3/25/2021 3:30:00 PM 10.19 50.342 0.078 7.75 3.69 11.66
3/25/2021 3:45:00 PM 10.24 50.432 0.078 7.74 3.47 11.62
3/25/2021 4:00:00 PM 10.26 50.468 0.078 7.74 3.21 11.59
3/25/2021 4:15:00 PM 10.26 50.468 0.078 7.73 3.34 11.56
3/25/2021 4:30:00 PM 10.25 50.45 0.077 7.73 3.15 11.54
3/25/2021 4:45:00 PM 10.23 50.414 0.077 7.71 3.64 11.52
3/25/2021 5:00:00 PM 10.22 50.396 0.077 7.7 3.65 11.49
3/25/2021 5:15:00 PM 10.19 50.342 0.077 7.69 3.64 11.46
3/25/2021 5:30:00 PM 10.16 50.288 0.077 7.67 3.16 11.43
3/25/2021 5:45:00 PM 10.12 50.216 0.077 7.64 3.53 11.39
3/25/2021 6:00:00 PM 10.08 50.144 0.077 7.62 3.08 11.36
3/25/2021 6:15:00 PM 10.05 50.09 0.077 7.59 3.23 11.31
3/25/2021 6:30:00 PM 10 50 0.077 7.56 3.12 11.26
3/25/2021 6:45:00 PM 9.94 49.892 0.077 7.53 3.18 11.22
3/25/2021 7:00:00 PM 9.89 49.802 0.077 7.51 2.98 11.17
3/25/2021 7:15:00 PM 9.82 49.676 0.077 7.48 3.05 11.11
3/25/2021 7:30:00 PM 9.75 49.55 0.077 7.45 3.06 11.08
3/25/2021 7:45:00 PM 9.68 49.424 0.077 7.43 3.51 11.04
3/25/2021 8:00:00 PM 9.61 49.298 0.078 7.41 3.55 11.02
3/25/2021 8:15:00 PM 9.54 49.172 0.077 7.4 3.32 11.01
3/25/2021 8:30:00 PM 9.49 49.082 0.077 7.38 3.84 11
3/25/2021 8:45:00 PM 9.44 48.992 0.077 7.37 3.39 10.99
3/25/2021 9:00:00 PM 9.38 48.884 0.077 7.37 3.38 11
3/25/2021 9:15:00 PM 9.32 48.776 0.078 7.36 3.84 11
3/25/2021 9:30:00 PM 9.25 48.65 0.078 7.36 3.4 11.02
3/25/2021 9:45:00 PM 9.2 48.56 0.078 7.35 3.67 11.03
3/25/2021 10:00:00 PM 9.15 48.47 0.078 7.35 3.52 11.03
3/25/2021 10:15:00 PM 9.11 48.398 0.078 7.35 3.74 11.04
3/25/2021 10:30:00 PM 9.07 48.326 0.078 7.35 3.76 11.05
3/25/2021 10:45:00 PM 9.03 48.254 0.078 7.34 4.31 11.05
3/25/2021 11:00:00 PM 8.99 48.182 0.078 7.34 3.93 11.06
3/25/2021 11:15:00 PM 8.95 48.11 0.078 7.34 3.56 11.07
3/25/2021 11:30:00 PM 8.91 48.038 0.078 7.34 3.23 11.08
3/25/2021 11:45:00 PM 8.86 47.948 0.078 7.34 3.23 11.09
3/26/2021 12:00:00 AM 8.83 47.894 0.078 7.34 3.14 11.1
3/26/2021 12:15:00 AM 8.79 47.822 0.078 7.34 3.17 11.1
3/26/2021 12:30:00 AM 8.77 47.786 0.078 7.34 3.25 11.11
3/26/2021 12:45:00 AM 8.74 47.732 0.078 7.34 3.14 11.11
3/26/2021 1:00:00 AM 8.72 47.696 0.077 7.34 3.33 11.12
3/26/2021 1:15:00 AM 8.69 47.642 0.078 7.33 3.56 11.12
3/26/2021 1:30:00 AM 8.66 47.588 0.077 7.33 3.36 11.12
3/26/2021 1:45:00 AM 8.65 47.57 0.077 7.33 3.05 11.12
3/26/2021 2:00:00 AM 8.62 47.516 0.077 7.33 3.62 11.13
3/26/2021 2:15:00 AM 8.59 47.462 0.077 7.33 3.77 11.14
3/26/2021 2:30:00 AM 8.58 47.444 0.077 7.33 3.37 11.14
3/26/2021 2:45:00 AM 8.56 47.408 0.077 7.32 3.08 11.14
3/26/2021 3:00:00 AM 8.54 47.372 0.077 7.32 3.35 11.15
3/26/2021 3:15:00 AM 8.52 47.336 0.078 7.32 3.07 11.15
3/26/2021 3:30:00 AM 8.51 47.318 0.077 7.33 2.85 11.15
3/26/2021 3:45:00 AM 8.51 47.318 0.077 7.33 3.25 11.15
3/26/2021 4:00:00 AM 8.5 47.3 0.077 7.33 3.46 11.15
3/26/2021 4:15:00 AM 8.48 47.264 0.077 7.33 2.95 11.14
3/26/2021 4:30:00 AM 8.46 47.228 0.077 7.32 3.25 11.15
3/26/2021 4:45:00 AM 8.46 47.228 0.077 7.33 3.46 11.14
3/26/2021 5:00:00 AM 8.43 47.174 0.077 7.33 3.41 11.14
3/26/2021 5:15:00 AM 8.38 47.084 0.077 7.33 3.61 11.14
3/26/2021 5:30:00 AM 8.37 47.066 0.077 7.33 3.34 11.15
3/26/2021 5:45:00 AM 8.37 47.066 0.077 7.33 3.47 11.15
3/26/2021 6:00:00 AM 8.4 47.12 0.077 7.33 3.23 11.14
3/26/2021 6:15:00 AM 8.4 47.12 0.077 7.34 3.2 11.14
3/26/2021 6:30:00 AM 8.41 47.138 0.077 7.34 3.32 11.14
3/26/2021 6:45:00 AM 8.41 47.138 0.077 7.33 3.21 11.14
3/26/2021 7:00:00 AM 8.41 47.138 0.077 7.33 3.18 11.14
3/26/2021 7:15:00 AM 8.41 47.138 0.077 7.33 3.08 11.14
3/26/2021 7:30:00 AM 8.4 47.12 0.077 7.33 3.34 11.16
3/26/2021 7:45:00 AM 8.38 47.084 0.076 7.34 3.46 11.21
3/26/2021 8:00:00 AM 8.38 47.084 0.076 7.37 3.61 11.29
3/26/2021 8:15:00 AM 8.41 47.138 0.076 7.39 4.42 11.36
3/26/2021 8:30:00 AM 8.46 47.228 0.076 7.42 3.12 11.42
3/26/2021 8:45:00 AM 8.51 47.318 0.076 7.44 3.12 11.47
3/26/2021 9:00:00 AM 8.56 47.408 0.076 7.47 2.68 11.5
3/26/2021 9:15:00 AM 8.61 47.498 0.076 7.49 2.68 11.55
3/26/2021 9:30:00 AM 8.65 47.57 0.076 7.51 3.13 11.57
3/26/2021 9:45:00 AM 8.75 47.75 0.076 7.54 3.05 11.62
3/26/2021 10:00:00 AM 8.86 47.948 0.076 7.57 3.11 11.64
3/26/2021 10:15:00 AM 8.93 48.074 0.076 7.58 3 11.65
3/26/2021 10:30:00 AM 9.04 48.272 0.076 7.61 2.98 11.66
3/26/2021 10:45:00 AM 9.13 48.434 0.076 7.63 2.84 11.65
3/26/2021 11:00:00 AM 9.24 48.632 0.076 7.65 2.73 11.65
3/26/2021 11:15:00 AM 9.32 48.776 0.076 7.66 3.15 11.64
3/26/2021 11:30:00 AM 9.41 48.938 0.076 7.67 2.72 11.61
3/26/2021 11:45:00 AM 9.46 49.028 0.076 7.67 2.92 11.59
3/26/2021 12:00:00 PM 9.52 49.136 0.076 7.68 3.03 11.56
3/26/2021 12:15:00 PM 9.67 49.406 0.076 7.71 2.95 11.58
3/26/2021 12:30:00 PM 9.73 49.514 0.076 7.7 3.38 11.57
3/26/2021 12:45:00 PM 9.82 49.676 0.076 7.71 3.79 11.55
3/26/2021 1:00:00 PM 9.85 49.73 0.076 7.7 3.63 11.51
3/26/2021 1:15:00 PM 9.85 49.73 0.076 7.69 3.88 11.49
3/26/2021 1:30:00 PM 9.85 49.73 0.076 7.7 2.77 11.48
3/26/2021 1:45:00 PM 9.88 49.784 0.076 7.71 2.92 11.5
3/26/2021 2:00:00 PM 9.91 49.838 0.076 7.73 2.99 11.51
3/26/2021 2:15:00 PM 9.91 49.838 0.076 7.72 3.45 11.5
3/26/2021 2:30:00 PM 9.92 49.856 0.076 7.74 3.16 11.51
3/26/2021 2:45:00 PM 9.91 49.838 0.076 7.73 3.15 11.49
3/26/2021 3:00:00 PM 9.91 49.838 0.076 7.73 3.55 11.5
3/26/2021 3:15:00 PM 9.92 49.856 0.076 7.74 4.09 11.51
3/26/2021 3:30:00 PM 9.95 49.91 0.076 7.75 2.96 11.52
3/26/2021 3:45:00 PM 9.94 49.892 0.076 7.75 3.35 11.52
3/26/2021 4:00:00 PM 9.92 49.856 0.076 7.75 3.6 11.51
3/26/2021 4:15:00 PM 9.93 49.874 0.076 7.76 2.68 11.52
3/26/2021 4:30:00 PM 9.91 49.838 0.076 7.76 3.57 11.53
3/26/2021 4:45:00 PM 9.88 49.784 0.077 7.76 3.17 11.54
3/26/2021 5:00:00 PM 9.87 49.766 0.077 7.76 3.35 11.56
3/26/2021 5:15:00 PM 9.83 49.694 0.077 7.75 3 11.54
3/26/2021 5:30:00 PM 9.78 49.604 0.077 7.73 3.01 11.53
3/26/2021 5:45:00 PM 9.73 49.514 0.077 7.73 2.96 11.53
3/26/2021 6:00:00 PM 9.68 49.424 0.077 7.71 2.93 11.53
3/26/2021 6:15:00 PM 9.63 49.334 0.077 7.69 3.21 11.52
3/26/2021 6:30:00 PM 9.56 49.208 0.077 7.64 3.03 11.43
3/26/2021 6:45:00 PM 9.49 49.082 0.077 7.58 2.88 11.34
3/26/2021 7:00:00 PM 9.41 48.938 0.077 7.54 2.87 11.29
3/26/2021 7:15:00 PM 9.34 48.812 0.077 7.51 2.88 11.24
3/26/2021 7:30:00 PM 9.27 48.686 0.077 7.48 2.84 11.19
3/26/2021 7:45:00 PM 9.19 48.542 0.077 7.45 3.02 11.16
3/26/2021 8:00:00 PM 9.11 48.398 0.077 7.43 2.94 11.13
3/26/2021 8:15:00 PM 9.03 48.254 0.077 7.41 2.94 11.13
3/26/2021 8:30:00 PM 8.96 48.128 0.077 7.4 3.2 11.12
3/26/2021 8:45:00 PM 8.88 47.984 0.077 7.39 3.63 11.13
3/26/2021 9:00:00 PM 8.8 47.84 0.077 7.39 3.45 11.14
3/26/2021 9:15:00 PM 8.72 47.696 0.077 7.38 3.1 11.16
3/26/2021 9:30:00 PM 8.64 47.552 0.077 7.37 3.04 11.18
3/26/2021 9:45:00 PM 8.57 47.426 0.077 7.37 2.7 11.2
3/26/2021 10:00:00 PM 8.5 47.3 0.077 7.37 3.11 11.21
3/26/2021 10:15:00 PM 8.44 47.192 0.077 7.36 2.75 11.22
3/26/2021 10:30:00 PM 8.38 47.084 0.077 7.36 3.04 11.25
3/26/2021 10:45:00 PM 8.32 46.976 0.077 7.36 2.75 11.26
3/26/2021 11:00:00 PM 8.27 46.886 0.077 7.36 2.73 11.29
3/26/2021 11:15:00 PM 8.21 46.778 0.077 7.36 2.65 11.31
3/26/2021 11:30:00 PM 8.14 46.652 0.077 7.36 2.5 11.32
3/26/2021 11:45:00 PM 8.08 46.544 0.077 7.36 2.91 11.34
3/27/2021 12:00:00 AM 8.02 46.436 0.077 7.36 2.88 11.35
3/27/2021 12:15:00 AM 7.96 46.328 0.077 7.36 2.62 11.37
3/27/2021 12:30:00 AM 7.9 46.22 0.077 7.35 2.61 11.39
3/27/2021 12:45:00 AM 7.84 46.112 0.077 7.35 3.56 11.4
3/27/2021 1:00:00 AM 7.79 46.022 0.077 7.35 2.71 11.41
3/27/2021 1:15:00 AM 7.75 45.95 0.077 7.35 2.87 11.43
3/27/2021 1:30:00 AM 7.7 45.86 0.077 7.34 2.64 11.45
3/27/2021 1:45:00 AM 7.67 45.806 0.077 7.35 2.67 11.46
3/27/2021 2:00:00 AM 7.63 45.734 0.078 7.35 2.55 11.47
3/27/2021 2:15:00 AM 7.59 45.662 0.078 7.34 2.74 11.48
3/27/2021 2:30:00 AM 7.55 45.59 0.078 7.34 2.52 11.49
3/27/2021 2:45:00 AM 7.52 45.536 0.078 7.34 3.42 11.5
3/27/2021 3:00:00 AM 7.48 45.464 0.078 7.35 2.69 11.51
3/27/2021 3:15:00 AM 7.45 45.41 0.078 7.35 2.91 11.52
3/27/2021 3:30:00 AM 7.41 45.338 0.078 7.34 2.86 11.54
3/27/2021 3:45:00 AM 7.38 45.284 0.078 7.34 2.85 11.55
3/27/2021 4:00:00 AM 7.35 45.23 0.078 7.34 2.62 11.55
3/27/2021 4:15:00 AM 7.32 45.176 0.078 7.34 2.95 11.56
3/27/2021 4:30:00 AM 7.28 45.104 0.077 7.34 2.51 11.57
3/27/2021 4:45:00 AM 7.25 45.05 0.078 7.34 2.67 11.58
3/27/2021 5:00:00 AM 7.22 44.996 0.078 7.34 2.51 11.59
3/27/2021 5:15:00 AM 7.2 44.96 0.078 7.34 2.77 11.6
3/27/2021 5:30:00 AM 7.17 44.906 0.078 7.34 2.77 11.61
3/27/2021 5:45:00 AM 7.15 44.87 0.078 7.34 3.11 11.62
3/27/2021 6:00:00 AM 7.13 44.834 0.078 7.34 2.76 11.63
3/27/2021 6:15:00 AM 7.1 44.78 0.078 7.34 2.37 11.63
3/27/2021 6:30:00 AM 7.06 44.708 0.078 7.34 2.5 11.65
3/27/2021 6:45:00 AM 7.02 44.636 0.078 7.34 2.47 11.65
3/27/2021 7:00:00 AM 6.98 44.564 0.078 7.34 2.5 11.67
3/27/2021 7:15:00 AM 6.94 44.492 0.078 7.35 2.65 11.7
3/27/2021 7:30:00 AM 6.91 44.438 0.078 7.36 2.52 11.76
3/27/2021 7:45:00 AM 6.88 44.384 0.078 7.38 2.34 11.84
3/27/2021 8:00:00 AM 6.85 44.33 0.078 7.4 2.69 11.95
3/27/2021 8:15:00 AM 6.82 44.276 0.078 7.42 2.48 12.01
3/27/2021 8:30:00 AM 6.81 44.258 0.077 7.44 2.52 12.09
3/27/2021 8:45:00 AM 6.81 44.258 0.078 7.47 2.58 12.16
3/27/2021 9:00:00 AM 6.84 44.312 0.077 7.49 2.49 12.21
3/27/2021 9:15:00 AM 6.88 44.384 0.077 7.52 2.79 12.27
3/27/2021 9:30:00 AM 6.94 44.492 0.077 7.55 2.6 12.3
3/27/2021 9:45:00 AM 7.01 44.618 0.077 7.57 2.25 12.33
3/27/2021 10:00:00 AM 7.12 44.816 0.077 7.6 2.23 12.35
3/27/2021 10:15:00 AM 7.26 45.068 0.077 7.62 2.32 12.37
3/27/2021 10:30:00 AM 7.38 45.284 0.077 7.64 2.4 12.37
3/27/2021 10:45:00 AM 7.55 45.59 0.078 7.66 2.19 12.35
3/27/2021 11:00:00 AM 7.69 45.842 0.077 7.68 2.47 12.34
3/27/2021 11:15:00 AM 7.79 46.022 0.077 7.7 2.16 12.32
3/27/2021 11:30:00 AM 7.89 46.202 0.077 7.72 2.43 12.32
3/27/2021 11:45:00 AM 8.07 46.526 0.077 7.73 2.29 12.3
3/27/2021 12:00:00 PM 8.23 46.814 0.077 7.73 2.3 12.26
3/27/2021 12:15:00 PM 8.46 47.228 0.077 7.74 2.14 12.2
3/27/2021 12:30:00 PM 8.72 47.696 0.077 7.74 2.43 12.14
3/27/2021 12:45:00 PM 9.02 48.236 0.077 7.76 2.37 12.07
3/27/2021 1:00:00 PM 9.31 48.758 0.077 7.77 2.44 12.01
3/27/2021 1:15:00 PM 9.55 49.19 0.076 7.79 2.5 11.95
3/27/2021 1:30:00 PM 9.74 49.532 0.076 7.8 2.3 11.9
3/27/2021 1:45:00 PM 9.93 49.874 0.076 7.82 2.37 11.86
3/27/2021 2:00:00 PM 10.12 50.216 0.076 7.83 2.14 11.83
3/27/2021 2:15:00 PM 10.27 50.486 0.076 7.84 2.28 11.79
3/27/2021 2:30:00 PM 10.39 50.702 0.076 7.85 2.28 11.75
3/27/2021 2:45:00 PM 10.52 50.936 0.076 7.86 3.34 11.72
3/27/2021 3:00:00 PM 10.65 51.17 0.076 7.87 2.42 11.68
3/27/2021 3:15:00 PM 10.74 51.332 0.076 7.87 2.27 11.64
3/27/2021 3:30:00 PM 10.8 51.44 0.076 7.89 2.51 11.62
3/27/2021 3:45:00 PM 10.84 51.512 0.076 7.89 2.2 11.59
3/27/2021 4:00:00 PM 10.83 51.494 0.076 7.89 2.42 11.57
3/27/2021 4:15:00 PM 10.81 51.458 0.076 7.89 2.62 11.56
3/27/2021 4:30:00 PM 10.78 51.404 0.076 7.89 2.43 11.54
3/27/2021 4:45:00 PM 10.75 51.35 0.076 7.88 2.63 11.53
3/27/2021 5:00:00 PM 10.7 51.26 0.076 7.87 2.3 11.51
3/27/2021 5:15:00 PM 10.68 51.224 0.076 7.86 2.76 11.5
3/27/2021 5:30:00 PM 10.67 51.206 0.076 7.84 2.76 11.48
3/27/2021 5:45:00 PM 10.62 51.116 0.076 7.83 2.47 11.47
3/27/2021 6:00:00 PM 10.58 51.044 0.076 7.8 2.67 11.44
3/27/2021 6:15:00 PM 10.51 50.918 0.077 7.78 2.46 11.41
3/27/2021 6:30:00 PM 10.45 50.81 0.077 7.73 2.45 11.34
3/27/2021 6:45:00 PM 10.36 50.648 0.077 7.68 2.43 11.3
3/27/2021 7:00:00 PM 10.25 50.45 0.077 7.62 2.33 11.21
3/27/2021 7:15:00 PM 10.14 50.252 0.077 7.57 2.63 11.13
3/27/2021 7:30:00 PM 10.04 50.072 0.077 7.53 2.3 11.06
3/27/2021 7:45:00 PM 9.94 49.892 0.077 7.48 2.47 11
3/27/2021 8:00:00 PM 9.84 49.712 0.077 7.45 2.6 10.97
3/27/2021 8:15:00 PM 9.75 49.55 0.078 7.44 2.52 10.94
3/27/2021 8:30:00 PM 9.66 49.388 0.078 7.42 2.67 10.93
3/27/2021 8:45:00 PM 9.57 49.226 0.078 7.4 2.79 10.93
3/27/2021 9:00:00 PM 9.48 49.064 0.078 7.4 2.4 10.94
3/27/2021 9:15:00 PM 9.39 48.902 0.079 7.39 2.33 10.94
3/27/2021 9:30:00 PM 9.31 48.758 0.078 7.38 3 10.96
3/27/2021 9:45:00 PM 9.22 48.596 0.078 7.38 3.04 10.97
3/27/2021 10:00:00 PM 9.13 48.434 0.078 7.37 2.56 10.99
3/27/2021 10:15:00 PM 9.04 48.272 0.078 7.37 2.79 11.01
3/27/2021 10:30:00 PM 8.94 48.092 0.078 7.36 2.67 11.03
3/27/2021 10:45:00 PM 8.85 47.93 0.078 7.36 2.69 11.06
3/27/2021 11:00:00 PM 8.76 47.768 0.079 7.36 2.6 11.08
3/27/2021 11:15:00 PM 8.66 47.588 0.079 7.36 2.62 11.1
3/27/2021 11:30:00 PM 8.57 47.426 0.079 7.36 2.47 11.12
3/27/2021 11:45:00 PM 8.48 47.264 0.079 7.35 2.71 11.15
3/28/2021 12:00:00 AM 8.39 47.102 0.079 7.35 2.46 11.17
3/28/2021 12:15:00 AM 8.31 46.958 0.079 7.35 2.65 11.19
3/28/2021 12:30:00 AM 8.23 46.814 0.079 7.35 2.61 11.21
3/28/2021 12:45:00 AM 8.15 46.67 0.079 7.35 2.55 11.23
3/28/2021 1:00:00 AM 8.08 46.544 0.079 7.35 2.54 11.25
3/28/2021 1:15:00 AM 8.01 46.418 0.079 7.35 2.57 11.27
3/28/2021 1:30:00 AM 7.94 46.292 0.079 7.35 2.62 11.29
3/28/2021 1:45:00 AM 7.87 46.166 0.079 7.35 2.74 11.3
3/28/2021 2:00:00 AM 7.81 46.058 0.079 7.35 2.61 11.32
3/28/2021 2:15:00 AM 7.75 45.95 0.079 7.35 2.69 11.33
3/28/2021 2:30:00 AM 7.69 45.842 0.079 7.35 2.53 11.35
3/28/2021 2:45:00 AM 7.63 45.734 0.079 7.35 2.47 11.37
3/28/2021 3:00:00 AM 7.58 45.644 0.079 7.35 2.59 11.38
3/28/2021 3:15:00 AM 7.53 45.554 0.079 7.35 2.47 11.4
3/28/2021 3:30:00 AM 7.48 45.464 0.079 7.35 2.63 11.41
3/28/2021 3:45:00 AM 7.43 45.374 0.079 7.36 2.9 11.42
3/28/2021 4:00:00 AM 7.39 45.302 0.079 7.36 2.55 11.43
3/28/2021 4:15:00 AM 7.34 45.212 0.079 7.35 2.74 11.44
3/28/2021 4:30:00 AM 7.32 45.176 0.079 7.36 2.54 11.45
3/28/2021 4:45:00 AM 7.29 45.122 0.079 7.36 2.41 11.45
3/28/2021 5:00:00 AM 7.28 45.104 0.079 7.36 2.72 11.46
3/28/2021 5:15:00 AM 7.26 45.068 0.079 7.36 2.29 11.46
3/28/2021 5:30:00 AM 7.25 45.05 0.079 7.36 2.44 11.47
3/28/2021 5:45:00 AM 7.25 45.05 0.08 7.36 2.33 11.47
3/28/2021 6:00:00 AM 7.26 45.068 0.08 7.36 2.41 11.47
3/28/2021 6:15:00 AM 7.27 45.086 0.08 7.36 2.44 11.47
3/28/2021 6:30:00 AM 7.29 45.122 0.079 7.37 2.45 11.46
3/28/2021 6:45:00 AM 7.31 45.158 0.08 7.36 2.25 11.46
3/28/2021 7:00:00 AM 7.33 45.194 0.08 7.37 2.64 11.45
3/28/2021 7:15:00 AM 7.34 45.212 0.08 7.37 2.55 11.45
3/28/2021 7:30:00 AM 7.37 45.266 0.08 7.37 2.68 11.44
3/28/2021 7:45:00 AM 7.4 45.32 0.08 7.38 2.37 11.45
3/28/2021 8:00:00 AM 7.43 45.374 0.08 7.39 2.39 11.45
3/28/2021 8:15:00 AM 7.46 45.428 0.08 7.39 2.16 11.48
3/28/2021 8:30:00 AM 7.49 45.482 0.079 7.41 2.38 11.51
3/28/2021 8:45:00 AM 7.52 45.536 0.079 7.42 2.39 11.54
3/28/2021 9:00:00 AM 7.55 45.59 0.079 7.43 2.48 11.57
3/28/2021 9:15:00 AM 7.58 45.644 0.079 7.45 2.38 11.59
3/28/2021 9:30:00 AM 7.59 45.662 0.079 7.44 2.24 11.58
3/28/2021 9:45:00 AM 7.61 45.698 0.079 7.45 2.68 11.61
3/28/2021 10:00:00 AM 7.64 45.752 0.079 7.47 2.39 11.63
3/28/2021 10:15:00 AM 7.67 45.806 0.079 7.49 2.16 11.68
3/28/2021 10:30:00 AM 7.7 45.86 0.079 7.51 2.36 11.73
3/28/2021 10:45:00 AM 7.73 45.914 0.079 7.51 2.16 11.74
3/28/2021 11:00:00 AM 7.77 45.986 0.079 7.53 2.29 11.77
3/28/2021 11:15:00 AM 7.8 46.04 0.079 7.55 2.25 11.79
3/28/2021 11:30:00 AM 7.83 46.094 0.079 7.57 2.4 11.82
3/28/2021 11:45:00 AM 7.85 46.13 0.079 7.59 2.27 11.84
3/28/2021 12:00:00 PM 7.88 46.184 0.079 7.6 2.32 11.85
3/28/2021 12:15:00 PM 7.92 46.256 0.079 7.62 2.3 11.88
3/28/2021 12:30:00 PM 7.96 46.328 0.078 7.65 2.12 11.9
3/28/2021 12:45:00 PM 8 46.4 0.079 7.66 2.31 11.91
3/28/2021 1:00:00 PM 8.03 46.454 0.079 7.66 2.28 11.88
3/28/2021 1:15:00 PM 8.06 46.508 0.079 7.66 2.53 11.86
3/28/2021 1:30:00 PM 8.09 46.562 0.079 7.67 2.41 11.85
3/28/2021 1:45:00 PM 8.12 46.616 0.079 7.67 2.42 11.85
3/28/2021 2:00:00 PM 8.16 46.688 0.079 7.68 2.33 11.83
3/28/2021 2:15:00 PM 8.19 46.742 0.079 7.66 2.95 11.77
3/28/2021 2:30:00 PM 8.21 46.778 0.079 7.64 2.19 11.7
3/28/2021 2:45:00 PM 8.24 46.832 0.079 7.65 2.22 11.72
3/28/2021 3:00:00 PM 8.27 46.886 0.079 7.67 2.35 11.74
3/28/2021 3:15:00 PM 8.3 46.94 0.079 7.7 2.38 11.78
3/28/2021 3:30:00 PM 8.34 47.012 0.079 7.67 2.45 11.69
3/28/2021 3:45:00 PM 8.37 47.066 0.079 7.62 2.34 11.59
3/28/2021 4:00:00 PM 8.41 47.138 0.079 7.63 2.3 11.62
3/28/2021 4:15:00 PM 8.42 47.156 0.079 7.63 2.58 11.63
3/28/2021 4:30:00 PM 8.43 47.174 0.079 7.64 2.72 11.62
3/28/2021 4:45:00 PM 8.44 47.192 0.079 7.63 2.94 11.6
3/28/2021 5:00:00 PM 8.45 47.21 0.079 7.62 3.22 11.58
3/28/2021 5:15:00 PM 8.45 47.21 0.079 7.63 3.32 11.6
3/28/2021 5:30:00 PM 8.45 47.21 0.079 7.63 3.07 11.6
3/28/2021 5:45:00 PM 8.52 47.336 0.079 7.67 3.1 11.69
3/28/2021 6:00:00 PM 8.52 47.336 0.079 7.68 3.2 11.7
3/28/2021 6:15:00 PM 8.48 47.264 0.079 7.67 2.9 11.68
3/28/2021 6:30:00 PM 8.44 47.192 0.08 7.65 3.15 11.63
3/28/2021 6:45:00 PM 8.4 47.12 0.08 7.62 2.79 11.58
3/28/2021 7:00:00 PM 8.37 47.066 0.079 7.59 2.62 11.52
3/28/2021 7:15:00 PM 8.33 46.994 0.08 7.56 2.79 11.45
3/28/2021 7:30:00 PM 8.26 46.868 0.08 7.53 3.08 11.39
3/28/2021 7:45:00 PM 8.21 46.778 0.08 7.5 3.31 11.33
3/28/2021 8:00:00 PM 8.16 46.688 0.081 7.48 2.77 11.29
3/28/2021 8:15:00 PM 8.1 46.58 0.081 7.46 3.35 11.25
3/28/2021 8:30:00 PM 8.04 46.472 0.082 7.45 3.06 11.24
3/28/2021 8:45:00 PM 8 46.4 0.082 7.44 3.43 11.24
3/28/2021 9:00:00 PM 7.94 46.292 0.083 7.44 3.56 11.24
3/28/2021 9:15:00 PM 7.88 46.184 0.084 7.43 3.74 11.25
3/28/2021 9:30:00 PM 7.82 46.076 0.086 7.43 3.77 11.26
3/28/2021 9:45:00 PM 7.78 46.004 0.086 7.43 3.29 11.27
3/28/2021 10:00:00 PM 7.72 45.896 0.087 7.43 3.66 11.28
3/28/2021 10:15:00 PM 7.66 45.788 0.088 7.43 3.85 11.3
3/28/2021 10:30:00 PM 7.61 45.698 0.089 7.43 3.24 11.32
3/28/2021 10:45:00 PM 7.55 45.59 0.09 7.43 3.61 11.34
3/28/2021 11:00:00 PM 7.48 45.464 0.091 7.44 3.38 11.36
3/28/2021 11:15:00 PM 7.39 45.302 0.091 7.43 3.42 11.38
3/28/2021 11:30:00 PM 7.3 45.14 0.091 7.44 3.58 11.4
3/28/2021 11:45:00 PM 7.23 45.014 0.092 7.44 3.5 11.42
3/29/2021 12:00:00 AM 7.15 44.87 0.092 7.43 3.4 11.44
3/29/2021 12:15:00 AM 7.08 44.744 0.092 7.44 4.26 11.46
3/29/2021 12:30:00 AM 7.01 44.618 0.093 7.44 3.17 11.49
3/29/2021 12:45:00 AM 6.95 44.51 0.093 7.44 3.32 11.51
3/29/2021 1:00:00 AM 6.88 44.384 0.093 7.44 3.46 11.53
3/29/2021 1:15:00 AM 6.83 44.294 0.094 7.44 3.71 11.55
3/29/2021 1:30:00 AM 6.76 44.168 0.095 7.45 3.4 11.57
3/29/2021 1:45:00 AM 6.72 44.096 0.096 7.45 3.87 11.59
3/29/2021 2:00:00 AM 6.65 43.97 0.096 7.44 3.72 11.61
3/29/2021 2:15:00 AM 6.59 43.862 0.097 7.45 3.6 11.63
3/29/2021 2:30:00 AM 6.52 43.736 0.097 7.45 3.59 11.65
3/29/2021 2:45:00 AM 6.45 43.61 0.097 7.45 3.55 11.67
3/29/2021 3:00:00 AM 6.38 43.484 0.097 7.45 3.24 11.69
3/29/2021 3:15:00 AM 6.33 43.394 0.097 7.45 3.12 11.71
3/29/2021 3:30:00 AM 6.26 43.268 0.098 7.45 3.41 11.74
3/29/2021 3:45:00 AM 6.2 43.16 0.098 7.45 3.3 11.76
3/29/2021 4:00:00 AM 6.13 43.034 0.098 7.45 3.51 11.79
3/29/2021 4:15:00 AM 6.08 42.944 0.098 7.45 3.06 11.81
3/29/2021 4:30:00 AM 6.02 42.836 0.098 7.45 2.89 11.82
3/29/2021 4:45:00 AM 5.97 42.746 0.098 7.45 3.09 11.84
3/29/2021 5:00:00 AM 5.92 42.656 0.098 7.44 3.07 11.87
3/29/2021 5:15:00 AM 5.86 42.548 0.098 7.45 3.04 11.89
3/29/2021 5:30:00 AM 5.79 42.422 0.098 7.45 2.82 11.92
3/29/2021 5:45:00 AM 5.73 42.314 0.098 7.44 3 11.94
3/29/2021 6:00:00 AM 5.68 42.224 0.098 7.44 3.02 11.96
3/29/2021 6:15:00 AM 5.61 42.098 0.098 7.44 2.55 11.98
3/29/2021 6:30:00 AM 5.56 42.008 0.098 7.44 2.86 12
3/29/2021 6:45:00 AM 5.5 41.9 0.097 7.44 2.78 12.02
3/29/2021 7:00:00 AM 5.44 41.792 0.097 7.44 2.8 12.05
3/29/2021 7:15:00 AM 5.4 41.72 0.097 7.45 2.72 12.09
3/29/2021 7:30:00 AM 5.35 41.63 0.097 7.46 2.72 12.15
3/29/2021 7:45:00 AM 5.31 41.558 0.097 7.46 2.59 12.2
3/29/2021 8:00:00 AM 5.27 41.486 0.097 7.47 2.58 12.28
3/29/2021 8:15:00 AM 5.23 41.414 0.097 7.49 2.59 12.34
3/29/2021 8:30:00 AM 5.2 41.36 0.096 7.5 2.35 12.39
3/29/2021 8:45:00 AM 5.18 41.324 0.096 7.52 2.58 12.46
3/29/2021 9:00:00 AM 5.15 41.27 0.096 7.54 2.84 12.55
3/29/2021 9:15:00 AM 5.16 41.288 0.096 7.57 2.41 12.67
3/29/2021 9:30:00 AM 5.15 41.27 0.096 7.61 2.21 12.75
3/29/2021 9:45:00 AM 5.14 41.252 0.096 7.64 2.29 12.81
3/29/2021 10:00:00 AM 5.16 41.288 0.095 7.66 2.29 12.88
3/29/2021 10:15:00 AM 5.2 41.36 0.095 7.69 2.19 12.93
3/29/2021 10:30:00 AM 5.28 41.504 0.095 7.72 2.41 12.97
3/29/2021 10:45:00 AM 5.35 41.63 0.095 7.74 2.19 12.99
3/29/2021 11:00:00 AM 5.43 41.774 0.095 7.77 2.41 13.01
3/29/2021 11:15:00 AM 5.55 41.99 0.094 7.78 2.17 13.02
3/29/2021 11:30:00 AM 5.69 42.242 0.094 7.79 2.07 13.01
3/29/2021 11:45:00 AM 5.83 42.494 0.094 7.8 2.23 12.98
3/29/2021 12:00:00 PM 6.01 42.818 0.094 7.82 2.31 12.96
3/29/2021 12:15:00 PM 6.1 42.98 0.094 7.83 2.14 12.93
3/29/2021 12:30:00 PM 6.36 43.448 0.094 7.84 2.25 12.9
3/29/2021 12:45:00 PM 6.51 43.718 0.093 7.83 2.16 12.84
3/29/2021 1:00:00 PM 6.76 44.168 0.093 7.84 2.13 12.8
3/29/2021 1:15:00 PM 6.87 44.366 0.093 7.84 2.14 12.75
3/29/2021 1:30:00 PM 7.06 44.708 0.093 7.84 2.09 12.7
3/29/2021 1:45:00 PM 7.31 45.158 0.093 7.84 2.12 12.64
3/29/2021 2:00:00 PM 7.56 45.608 0.093 7.85 2.12 12.57
3/29/2021 2:15:00 PM 7.79 46.022 0.093 7.86 2.29 12.5
3/29/2021 2:30:00 PM 7.95 46.31 0.093 7.87 2.25 12.45
3/29/2021 2:45:00 PM 8.1 46.58 0.093 7.87 2 12.42
3/29/2021 3:00:00 PM 8.25 46.85 0.093 7.88 2.1 12.37
3/29/2021 3:15:00 PM 8.4 47.12 0.093 7.88 2.4 12.33
3/29/2021 3:30:00 PM 8.55 47.39 0.093 7.89 2 12.27
3/29/2021 3:45:00 PM 8.66 47.588 0.093 7.89 1.79 12.23
3/29/2021 4:00:00 PM 8.76 47.768 0.092 7.9 1.98 12.2
3/29/2021 4:15:00 PM 8.83 47.894 0.092 7.9 2.13 12.18
3/29/2021 4:30:00 PM 8.88 47.984 0.092 7.91 2.21 12.14
3/29/2021 4:45:00 PM 8.9 48.02 0.092 7.91 2.21 12.12
3/29/2021 5:00:00 PM 8.89 48.002 0.092 7.9 2.01 12.1
3/29/2021 5:15:00 PM 8.87 47.966 0.092 7.89 2.09 12.07
3/29/2021 5:30:00 PM 8.81 47.858 0.092 7.87 2.21 12.04
3/29/2021 5:45:00 PM 8.7 47.66 0.092 7.84 2.22 12.02
3/29/2021 6:00:00 PM 8.58 47.444 0.092 7.81 2.16 11.98
3/29/2021 6:15:00 PM 8.47 47.246 0.092 7.77 2.21 11.95
3/29/2021 6:30:00 PM 8.33 46.994 0.092 7.73 2.06 11.91
3/29/2021 6:45:00 PM 8.21 46.778 0.092 7.69 2.07 11.85
3/29/2021 7:00:00 PM 8.08 46.544 0.092 7.64 2.21 11.78
3/29/2021 7:15:00 PM 7.95 46.31 0.092 7.61 2.33 11.74
3/29/2021 7:30:00 PM 7.85 46.13 0.092 7.57 2.51 11.7
3/29/2021 7:45:00 PM 7.75 45.95 0.093 7.53 2.74 11.65
3/29/2021 8:00:00 PM 7.65 45.77 0.093 7.51 2.35 11.62
3/29/2021 8:15:00 PM 7.55 45.59 0.093 7.49 2.44 11.6
3/29/2021 8:30:00 PM 7.45 45.41 0.093 7.47 2.66 11.6
3/29/2021 8:45:00 PM 7.34 45.212 0.093 7.46 2.38 11.61
3/29/2021 9:00:00 PM 7.24 45.032 0.093 7.45 2.36 11.62
3/29/2021 9:15:00 PM 7.14 44.852 0.093 7.45 2.19 11.65
3/29/2021 9:30:00 PM 7.03 44.654 0.093 7.44 2.09 11.67
3/29/2021 9:45:00 PM 6.93 44.474 0.093 7.44 2.27 11.69
3/29/2021 10:00:00 PM 6.82 44.276 0.093 7.43 2.24 11.72
3/29/2021 10:15:00 PM 6.71 44.078 0.093 7.43 2.39 11.75
3/29/2021 10:30:00 PM 6.61 43.898 0.093 7.42 2.63 11.78
3/29/2021 10:45:00 PM 6.5 43.7 0.093 7.42 2.33 11.81
3/29/2021 11:00:00 PM 6.39 43.502 0.093 7.42 2.42 11.84
3/29/2021 11:15:00 PM 6.28 43.304 0.093 7.42 2.44 11.88
3/29/2021 11:30:00 PM 6.17 43.106 0.093 7.41 2.4 11.91
3/29/2021 11:45:00 PM 6.07 42.926 0.093 7.41 2.44 11.94
3/30/2021 12:00:00 AM 5.97 42.746 0.093 7.42 2.32 11.97
3/30/2021 12:15:00 AM 5.87 42.566 0.093 7.41 2.2 12
3/30/2021 12:30:00 AM 5.78 42.404 0.093 7.41 2.37 12.03
3/30/2021 12:45:00 AM 5.69 42.242 0.093 7.41 2.22 12.07
3/30/2021 1:00:00 AM 5.6 42.08 0.093 7.41 2.25 12.1
3/30/2021 1:15:00 AM 5.51 41.918 0.093 7.41 2.17 12.12
3/30/2021 1:30:00 AM 5.43 41.774 0.093 7.41 2.35 12.14
3/30/2021 1:45:00 AM 5.35 41.63 0.093 7.41 2.12 12.17
3/30/2021 2:00:00 AM 5.27 41.486 0.093 7.41 2.18 12.2
3/30/2021 2:15:00 AM 5.19 41.342 0.093 7.41 2.29 12.23
3/30/2021 2:30:00 AM 5.11 41.198 0.093 7.41 2.45 12.26
3/30/2021 2:45:00 AM 5.04 41.072 0.093 7.41 2.15 12.28
3/30/2021 3:00:00 AM 4.97 40.946 0.093 7.41 2.38 12.3
3/30/2021 3:15:00 AM 4.89 40.802 0.093 7.41 2.55 12.32
3/30/2021 3:30:00 AM 4.83 40.694 0.093 7.41 2.34 12.35
3/30/2021 3:45:00 AM 4.76 40.568 0.093 7.41 2.44 12.37
3/30/2021 4:00:00 AM 4.7 40.46 0.093 7.41 2.15 12.4
3/30/2021 4:15:00 AM 4.63 40.334 0.093 7.41 2.25 12.41
3/30/2021 4:30:00 AM 4.57 40.226 0.093 7.4 2.12 12.43
3/30/2021 4:45:00 AM 4.51 40.118 0.093 7.41 2.14 12.45
3/30/2021 5:00:00 AM 4.45 40.01 0.093 7.41 2.22 12.46
3/30/2021 5:15:00 AM 4.4 39.92 0.093 7.41 2.13 12.5
3/30/2021 5:30:00 AM 4.34 39.812 0.093 7.41 2.6 12.51
3/30/2021 5:45:00 AM 4.28 39.704 0.093 7.41 2.16 12.54
3/30/2021 6:00:00 AM 4.22 39.596 0.093 7.41 2.22 12.56
3/30/2021 6:15:00 AM 4.17 39.506 0.093 7.41 2.22 12.58
3/30/2021 6:30:00 AM 4.11 39.398 0.093 7.41 2.45 12.59
3/30/2021 6:45:00 AM 4.06 39.308 0.093 7.41 2.24 12.61
3/30/2021 7:00:00 AM 4.01 39.218 0.093 7.42 2.33 12.63
3/30/2021 7:15:00 AM 3.96 39.128 0.093 7.43 2.41 12.69
3/30/2021 7:30:00 AM 3.91 39.038 0.092 7.44 2.68 12.77
3/30/2021 7:45:00 AM 3.88 38.984 0.093 7.46 2.39 12.85
3/30/2021 8:00:00 AM 3.84 38.912 0.092 7.47 2.33 12.94
3/30/2021 8:15:00 AM 3.81 38.858 0.092 7.49 2.41 13.02
3/30/2021 8:30:00 AM 3.81 38.858 0.092 7.51 2.22 13.1
3/30/2021 8:45:00 AM 3.82 38.876 0.092 7.53 2.06 13.17
3/30/2021 9:00:00 AM 3.87 38.966 0.092 7.56 2.43 13.22
3/30/2021 9:15:00 AM 3.93 39.074 0.092 7.58 2.22 13.27
3/30/2021 9:30:00 AM 4.03 39.254 0.092 7.61 2.14 13.3
3/30/2021 9:45:00 AM 4.14 39.452 0.091 7.62 1.99 13.31
3/30/2021 10:00:00 AM 4.27 39.686 0.091 7.65 2.42 13.33
3/30/2021 10:15:00 AM 4.43 39.974 0.091 7.67 2.02 13.32
3/30/2021 10:30:00 AM 4.65 40.37 0.091 7.68 2.05 13.3
3/30/2021 10:45:00 AM 4.88 40.784 0.091 7.7 2.08 13.27
3/30/2021 11:00:00 AM 5.12 41.216 0.091 7.71 2.08 13.22
3/30/2021 11:15:00 AM 5.36 41.648 0.09 7.73 1.99 13.19
3/30/2021 11:30:00 AM 5.62 42.116 0.09 7.74 2.12 13.13
3/30/2021 11:45:00 AM 5.88 42.584 0.09 7.75 2.02 13.08
3/30/2021 12:00:00 PM 6.16 43.088 0.091 7.77 1.9 13
3/30/2021 12:15:00 PM 6.44 43.592 0.09 7.77 2.16 12.95
3/30/2021 12:30:00 PM 6.75 44.15 0.09 7.79 2.27 12.86
3/30/2021 12:45:00 PM 7.05 44.69 0.09 7.8 2.05 12.79
3/30/2021 1:00:00 PM 7.36 45.248 0.09 7.82 2.07 12.71
3/30/2021 1:15:00 PM 7.66 45.788 0.089 7.83 1.97 12.63
3/30/2021 1:30:00 PM 7.96 46.328 0.089 7.84 1.91 12.54
3/30/2021 1:45:00 PM 8.24 46.832 0.089 7.85 1.96 12.47
3/30/2021 2:00:00 PM 8.51 47.318 0.089 7.87 1.91 12.39
3/30/2021 2:15:00 PM 8.77 47.786 0.089 7.88 1.88 12.32
3/30/2021 2:30:00 PM 9.02 48.236 0.089 7.89 1.93 12.25
3/30/2021 2:45:00 PM 9.25 48.65 0.089 7.91 2.06 12.19
3/30/2021 3:00:00 PM 9.46 49.028 0.089 7.93 1.88 12.13
3/30/2021 3:15:00 PM 9.65 49.37 0.089 7.94 2.02 12.08
3/30/2021 3:30:00 PM 9.82 49.676 0.089 7.96 2.07 12.03
3/30/2021 3:45:00 PM 9.97 49.946 0.089 7.97 2.32 11.98
3/30/2021 4:00:00 PM 10.09 50.162 0.089 7.97 2.01 11.93
3/30/2021 4:15:00 PM 10.18 50.324 0.089 7.98 1.85 11.9
3/30/2021 4:30:00 PM 10.24 50.432 0.089 7.98 2.37 11.86
3/30/2021 4:45:00 PM 10.24 50.432 0.09 7.98 2 11.82
3/30/2021 5:00:00 PM 10.25 50.45 0.089 8 2.01 11.82
3/30/2021 5:15:00 PM 10.26 50.468 0.089 7.99 2.11 11.79
3/30/2021 5:30:00 PM 10.2 50.36 0.089 7.97 2.23 11.77
3/30/2021 5:45:00 PM 10.14 50.252 0.089 7.96 2.04 11.73
3/30/2021 6:00:00 PM 10.07 50.126 0.089 7.92 2.61 11.71
3/30/2021 6:15:00 PM 9.98 49.964 0.089 7.87 2.08 11.65
3/30/2021 6:30:00 PM 9.87 49.766 0.089 7.81 2.11 11.57
3/30/2021 6:45:00 PM 9.75 49.55 0.089 7.74 2.11 11.48
3/30/2021 7:00:00 PM 9.65 49.37 0.089 7.69 2.21 11.43
3/30/2021 7:15:00 PM 9.55 49.19 0.089 7.65 2.2 11.35
3/30/2021 7:30:00 PM 9.45 49.01 0.089 7.6 2.27 11.26
3/30/2021 7:45:00 PM 9.35 48.83 0.09 7.55 2.65 11.19
3/30/2021 8:00:00 PM 9.25 48.65 0.09 7.52 2.38 11.14
3/30/2021 8:15:00 PM 9.16 48.488 0.09 7.5 2.67 11.12
3/30/2021 8:30:00 PM 9.07 48.326 0.09 7.48 2.33 11.1
3/30/2021 8:45:00 PM 8.98 48.164 0.09 7.47 2.64 11.1
3/30/2021 9:00:00 PM 8.9 48.02 0.09 7.46 2.36 11.11
3/30/2021 9:15:00 PM 8.82 47.876 0.09 7.46 2.09 11.12
3/30/2021 9:30:00 PM 8.74 47.732 0.09 7.45 2.1 11.13
3/30/2021 9:45:00 PM 8.67 47.606 0.09 7.44 2.44 11.15
3/30/2021 10:00:00 PM 8.59 47.462 0.09 7.44 2.28 11.16
3/30/2021 10:15:00 PM 8.52 47.336 0.09 7.43 2.29 11.18
3/30/2021 10:30:00 PM 8.45 47.21 0.09 7.44 2.24 11.2
3/30/2021 10:45:00 PM 8.38 47.084 0.09 7.44 2.1 11.22
3/30/2021 11:00:00 PM 8.32 46.976 0.09 7.43 2.27 11.23
3/30/2021 11:15:00 PM 8.25 46.85 0.09 7.43 2.32 11.25
3/30/2021 11:30:00 PM 8.18 46.724 0.09 7.42 2.13 11.27
3/30/2021 11:45:00 PM 8.11 46.598 0.09 7.42 2.29 11.3
3/31/2021 12:00:00 AM 8.03 46.454 0.09 7.42 2.37 11.31
3/31/2021 12:15:00 AM 7.96 46.328 0.09 7.42 2.15 11.34
3/31/2021 12:30:00 AM 7.89 46.202 0.09 7.41 1.93 11.35
3/31/2021 12:45:00 AM 7.83 46.094 0.09 7.42 2.18 11.37
3/31/2021 1:00:00 AM 7.77 45.986 0.09 7.42 2.39 11.39
3/31/2021 1:15:00 AM 7.71 45.878 0.09 7.42 2.26 11.41
3/31/2021 1:30:00 AM 7.66 45.788 0.09 7.42 2.38 11.43
3/31/2021 1:45:00 AM 7.6 45.68 0.09 7.42 2.66 11.44
3/31/2021 2:00:00 AM 7.54 45.572 0.09 7.42 2.74 11.45
3/31/2021 2:15:00 AM 7.49 45.482 0.09 7.41 2.6 11.47
3/31/2021 2:30:00 AM 7.44 45.392 0.09 7.42 3.16 11.48
3/31/2021 2:45:00 AM 7.39 45.302 0.09 7.41 3.05 11.5
3/31/2021 3:00:00 AM 7.34 45.212 0.09 7.41 2.49 11.51
3/31/2021 3:15:00 AM 7.29 45.122 0.09 7.41 2.1 11.52
3/31/2021 3:30:00 AM 7.25 45.05 0.09 7.41 2.51 11.54
3/31/2021 3:45:00 AM 7.21 44.978 0.09 7.41 2.2 11.55
3/31/2021 4:00:00 AM 7.17 44.906 0.09 7.4 2.36 11.56
3/31/2021 4:15:00 AM 7.14 44.852 0.09 7.41 2.48 11.56
3/31/2021 4:30:00 AM 7.1 44.78 0.09 7.41 2.2 11.58
3/31/2021 4:45:00 AM 7.07 44.726 0.09 7.41 2.24 11.58
3/31/2021 5:00:00 AM 7.04 44.672 0.09 7.41 2.57 11.59
3/31/2021 5:15:00 AM 7.02 44.636 0.09 7.41 2.24 11.6
3/31/2021 5:30:00 AM 7 44.6 0.09 7.41 2.31 11.6
3/31/2021 5:45:00 AM 6.97 44.546 0.09 7.41 2.27 11.61
3/31/2021 6:00:00 AM 6.95 44.51 0.09 7.41 2.14 11.62
3/31/2021 6:15:00 AM 6.93 44.474 0.09 7.41 2.08 11.62
3/31/2021 6:30:00 AM 6.91 44.438 0.09 7.41 2.28 11.63
3/31/2021 6:45:00 AM 6.89 44.402 0.09 7.41 2.57 11.64
3/31/2021 7:00:00 AM 6.88 44.384 0.09 7.41 2.51 11.65
3/31/2021 7:15:00 AM 6.86 44.348 0.09 7.42 2.39 11.69
3/31/2021 7:30:00 AM 6.86 44.348 0.089 7.43 2.26 11.75
3/31/2021 7:45:00 AM 6.86 44.348 0.089 7.46 2.33 11.83
3/31/2021 8:00:00 AM 6.87 44.366 0.089 7.48 2.42 11.92
3/31/2021 8:15:00 AM 6.89 44.402 0.089 7.51 2 12.02
3/31/2021 8:30:00 AM 6.91 44.438 0.089 7.54 2.11 12.11
3/31/2021 8:45:00 AM 6.93 44.474 0.089 7.57 2.38 12.16
3/31/2021 9:00:00 AM 6.95 44.51 0.089 7.6 2.36 12.22
3/31/2021 9:15:00 AM 6.99 44.582 0.089 7.62 2.13 12.28
3/31/2021 9:30:00 AM 7.03 44.654 0.088 7.66 2.11 12.34
3/31/2021 9:45:00 AM 7.06 44.708 0.088 7.68 2.08 12.34
3/31/2021 10:00:00 AM 7.09 44.762 0.089 7.67 2.18 12.3
3/31/2021 10:15:00 AM 7.11 44.798 0.088 7.67 2.17 12.27
3/31/2021 10:30:00 AM 7.14 44.852 0.088 7.67 2.22 12.25
3/31/2021 10:45:00 AM 7.16 44.888 0.088 7.66 2.24 12.22
3/31/2021 11:00:00 AM 7.18 44.924 0.088 7.65 2.15 12.19
3/31/2021 11:15:00 AM 7.21 44.978 0.087 7.65 2.01 12.2
3/31/2021 11:30:00 AM 7.25 45.05 0.087 7.68 2.18 12.24
3/31/2021 11:45:00 AM 7.28 45.104 0.087 7.71 2.26 12.29
3/31/2021 12:00:00 PM 7.34 45.212 0.087 7.75 2.13 12.35
3/31/2021 12:15:00 PM 7.38 45.284 0.087 7.78 1.96 12.37
3/31/2021 12:30:00 PM 7.42 45.356 0.086